PWSweather.com
Personal Weather Stations
Station Observations
KCTGROTO5
Groton, CT 06340

Groton, CT 06340

Lat: 41.355721, Lon: -72.084428

Elevation: 0

Station Type: acurite 5in1

High Low Average
Temperature 54.2°F12.3°C 34.2°F1.2°C 42.7°F5.9°C
Dew Point 51.6°F10.9°C 32.0°F0.0°C 37.9°F3.3°C
Winds 10.0 mph 16.1 kmh Calm Calm 2.0 mph SE3.2 kmh SE
Wind Gusts 10.0 mph16.1 kmh 1.0 mph1.6 kmh 5.0 mph8.0 kmh
Humidity 98% 59% 84%
Pressure 30.69 in1039.3 mb 30.35 in1027.8 mb -
Precipitation 0.27 in6.9 mm - -
Hour Temp Dew Point Humidity Winds Wind Gusts Pressure Precip Precip Rate Daily Precip Total
12:00 AM 55.0°F12.8°C 50.9°F10.5°C 86% Calm Calm -- 30.34 in1027.4 mb 0.00 in0.0 mm 0.00 in0.0 mm 0.00 in0.0 mm
12:01 AM 55.0°F12.8°C 50.9°F10.5°C 86% Calm Calm -- 30.34 in1027.4 mb 0.00 in0.0 mm 0.00 in0.0 mm 0.00 in0.0 mm
12:02 AM 55.0°F12.8°C 50.9°F10.5°C 86% Calm Calm -- 30.34 in1027.4 mb 0.00 in0.0 mm 0.00 in0.0 mm 0.00 in0.0 mm
12:03 AM 55.0°F12.8°C 50.9°F10.5°C 86% Calm Calm -- 30.35 in1027.8 mb 0.00 in0.0 mm 0.00 in0.0 mm 0.00 in0.0 mm
12:04 AM 55.0°F12.8°C 51.5°F10.8°C 88% Calm Calm -- 30.35 in1027.8 mb 0.00 in0.0 mm 0.00 in0.0 mm 0.00 in0.0 mm
12:05 AM 55.0°F12.8°C 51.5°F10.8°C 88% Calm Calm -- 30.35 in1027.8 mb 0.00 in0.0 mm 0.00 in0.0 mm 0.00 in0.0 mm
12:06 AM 55.0°F12.8°C 51.5°F10.8°C 88% Calm Calm -- 30.35 in1027.8 mb 0.00 in0.0 mm 0.00 in0.0 mm 0.00 in0.0 mm
12:07 AM 55.0°F12.8°C 51.5°F10.8°C 88% Calm Calm -- 30.35 in1027.8 mb 0.00 in0.0 mm 0.00 in0.0 mm 0.00 in0.0 mm
12:08 AM 55.0°F12.8°C 51.5°F10.8°C 88% Calm Calm -- 30.35 in1027.8 mb 0.00 in0.0 mm 0.00 in0.0 mm 0.00 in0.0 mm
12:09 AM 55.0°F12.8°C 51.5°F10.8°C 88% Calm Calm -- 30.35 in1027.8 mb 0.00 in0.0 mm 0.00 in0.0 mm 0.00 in0.0 mm
12:10 AM 55.0°F12.8°C 51.5°F10.8°C 88% Calm Calm -- 30.35 in1027.8 mb 0.00 in0.0 mm 0.00 in0.0 mm 0.00 in0.0 mm
12:11 AM 55.0°F12.8°C 51.5°F10.8°C 88% Calm Calm -- 30.35 in1027.8 mb 0.00 in0.0 mm 0.00 in0.0 mm 0.00 in0.0 mm
12:12 AM 55.0°F12.8°C 51.5°F10.8°C 88% 1.0 mph SSW1.6 kmh SSW 1.0 mph1.6 kmh 30.35 in1027.8 mb 0.00 in0.0 mm 0.00 in0.0 mm 0.00 in0.0 mm
12:13 AM 55.0°F12.8°C 51.5°F10.8°C 88% 2.0 mph SSW3.2 kmh SSW 2.0 mph3.2 kmh 30.35 in1027.8 mb 0.00 in0.0 mm 0.00 in0.0 mm 0.00 in0.0 mm
12:14 AM 55.0°F12.8°C 51.5°F10.8°C 88% 1.0 mph WNW1.6 kmh WNW 2.0 mph3.2 kmh 30.35 in1027.8 mb 0.00 in0.0 mm 0.00 in0.0 mm 0.00 in0.0 mm
12:15 AM 55.0°F12.8°C 51.5°F10.8°C 88% 1.0 mph WNW1.6 kmh WNW 2.0 mph3.2 kmh 30.36 in1028.1 mb 0.00 in0.0 mm 0.00 in0.0 mm 0.00 in0.0 mm
12:16 AM 54.9°F12.7°C 51.4°F10.8°C 88% 2.0 mph NW3.2 kmh NW 2.0 mph3.2 kmh 30.36 in1028.1 mb 0.00 in0.0 mm 0.00 in0.0 mm 0.00 in0.0 mm
12:17 AM 54.9°F12.7°C 51.4°F10.8°C 88% 1.0 mph NW1.6 kmh NW 2.0 mph3.2 kmh 30.35 in1027.8 mb 0.00 in0.0 mm 0.00 in0.0 mm 0.00 in0.0 mm
12:18 AM 54.9°F12.7°C 51.4°F10.8°C 88% 1.0 mph NW1.6 kmh NW 2.0 mph3.2 kmh 30.35 in1027.8 mb 0.00 in0.0 mm 0.00 in0.0 mm 0.00 in0.0 mm
12:19 AM 54.9°F12.7°C 51.4°F10.8°C 88% 1.0 mph SSW1.6 kmh SSW 2.0 mph3.2 kmh 30.35 in1027.8 mb 0.01 in0.3 mm 0.60 in15.2 mm 0.01 in0.3 mm
12:20 AM 54.9°F12.7°C 51.4°F10.8°C 88% Calm Calm 2.0 mph3.2 kmh 30.35 in1027.8 mb 0.01 in0.3 mm 0.00 in0.0 mm 0.01 in0.3 mm
12:21 AM 54.9°F12.7°C 52.0°F11.1°C 90% Calm Calm 2.0 mph3.2 kmh 30.35 in1027.8 mb 0.01 in0.3 mm 0.00 in0.0 mm 0.01 in0.3 mm
12:22 AM 54.9°F12.7°C 52.0°F11.1°C 90% Calm Calm 2.0 mph3.2 kmh 30.35 in1027.8 mb 0.01 in0.3 mm 0.00 in0.0 mm 0.01 in0.3 mm
12:23 AM 54.9°F12.7°C 52.0°F11.1°C 90% Calm Calm 2.0 mph3.2 kmh 30.35 in1027.8 mb 0.01 in0.3 mm 0.00 in0.0 mm 0.01 in0.3 mm
12:24 AM 54.9°F12.7°C 52.0°F11.1°C 90% 1.0 mph WNW1.6 kmh WNW 2.0 mph3.2 kmh 30.35 in1027.8 mb 0.01 in0.3 mm 0.00 in0.0 mm 0.01 in0.3 mm
12:25 AM 54.7°F12.6°C 51.8°F11.0°C 90% Calm Calm 2.0 mph3.2 kmh 30.35 in1027.8 mb 0.01 in0.3 mm 0.00 in0.0 mm 0.01 in0.3 mm
12:26 AM 54.7°F12.6°C 51.8°F11.0°C 90% 1.0 mph NNE1.6 kmh NNE 2.0 mph3.2 kmh 30.35 in1027.8 mb 0.01 in0.3 mm 0.00 in0.0 mm 0.01 in0.3 mm
12:27 AM 54.7°F12.6°C 52.1°F11.2°C 91% 2.0 mph 3.2 kmh 2.0 mph3.2 kmh 30.35 in1027.8 mb 0.01 in0.3 mm 0.00 in0.0 mm 0.01 in0.3 mm
12:28 AM 54.7°F12.6°C 52.1°F11.2°C 91% 1.0 mph NNE1.6 kmh NNE 2.0 mph3.2 kmh 30.35 in1027.8 mb 0.01 in0.3 mm 0.00 in0.0 mm 0.01 in0.3 mm
12:29 AM 54.7°F12.6°C 52.1°F11.2°C 91% 2.0 mph E3.2 kmh E 2.0 mph3.2 kmh 30.35 in1027.8 mb 0.01 in0.3 mm 0.00 in0.0 mm 0.01 in0.3 mm
12:30 AM 54.7°F12.6°C 52.1°F11.2°C 91% 1.0 mph E1.6 kmh E 2.0 mph3.2 kmh 30.35 in1027.8 mb 0.01 in0.3 mm 0.00 in0.0 mm 0.01 in0.3 mm
12:31 AM 54.7°F12.6°C 52.1°F11.2°C 91% 2.0 mph NE3.2 kmh NE 2.0 mph3.2 kmh 30.35 in1027.8 mb 0.01 in0.3 mm 0.00 in0.0 mm 0.01 in0.3 mm
12:32 AM 54.7°F12.6°C 52.1°F11.2°C 91% 2.0 mph NNE3.2 kmh NNE 2.0 mph3.2 kmh 30.35 in1027.8 mb 0.01 in0.3 mm 0.00 in0.0 mm 0.01 in0.3 mm
12:33 AM 54.7°F12.6°C 52.1°F11.2°C 91% 2.0 mph NE3.2 kmh NE 3.0 mph4.8 kmh 30.35 in1027.8 mb 0.01 in0.3 mm 0.00 in0.0 mm 0.01 in0.3 mm
12:34 AM 54.7°F12.6°C 52.1°F11.2°C 91% 2.0 mph 3.2 kmh 3.0 mph4.8 kmh 30.35 in1027.8 mb 0.01 in0.3 mm 0.00 in0.0 mm 0.01 in0.3 mm
12:35 AM 54.7°F12.6°C 52.1°F11.2°C 91% 2.0 mph NE3.2 kmh NE 3.0 mph4.8 kmh 30.35 in1027.8 mb 0.01 in0.3 mm 0.00 in0.0 mm 0.01 in0.3 mm
12:36 AM 54.7°F12.6°C 52.1°F11.2°C 91% 2.0 mph NNE3.2 kmh NNE 3.0 mph4.8 kmh 30.35 in1027.8 mb 0.01 in0.3 mm 0.00 in0.0 mm 0.01 in0.3 mm
12:37 AM 54.7°F12.6°C 52.1°F11.2°C 91% 1.0 mph E1.6 kmh E 3.0 mph4.8 kmh 30.35 in1027.8 mb 0.01 in0.3 mm 0.00 in0.0 mm 0.01 in0.3 mm
12:38 AM 54.7°F12.6°C 52.7°F11.5°C 93% 2.0 mph NNE3.2 kmh NNE 3.0 mph4.8 kmh 30.35 in1027.8 mb 0.01 in0.3 mm 0.00 in0.0 mm 0.01 in0.3 mm
12:39 AM 54.9°F12.7°C 52.9°F11.6°C 93% 2.0 mph NNE3.2 kmh NNE 3.0 mph4.8 kmh 30.35 in1027.8 mb 0.01 in0.3 mm 0.00 in0.0 mm 0.01 in0.3 mm
12:40 AM 54.9°F12.7°C 52.9°F11.6°C 93% 1.0 mph ENE1.6 kmh ENE 3.0 mph4.8 kmh 30.35 in1027.8 mb 0.01 in0.3 mm 0.00 in0.0 mm 0.01 in0.3 mm
12:41 AM 54.9°F12.7°C 52.9°F11.6°C 93% 2.0 mph ENE3.2 kmh ENE 3.0 mph4.8 kmh 30.35 in1027.8 mb 0.01 in0.3 mm 0.00 in0.0 mm 0.01 in0.3 mm
12:42 AM 54.9°F12.7°C 52.9°F11.6°C 93% 3.0 mph NNE4.8 kmh NNE 3.0 mph4.8 kmh 30.35 in1027.8 mb 0.01 in0.3 mm 0.00 in0.0 mm 0.01 in0.3 mm
12:43 AM 54.9°F12.7°C 52.3°F11.3°C 91% 1.0 mph ENE1.6 kmh ENE 3.0 mph4.8 kmh 30.35 in1027.8 mb 0.01 in0.3 mm 0.00 in0.0 mm 0.01 in0.3 mm
12:44 AM 54.9°F12.7°C 52.3°F11.3°C 91% 1.0 mph ESE1.6 kmh ESE 3.0 mph4.8 kmh 30.35 in1027.8 mb 0.01 in0.3 mm 0.00 in0.0 mm 0.01 in0.3 mm
12:45 AM 54.9°F12.7°C 52.3°F11.3°C 91% Calm Calm 3.0 mph4.8 kmh 30.35 in1027.8 mb 0.01 in0.3 mm 0.00 in0.0 mm 0.01 in0.3 mm
12:46 AM 54.9°F12.7°C 52.3°F11.3°C 91% 2.0 mph ENE3.2 kmh ENE 3.0 mph4.8 kmh 30.35 in1027.8 mb 0.01 in0.3 mm 0.00 in0.0 mm 0.01 in0.3 mm
12:47 AM 54.9°F12.7°C 52.3°F11.3°C 91% 1.0 mph NE1.6 kmh NE 3.0 mph4.8 kmh 30.35 in1027.8 mb 0.01 in0.3 mm 0.00 in0.0 mm 0.01 in0.3 mm
12:48 AM 54.9°F12.7°C 52.3°F11.3°C 91% 1.0 mph E1.6 kmh E 3.0 mph4.8 kmh 30.35 in1027.8 mb 0.01 in0.3 mm 0.00 in0.0 mm 0.01 in0.3 mm
12:49 AM 54.9°F12.7°C 52.3°F11.3°C 91% 2.0 mph ESE3.2 kmh ESE 3.0 mph4.8 kmh 30.35 in1027.8 mb 0.01 in0.3 mm 0.00 in0.0 mm 0.01 in0.3 mm
12:50 AM 54.9°F12.7°C 52.3°F11.3°C 91% 2.0 mph NE3.2 kmh NE 3.0 mph4.8 kmh 30.35 in1027.8 mb 0.01 in0.3 mm 0.00 in0.0 mm 0.01 in0.3 mm
12:51 AM 54.9°F12.7°C 52.3°F11.3°C 91% 2.0 mph 3.2 kmh 3.0 mph4.8 kmh 30.35 in1027.8 mb 0.01 in0.3 mm 0.00 in0.0 mm 0.01 in0.3 mm
12:52 AM 54.9°F12.7°C 52.3°F11.3°C 91% 1.0 mph W1.6 kmh W 3.0 mph4.8 kmh 30.35 in1027.8 mb 0.01 in0.3 mm 0.00 in0.0 mm 0.01 in0.3 mm
12:53 AM 54.9°F12.7°C 52.3°F11.3°C 91% 1.0 mph WNW1.6 kmh WNW 2.0 mph3.2 kmh 30.36 in1028.1 mb 0.01 in0.3 mm 0.00 in0.0 mm 0.01 in0.3 mm
12:54 AM 54.9°F12.7°C 52.3°F11.3°C 91% Calm Calm 2.0 mph3.2 kmh 30.35 in1027.8 mb 0.01 in0.3 mm 0.00 in0.0 mm 0.01 in0.3 mm
12:55 AM 54.7°F12.6°C 52.1°F11.2°C 91% Calm Calm 2.0 mph3.2 kmh 30.36 in1028.1 mb 0.01 in0.3 mm 0.00 in0.0 mm 0.01 in0.3 mm
12:56 AM 54.7°F12.6°C 52.1°F11.2°C 91% Calm Calm 2.0 mph3.2 kmh 30.36 in1028.1 mb 0.01 in0.3 mm 0.00 in0.0 mm 0.01 in0.3 mm
12:57 AM 54.7°F12.6°C 52.1°F11.2°C 91% Calm Calm 2.0 mph3.2 kmh 30.36 in1028.1 mb 0.01 in0.3 mm 0.00 in0.0 mm 0.01 in0.3 mm
12:58 AM 54.4°F12.4°C 51.8°F11.0°C 91% Calm Calm 2.0 mph3.2 kmh 30.36 in1028.1 mb 0.01 in0.3 mm 0.00 in0.0 mm 0.01 in0.3 mm
12:59 AM 54.2°F12.3°C 51.6°F10.9°C 91% Calm Calm 2.0 mph3.2 kmh 30.36 in1028.1 mb 0.01 in0.3 mm 0.00 in0.0 mm 0.01 in0.3 mm
01:00 AM 54.2°F12.3°C 51.6°F10.9°C 91% 1.0 mph NNE1.6 kmh NNE 2.0 mph3.2 kmh 30.36 in1028.1 mb 0.01 in0.3 mm 0.00 in0.0 mm 0.01 in0.3 mm
01:01 AM 54.2°F12.3°C 51.6°F10.9°C 91% 1.0 mph NE1.6 kmh NE 2.0 mph3.2 kmh 30.36 in1028.1 mb 0.01 in0.3 mm 0.00 in0.0 mm 0.01 in0.3 mm
01:02 AM 54.2°F12.3°C 51.6°F10.9°C 91% 1.0 mph ENE1.6 kmh ENE 2.0 mph3.2 kmh 30.36 in1028.1 mb 0.01 in0.3 mm 0.00 in0.0 mm 0.01 in0.3 mm
01:03 AM 54.2°F12.3°C 51.6°F10.9°C 91% 1.0 mph ENE1.6 kmh ENE 2.0 mph3.2 kmh 30.36 in1028.1 mb 0.01 in0.3 mm 0.00 in0.0 mm 0.01 in0.3 mm
01:04 AM 54.2°F12.3°C 51.6°F10.9°C 91% 1.0 mph NNE1.6 kmh NNE 2.0 mph3.2 kmh 30.35 in1027.8 mb 0.01 in0.3 mm 0.00 in0.0 mm 0.01 in0.3 mm
01:05 AM 54.2°F12.3°C 51.6°F10.9°C 91% 1.0 mph NE1.6 kmh NE 2.0 mph3.2 kmh 30.35 in1027.8 mb 0.01 in0.3 mm 0.00 in0.0 mm 0.01 in0.3 mm
01:06 AM 54.2°F12.3°C 51.6°F10.9°C 91% 1.0 mph ESE1.6 kmh ESE 2.0 mph3.2 kmh 30.36 in1028.1 mb 0.01 in0.3 mm 0.00 in0.0 mm 0.01 in0.3 mm
01:07 AM 54.0°F12.2°C 51.4°F10.8°C 91% Calm Calm 2.0 mph3.2 kmh 30.36 in1028.1 mb 0.01 in0.3 mm 0.00 in0.0 mm 0.01 in0.3 mm
01:08 AM 54.0°F12.2°C 51.4°F10.8°C 91% Calm Calm 2.0 mph3.2 kmh 30.36 in1028.1 mb 0.01 in0.3 mm 0.00 in0.0 mm 0.01 in0.3 mm
01:09 AM 54.0°F12.2°C 51.4°F10.8°C 91% 1.0 mph NNE1.6 kmh NNE 2.0 mph3.2 kmh 30.36 in1028.1 mb 0.01 in0.3 mm 0.00 in0.0 mm 0.01 in0.3 mm
01:10 AM 54.0°F12.2°C 51.4°F10.8°C 91% 1.0 mph NE1.6 kmh NE 2.0 mph3.2 kmh 30.36 in1028.1 mb 0.01 in0.3 mm 0.00 in0.0 mm 0.01 in0.3 mm
01:11 AM 54.0°F12.2°C 51.4°F10.8°C 91% Calm Calm 2.0 mph3.2 kmh 30.36 in1028.1 mb 0.01 in0.3 mm 0.00 in0.0 mm 0.01 in0.3 mm
01:12 AM 54.0°F12.2°C 51.4°F10.8°C 91% 1.0 mph NNE1.6 kmh NNE 2.0 mph3.2 kmh 30.36 in1028.1 mb 0.01 in0.3 mm 0.00 in0.0 mm 0.01 in0.3 mm
01:13 AM 54.0°F12.2°C 51.4°F10.8°C 91% 1.0 mph NE1.6 kmh NE 2.0 mph3.2 kmh 30.37 in1028.4 mb 0.01 in0.3 mm 0.00 in0.0 mm 0.01 in0.3 mm
01:14 AM 54.0°F12.2°C 51.4°F10.8°C 91% 1.0 mph NNE1.6 kmh NNE 2.0 mph3.2 kmh 30.37 in1028.4 mb 0.01 in0.3 mm 0.00 in0.0 mm 0.01 in0.3 mm
01:15 AM 54.0°F12.2°C 51.4°F10.8°C 91% 1.0 mph NNE1.6 kmh NNE 2.0 mph3.2 kmh 30.36 in1028.1 mb 0.01 in0.3 mm 0.00 in0.0 mm 0.01 in0.3 mm
01:16 AM 54.0°F12.2°C 51.4°F10.8°C 91% 2.0 mph NE3.2 kmh NE 2.0 mph3.2 kmh 30.36 in1028.1 mb 0.01 in0.3 mm 0.00 in0.0 mm 0.01 in0.3 mm
01:17 AM 54.0°F12.2°C 51.4°F10.8°C 91% 2.0 mph SE3.2 kmh SE 2.0 mph3.2 kmh 30.37 in1028.4 mb 0.01 in0.3 mm 0.00 in0.0 mm 0.01 in0.3 mm
01:18 AM 54.0°F12.2°C 51.4°F10.8°C 91% 2.0 mph NNE3.2 kmh NNE 2.0 mph3.2 kmh 30.37 in1028.4 mb 0.01 in0.3 mm 0.00 in0.0 mm 0.01 in0.3 mm
01:19 AM 54.0°F12.2°C 51.4°F10.8°C 91% 2.0 mph NE3.2 kmh NE 2.0 mph3.2 kmh 30.36 in1028.1 mb 0.01 in0.3 mm 0.00 in0.0 mm 0.01 in0.3 mm
01:20 AM 54.0°F12.2°C 51.4°F10.8°C 91% Calm Calm 2.0 mph3.2 kmh 30.36 in1028.1 mb 0.01 in0.3 mm 0.00 in0.0 mm 0.01 in0.3 mm
01:21 AM 54.0°F12.2°C 51.4°F10.8°C 91% 2.0 mph NNE3.2 kmh NNE 2.0 mph3.2 kmh 30.36 in1028.1 mb 0.01 in0.3 mm 0.00 in0.0 mm 0.01 in0.3 mm
01:22 AM 54.0°F12.2°C 51.4°F10.8°C 91% 1.0 mph E1.6 kmh E 2.0 mph3.2 kmh 30.36 in1028.1 mb 0.01 in0.3 mm 0.00 in0.0 mm 0.01 in0.3 mm
01:23 AM 54.0°F12.2°C 51.4°F10.8°C 91% 2.0 mph NNE3.2 kmh NNE 3.0 mph4.8 kmh 30.36 in1028.1 mb 0.01 in0.3 mm 0.00 in0.0 mm 0.01 in0.3 mm
01:24 AM 54.0°F12.2°C 51.4°F10.8°C 91% 1.0 mph E1.6 kmh E 3.0 mph4.8 kmh 30.36 in1028.1 mb 0.01 in0.3 mm 0.00 in0.0 mm 0.01 in0.3 mm
01:25 AM 54.0°F12.2°C 51.4°F10.8°C 91% 1.0 mph NNW1.6 kmh NNW 3.0 mph4.8 kmh 30.36 in1028.1 mb 0.01 in0.3 mm 0.00 in0.0 mm 0.01 in0.3 mm
01:26 AM 54.0°F12.2°C 51.4°F10.8°C 91% 2.0 mph NW3.2 kmh NW 3.0 mph4.8 kmh 30.36 in1028.1 mb 0.01 in0.3 mm 0.00 in0.0 mm 0.01 in0.3 mm
01:27 AM 54.0°F12.2°C 51.1°F10.6°C 90% 3.0 mph NW4.8 kmh NW 3.0 mph4.8 kmh 30.37 in1028.4 mb 0.01 in0.3 mm 0.00 in0.0 mm 0.01 in0.3 mm
01:28 AM 53.8°F12.1°C 50.3°F10.2°C 88% 1.0 mph NW1.6 kmh NW 3.0 mph4.8 kmh 30.37 in1028.4 mb 0.01 in0.3 mm 0.00 in0.0 mm 0.01 in0.3 mm
01:29 AM 53.5°F11.9°C 50.0°F10.0°C 88% 2.0 mph W3.2 kmh W 3.0 mph4.8 kmh 30.37 in1028.4 mb 0.01 in0.3 mm 0.00 in0.0 mm 0.01 in0.3 mm
01:30 AM 53.5°F11.9°C 50.0°F10.0°C 88% 1.0 mph NE1.6 kmh NE 3.0 mph4.8 kmh 30.37 in1028.4 mb 0.01 in0.3 mm 0.00 in0.0 mm 0.01 in0.3 mm
01:31 AM 53.5°F11.9°C 50.0°F10.0°C 88% 2.0 mph NNE3.2 kmh NNE 3.0 mph4.8 kmh 30.37 in1028.4 mb 0.01 in0.3 mm 0.00 in0.0 mm 0.01 in0.3 mm
01:32 AM 53.5°F11.9°C 50.0°F10.0°C 88% 2.0 mph NNE3.2 kmh NNE 3.0 mph4.8 kmh 30.37 in1028.4 mb 0.01 in0.3 mm 0.00 in0.0 mm 0.01 in0.3 mm
01:33 AM 53.5°F11.9°C 50.0°F10.0°C 88% 1.0 mph NNE1.6 kmh NNE 3.0 mph4.8 kmh 30.37 in1028.4 mb 0.01 in0.3 mm 0.00 in0.0 mm 0.01 in0.3 mm
01:34 AM 53.5°F11.9°C 50.0°F10.0°C 88% 1.0 mph NNE1.6 kmh NNE 3.0 mph4.8 kmh 30.37 in1028.4 mb 0.01 in0.3 mm 0.00 in0.0 mm 0.01 in0.3 mm
01:35 AM 53.5°F11.9°C 50.0°F10.0°C 88% 1.0 mph NNE1.6 kmh NNE 3.0 mph4.8 kmh 30.37 in1028.4 mb 0.01 in0.3 mm 0.00 in0.0 mm 0.01 in0.3 mm
01:36 AM 53.5°F11.9°C 50.0°F10.0°C 88% 1.0 mph NE1.6 kmh NE 3.0 mph4.8 kmh 30.37 in1028.4 mb 0.01 in0.3 mm 0.00 in0.0 mm 0.01 in0.3 mm
01:37 AM 53.5°F11.9°C 50.0°F10.0°C 88% 2.0 mph NNW3.2 kmh NNW 3.0 mph4.8 kmh 30.37 in1028.4 mb 0.01 in0.3 mm 0.00 in0.0 mm 0.01 in0.3 mm
01:38 AM 53.5°F11.9°C 50.0°F10.0°C 88% 1.0 mph NNW1.6 kmh NNW 3.0 mph4.8 kmh 30.37 in1028.4 mb 0.01 in0.3 mm 0.00 in0.0 mm 0.01 in0.3 mm
01:39 AM 53.5°F11.9°C 50.0°F10.0°C 88% 3.0 mph WNW4.8 kmh WNW 3.0 mph4.8 kmh 30.38 in1028.8 mb 0.01 in0.3 mm 0.00 in0.0 mm 0.01 in0.3 mm
01:40 AM 53.5°F11.9°C 50.0°F10.0°C 88% 4.0 mph NNW6.4 kmh NNW 4.0 mph6.4 kmh 30.38 in1028.8 mb 0.01 in0.3 mm 0.00 in0.0 mm 0.01 in0.3 mm
01:41 AM 53.5°F11.9°C 50.0°F10.0°C 88% 4.0 mph 6.4 kmh 5.0 mph8.0 kmh 30.38 in1028.8 mb 0.01 in0.3 mm 0.00 in0.0 mm 0.01 in0.3 mm
01:42 AM 53.5°F11.9°C 50.0°F10.0°C 88% 4.0 mph NW6.4 kmh NW 5.0 mph8.0 kmh 30.38 in1028.8 mb 0.01 in0.3 mm 0.00 in0.0 mm 0.01 in0.3 mm
01:43 AM 53.8°F12.1°C 50.3°F10.2°C 88% 4.0 mph NNW6.4 kmh NNW 5.0 mph8.0 kmh 30.38 in1028.8 mb 0.01 in0.3 mm 0.00 in0.0 mm 0.01 in0.3 mm
01:44 AM 53.8°F12.1°C 50.3°F10.2°C 88% 2.0 mph NNW3.2 kmh NNW 5.0 mph8.0 kmh 30.38 in1028.8 mb 0.01 in0.3 mm 0.00 in0.0 mm 0.01 in0.3 mm
01:45 AM 53.8°F12.1°C 50.3°F10.2°C 88% 2.0 mph NNE3.2 kmh NNE 5.0 mph8.0 kmh 30.38 in1028.8 mb 0.01 in0.3 mm 0.00 in0.0 mm 0.01 in0.3 mm
01:46 AM 53.8°F12.1°C 50.3°F10.2°C 88% 4.0 mph NNW6.4 kmh NNW 5.0 mph8.0 kmh 30.38 in1028.8 mb 0.01 in0.3 mm 0.00 in0.0 mm 0.01 in0.3 mm
01:47 AM 53.8°F12.1°C 50.3°F10.2°C 88% 3.0 mph NNW4.8 kmh NNW 5.0 mph8.0 kmh 30.38 in1028.8 mb 0.01 in0.3 mm 0.00 in0.0 mm 0.01 in0.3 mm
01:48 AM 53.8°F12.1°C 50.3°F10.2°C 88% 4.0 mph ENE6.4 kmh ENE 5.0 mph8.0 kmh 30.38 in1028.8 mb 0.01 in0.3 mm 0.00 in0.0 mm 0.01 in0.3 mm
01:49 AM 53.8°F12.1°C 50.3°F10.2°C 88% 1.0 mph NNW1.6 kmh NNW 5.0 mph8.0 kmh 30.38 in1028.8 mb 0.01 in0.3 mm 0.00 in0.0 mm 0.01 in0.3 mm
01:50 AM 53.8°F12.1°C 50.3°F10.2°C 88% 1.0 mph NW1.6 kmh NW 5.0 mph8.0 kmh 30.38 in1028.8 mb 0.01 in0.3 mm 0.00 in0.0 mm 0.01 in0.3 mm
01:51 AM 53.8°F12.1°C 50.3°F10.2°C 88% 2.0 mph NE3.2 kmh NE 4.0 mph6.4 kmh 30.38 in1028.8 mb 0.01 in0.3 mm 0.00 in0.0 mm 0.01 in0.3 mm
01:52 AM 53.8°F12.1°C 50.3°F10.2°C 88% 2.0 mph NNW3.2 kmh NNW 4.0 mph6.4 kmh 30.38 in1028.8 mb 0.01 in0.3 mm 0.00 in0.0 mm 0.01 in0.3 mm
01:53 AM 53.8°F12.1°C 50.3°F10.2°C 88% 3.0 mph NNW4.8 kmh NNW 4.0 mph6.4 kmh 30.38 in1028.8 mb 0.01 in0.3 mm 0.00 in0.0 mm 0.01 in0.3 mm
01:54 AM 53.8°F12.1°C 49.7°F9.8°C 86% 3.0 mph NNW4.8 kmh NNW 4.0 mph6.4 kmh 30.38 in1028.8 mb 0.01 in0.3 mm 0.00 in0.0 mm 0.01 in0.3 mm
01:55 AM 53.8°F12.1°C 49.7°F9.8°C 86% 1.0 mph E1.6 kmh E 4.0 mph6.4 kmh 30.38 in1028.8 mb 0.01 in0.3 mm 0.00 in0.0 mm 0.01 in0.3 mm
01:56 AM 53.8°F12.1°C 49.7°F9.8°C 86% 4.0 mph NNW6.4 kmh NNW 4.0 mph6.4 kmh 30.38 in1028.8 mb 0.01 in0.3 mm 0.00 in0.0 mm 0.01 in0.3 mm
01:57 AM 53.8°F12.1°C 49.7°F9.8°C 86% 2.0 mph ESE3.2 kmh ESE 4.0 mph6.4 kmh 30.38 in1028.8 mb 0.01 in0.3 mm 0.00 in0.0 mm 0.01 in0.3 mm
01:58 AM 53.8°F12.1°C 49.7°F9.8°C 86% 3.0 mph NNW4.8 kmh NNW 4.0 mph6.4 kmh 30.38 in1028.8 mb 0.01 in0.3 mm 0.00 in0.0 mm 0.01 in0.3 mm
01:59 AM 53.8°F12.1°C 49.7°F9.8°C 86% 4.0 mph 6.4 kmh 4.0 mph6.4 kmh 30.38 in1028.8 mb 0.01 in0.3 mm 0.00 in0.0 mm 0.01 in0.3 mm
02:00 AM 53.8°F12.1°C 49.7°F9.8°C 86% 3.0 mph 4.8 kmh 4.0 mph6.4 kmh 30.39 in1029.1 mb 0.01 in0.3 mm 0.00 in0.0 mm 0.01 in0.3 mm
02:01 AM 53.8°F12.1°C 49.7°F9.8°C 86% 5.0 mph NW8.0 kmh NW 5.0 mph8.0 kmh 30.38 in1028.8 mb 0.01 in0.3 mm 0.00 in0.0 mm 0.01 in0.3 mm
02:02 AM 53.8°F12.1°C 49.7°F9.8°C 86% 4.0 mph NW6.4 kmh NW 5.0 mph8.0 kmh 30.38 in1028.8 mb 0.01 in0.3 mm 0.00 in0.0 mm 0.01 in0.3 mm
02:03 AM 53.8°F12.1°C 49.7°F9.8°C 86% 5.0 mph NNE8.0 kmh NNE 5.0 mph8.0 kmh 30.39 in1029.1 mb 0.01 in0.3 mm 0.00 in0.0 mm 0.01 in0.3 mm
02:04 AM 53.8°F12.1°C 49.7°F9.8°C 86% 3.0 mph NW4.8 kmh NW 5.0 mph8.0 kmh 30.39 in1029.1 mb 0.01 in0.3 mm 0.00 in0.0 mm 0.01 in0.3 mm
02:05 AM 53.8°F12.1°C 49.7°F9.8°C 86% 3.0 mph NNE4.8 kmh NNE 5.0 mph8.0 kmh 30.39 in1029.1 mb 0.01 in0.3 mm 0.00 in0.0 mm 0.01 in0.3 mm
02:06 AM 53.8°F12.1°C 49.7°F9.8°C 86% 4.0 mph 6.4 kmh 5.0 mph8.0 kmh 30.39 in1029.1 mb 0.01 in0.3 mm 0.00 in0.0 mm 0.01 in0.3 mm
02:07 AM 53.8°F12.1°C 49.7°F9.8°C 86% 2.0 mph 3.2 kmh 5.0 mph8.0 kmh 30.38 in1028.8 mb 0.01 in0.3 mm 0.00 in0.0 mm 0.01 in0.3 mm
02:08 AM 53.8°F12.1°C 49.7°F9.8°C 86% 3.0 mph NNE4.8 kmh NNE 5.0 mph8.0 kmh 30.38 in1028.8 mb 0.00 in0.0 mm 0.00 in0.0 mm 0.01 in0.3 mm
02:09 AM 53.8°F12.1°C 49.7°F9.8°C 86% 1.0 mph WNW1.6 kmh WNW 5.0 mph8.0 kmh 30.38 in1028.8 mb 0.00 in0.0 mm 0.00 in0.0 mm 0.01 in0.3 mm
02:10 AM 54.0°F12.2°C 49.9°F9.9°C 86% 4.0 mph NE6.4 kmh NE 5.0 mph8.0 kmh 30.38 in1028.8 mb 0.00 in0.0 mm 0.00 in0.0 mm 0.01 in0.3 mm
02:11 AM 54.0°F12.2°C 49.9°F9.9°C 86% 2.0 mph 3.2 kmh 5.0 mph8.0 kmh 30.39 in1029.1 mb 0.00 in0.0 mm 0.00 in0.0 mm 0.01 in0.3 mm
02:12 AM 54.0°F12.2°C 49.9°F9.9°C 86% 4.0 mph NNE6.4 kmh NNE 5.0 mph8.0 kmh 30.39 in1029.1 mb 0.00 in0.0 mm 0.00 in0.0 mm 0.01 in0.3 mm
02:13 AM 54.0°F12.2°C 49.9°F9.9°C 86% 2.0 mph NNW3.2 kmh NNW 5.0 mph8.0 kmh 30.39 in1029.1 mb 0.00 in0.0 mm 0.00 in0.0 mm 0.01 in0.3 mm
02:14 AM 54.0°F12.2°C 49.9°F9.9°C 86% 4.0 mph NNW6.4 kmh NNW 5.0 mph8.0 kmh 30.39 in1029.1 mb 0.00 in0.0 mm 0.00 in0.0 mm 0.01 in0.3 mm
02:15 AM 54.0°F12.2°C 49.9°F9.9°C 86% 2.0 mph NW3.2 kmh NW 5.0 mph8.0 kmh 30.39 in1029.1 mb 0.00 in0.0 mm 0.00 in0.0 mm 0.01 in0.3 mm
02:16 AM 54.0°F12.2°C 49.9°F9.9°C 86% 2.0 mph ENE3.2 kmh ENE 5.0 mph8.0 kmh 30.39 in1029.1 mb 0.00 in0.0 mm 0.00 in0.0 mm 0.01 in0.3 mm
02:17 AM 54.2°F12.3°C 50.1°F10.1°C 86% 3.0 mph NNW4.8 kmh NNW 5.0 mph8.0 kmh 30.39 in1029.1 mb 0.00 in0.0 mm 0.00 in0.0 mm 0.01 in0.3 mm
02:18 AM 54.2°F12.3°C 50.1°F10.1°C 86% 2.0 mph NNE3.2 kmh NNE 5.0 mph8.0 kmh 30.39 in1029.1 mb 0.00 in0.0 mm 0.00 in0.0 mm 0.01 in0.3 mm
02:19 AM 54.2°F12.3°C 50.1°F10.1°C 86% 2.0 mph NNE3.2 kmh NNE 5.0 mph8.0 kmh 30.39 in1029.1 mb 0.00 in0.0 mm 0.00 in0.0 mm 0.01 in0.3 mm
02:20 AM 54.2°F12.3°C 50.1°F10.1°C 86% 2.0 mph E3.2 kmh E 4.0 mph6.4 kmh 30.39 in1029.1 mb 0.00 in0.0 mm 0.00 in0.0 mm 0.01 in0.3 mm
02:21 AM 54.2°F12.3°C 50.1°F10.1°C 86% 4.0 mph E6.4 kmh E 4.0 mph6.4 kmh 30.39 in1029.1 mb 0.00 in0.0 mm 0.00 in0.0 mm 0.01 in0.3 mm
02:22 AM 54.2°F12.3°C 49.8°F9.9°C 85% 3.0 mph NNE4.8 kmh NNE 4.0 mph6.4 kmh 30.39 in1029.1 mb 0.00 in0.0 mm 0.00 in0.0 mm 0.01 in0.3 mm
02:23 AM 54.2°F12.3°C 49.8°F9.9°C 85% 2.0 mph 3.2 kmh 4.0 mph6.4 kmh 30.39 in1029.1 mb 0.00 in0.0 mm 0.00 in0.0 mm 0.01 in0.3 mm
02:24 AM 54.2°F12.3°C 49.8°F9.9°C 85% 4.0 mph 6.4 kmh 4.0 mph6.4 kmh 30.39 in1029.1 mb 0.00 in0.0 mm 0.00 in0.0 mm 0.01 in0.3 mm
02:25 AM 54.2°F12.3°C 49.8°F9.9°C 85% 4.0 mph NW6.4 kmh NW 4.0 mph6.4 kmh 30.39 in1029.1 mb 0.00 in0.0 mm 0.00 in0.0 mm 0.01 in0.3 mm
02:26 AM 54.2°F12.3°C 49.8°F9.9°C 85% 4.0 mph NW6.4 kmh NW 4.0 mph6.4 kmh 30.39 in1029.1 mb 0.00 in0.0 mm 0.00 in0.0 mm 0.01 in0.3 mm
02:27 AM 54.2°F12.3°C 49.8°F9.9°C 85% 3.0 mph NNW4.8 kmh NNW 4.0 mph6.4 kmh 30.39 in1029.1 mb 0.00 in0.0 mm 0.00 in0.0 mm 0.01 in0.3 mm
02:28 AM 54.0°F12.2°C 49.6°F9.8°C 85% 4.0 mph NNW6.4 kmh NNW 4.0 mph6.4 kmh 30.39 in1029.1 mb 0.00 in0.0 mm 0.00 in0.0 mm 0.01 in0.3 mm
02:29 AM 54.0°F12.2°C 49.6°F9.8°C 85% 4.0 mph NW6.4 kmh NW 4.0 mph6.4 kmh 30.40 in1029.5 mb 0.00 in0.0 mm 0.00 in0.0 mm 0.01 in0.3 mm
02:30 AM 54.0°F12.2°C 49.6°F9.8°C 85% 4.0 mph WNW6.4 kmh WNW 4.0 mph6.4 kmh 30.40 in1029.5 mb 0.00 in0.0 mm 0.00 in0.0 mm 0.01 in0.3 mm
02:31 AM 53.8°F12.1°C 49.4°F9.7°C 85% 3.0 mph 4.8 kmh 4.0 mph6.4 kmh 30.40 in1029.5 mb 0.00 in0.0 mm 0.00 in0.0 mm 0.01 in0.3 mm
02:32 AM 53.8°F12.1°C 49.4°F9.7°C 85% 4.0 mph NNW6.4 kmh NNW 5.0 mph8.0 kmh 30.40 in1029.5 mb 0.00 in0.0 mm 0.00 in0.0 mm 0.01 in0.3 mm
02:33 AM 53.8°F12.1°C 49.4°F9.7°C 85% 5.0 mph 8.0 kmh 5.0 mph8.0 kmh 30.40 in1029.5 mb 0.00 in0.0 mm 0.00 in0.0 mm 0.01 in0.3 mm
02:34 AM 53.8°F12.1°C 49.4°F9.7°C 85% 2.0 mph NNW3.2 kmh NNW 5.0 mph8.0 kmh 30.40 in1029.5 mb 0.00 in0.0 mm 0.00 in0.0 mm 0.01 in0.3 mm
02:35 AM 53.5°F11.9°C 49.1°F9.5°C 85% 4.0 mph 6.4 kmh 5.0 mph8.0 kmh 30.40 in1029.5 mb 0.00 in0.0 mm 0.00 in0.0 mm 0.01 in0.3 mm
02:36 AM 53.5°F11.9°C 49.1°F9.5°C 85% 5.0 mph 8.0 kmh 5.0 mph8.0 kmh 30.40 in1029.5 mb 0.00 in0.0 mm 0.00 in0.0 mm 0.01 in0.3 mm
02:37 AM 53.5°F11.9°C 49.1°F9.5°C 85% 4.0 mph NW6.4 kmh NW 5.0 mph8.0 kmh 30.40 in1029.5 mb 0.00 in0.0 mm 0.00 in0.0 mm 0.01 in0.3 mm
02:38 AM 53.5°F11.9°C 49.1°F9.5°C 85% 3.0 mph 4.8 kmh 5.0 mph8.0 kmh 30.40 in1029.5 mb 0.00 in0.0 mm 0.00 in0.0 mm 0.01 in0.3 mm
02:40 AM 53.5°F11.9°C 49.1°F9.5°C 85% 2.0 mph 3.2 kmh 5.0 mph8.0 kmh 30.40 in1029.5 mb 0.00 in0.0 mm 0.00 in0.0 mm 0.01 in0.3 mm
02:41 AM 53.5°F11.9°C 49.1°F9.5°C 85% 2.0 mph NNE3.2 kmh NNE 5.0 mph8.0 kmh 30.40 in1029.5 mb 0.00 in0.0 mm 0.00 in0.0 mm 0.01 in0.3 mm
02:42 AM 53.5°F11.9°C 49.1°F9.5°C 85% 2.0 mph 3.2 kmh 5.0 mph8.0 kmh 30.40 in1029.5 mb 0.00 in0.0 mm 0.00 in0.0 mm 0.01 in0.3 mm
02:43 AM 53.5°F11.9°C 49.1°F9.5°C 85% 3.0 mph 4.8 kmh 5.0 mph8.0 kmh 30.40 in1029.5 mb 0.00 in0.0 mm 0.00 in0.0 mm 0.01 in0.3 mm
02:45 AM 53.5°F11.9°C 49.1°F9.5°C 85% 2.0 mph 3.2 kmh 5.0 mph8.0 kmh 30.40 in1029.5 mb 0.00 in0.0 mm 0.00 in0.0 mm 0.01 in0.3 mm
02:46 AM 53.5°F11.9°C 49.1°F9.5°C 85% 3.0 mph 4.8 kmh 4.0 mph6.4 kmh 30.40 in1029.5 mb 0.00 in0.0 mm 0.00 in0.0 mm 0.01 in0.3 mm
02:47 AM 53.5°F11.9°C 49.1°F9.5°C 85% 2.0 mph WNW3.2 kmh WNW 3.0 mph4.8 kmh 30.40 in1029.5 mb 0.00 in0.0 mm 0.00 in0.0 mm 0.01 in0.3 mm
02:48 AM 53.5°F11.9°C 49.1°F9.5°C 85% 6.0 mph WNW9.7 kmh WNW 6.0 mph9.7 kmh 30.40 in1029.5 mb 0.00 in0.0 mm 0.00 in0.0 mm 0.01 in0.3 mm
02:50 AM 53.8°F12.1°C 49.4°F9.7°C 85% 3.0 mph WNW4.8 kmh WNW 6.0 mph9.7 kmh 30.41 in1029.8 mb 0.00 in0.0 mm 0.00 in0.0 mm 0.01 in0.3 mm
02:51 AM 53.8°F12.1°C 49.4°F9.7°C 85% 4.0 mph NNW6.4 kmh NNW 6.0 mph9.7 kmh 30.40 in1029.5 mb 0.00 in0.0 mm 0.00 in0.0 mm 0.01 in0.3 mm
02:52 AM 53.8°F12.1°C 49.4°F9.7°C 85% 5.0 mph 8.0 kmh 6.0 mph9.7 kmh 30.40 in1029.5 mb 0.00 in0.0 mm 0.00 in0.0 mm 0.01 in0.3 mm
02:53 AM 53.8°F12.1°C 49.4°F9.7°C 85% 3.0 mph NE4.8 kmh NE 6.0 mph9.7 kmh 30.41 in1029.8 mb 0.00 in0.0 mm 0.00 in0.0 mm 0.01 in0.3 mm
02:55 AM 53.8°F12.1°C 49.4°F9.7°C 85% 4.0 mph ENE6.4 kmh ENE 6.0 mph9.7 kmh 30.41 in1029.8 mb 0.00 in0.0 mm 0.00 in0.0 mm 0.01 in0.3 mm
02:56 AM 53.8°F12.1°C 49.4°F9.7°C 85% 3.0 mph 4.8 kmh 6.0 mph9.7 kmh 30.41 in1029.8 mb 0.00 in0.0 mm 0.00 in0.0 mm 0.01 in0.3 mm
02:57 AM 53.8°F12.1°C 49.4°F9.7°C 85% 5.0 mph 8.0 kmh 6.0 mph9.7 kmh 30.41 in1029.8 mb 0.00 in0.0 mm 0.00 in0.0 mm 0.01 in0.3 mm
02:58 AM 53.8°F12.1°C 49.4°F9.7°C 85% 3.0 mph NNE4.8 kmh NNE 6.0 mph9.7 kmh 30.41 in1029.8 mb 0.00 in0.0 mm 0.00 in0.0 mm 0.01 in0.3 mm
03:00 AM 53.8°F12.1°C 49.4°F9.7°C 85% 3.0 mph NNW4.8 kmh NNW 5.0 mph8.0 kmh 30.40 in1029.5 mb 0.00 in0.0 mm 0.00 in0.0 mm 0.01 in0.3 mm
03:01 AM 53.8°F12.1°C 49.4°F9.7°C 85% 3.0 mph NNE4.8 kmh NNE 5.0 mph8.0 kmh 30.40 in1029.5 mb 0.00 in0.0 mm 0.00 in0.0 mm 0.01 in0.3 mm
03:02 AM 53.8°F12.1°C 49.4°F9.7°C 85% 2.0 mph 3.2 kmh 5.0 mph8.0 kmh 30.40 in1029.5 mb 0.00 in0.0 mm 0.00 in0.0 mm 0.01 in0.3 mm
03:03 AM 53.8°F12.1°C 49.4°F9.7°C 85% 2.0 mph 3.2 kmh 5.0 mph8.0 kmh 30.40 in1029.5 mb 0.00 in0.0 mm 0.00 in0.0 mm 0.01 in0.3 mm
03:05 AM 53.8°F12.1°C 49.4°F9.7°C 85% 2.0 mph 3.2 kmh 5.0 mph8.0 kmh 30.40 in1029.5 mb 0.00 in0.0 mm 0.00 in0.0 mm 0.01 in0.3 mm
03:06 AM 53.8°F12.1°C 48.8°F9.3°C 83% 5.0 mph 8.0 kmh 5.0 mph8.0 kmh 30.40 in1029.5 mb 0.00 in0.0 mm 0.00 in0.0 mm 0.01 in0.3 mm
03:07 AM 53.8°F12.1°C 48.8°F9.3°C 83% 2.0 mph NNW3.2 kmh NNW 5.0 mph8.0 kmh 30.40 in1029.5 mb 0.00 in0.0 mm 0.00 in0.0 mm 0.01 in0.3 mm
03:08 AM 53.5°F11.9°C 48.5°F9.2°C 83% 3.0 mph NNW4.8 kmh NNW 5.0 mph8.0 kmh 30.40 in1029.5 mb 0.00 in0.0 mm 0.00 in0.0 mm 0.01 in0.3 mm
03:10 AM 53.4°F11.9°C 48.4°F9.1°C 83% 3.0 mph NNW4.8 kmh NNW 5.0 mph8.0 kmh 30.41 in1029.8 mb 0.00 in0.0 mm 0.00 in0.0 mm 0.01 in0.3 mm
03:11 AM 53.4°F11.9°C 48.4°F9.1°C 83% 3.0 mph NNW4.8 kmh NNW 5.0 mph8.0 kmh 30.41 in1029.8 mb 0.00 in0.0 mm 0.00 in0.0 mm 0.01 in0.3 mm
03:12 AM 53.2°F11.8°C 48.2°F9.0°C 83% 3.0 mph W4.8 kmh W 5.0 mph8.0 kmh 30.41 in1029.8 mb 0.00 in0.0 mm 0.00 in0.0 mm 0.01 in0.3 mm
03:13 AM 53.2°F11.8°C 48.2°F9.0°C 83% 3.0 mph W4.8 kmh W 5.0 mph8.0 kmh 30.41 in1029.8 mb 0.00 in0.0 mm 0.00 in0.0 mm 0.01 in0.3 mm
03:15 AM 53.2°F11.8°C 48.8°F9.3°C 85% 2.0 mph NW3.2 kmh NW 5.0 mph8.0 kmh 30.41 in1029.8 mb 0.00 in0.0 mm 0.00 in0.0 mm 0.01 in0.3 mm
03:16 AM 52.8°F11.6°C 48.4°F9.1°C 85% 2.0 mph NNW3.2 kmh NNW 4.0 mph6.4 kmh 30.41 in1029.8 mb 0.00 in0.0 mm 0.00 in0.0 mm 0.01 in0.3 mm
03:17 AM 52.6°F11.4°C 48.2°F9.0°C 85% 2.0 mph NNE3.2 kmh NNE 4.0 mph6.4 kmh 30.41 in1029.8 mb 0.00 in0.0 mm 0.00 in0.0 mm 0.01 in0.3 mm
03:18 AM 52.6°F11.4°C 48.2°F9.0°C 85% 2.0 mph NNE3.2 kmh NNE 4.0 mph6.4 kmh 30.41 in1029.8 mb 0.00 in0.0 mm 0.00 in0.0 mm 0.01 in0.3 mm
03:20 AM 52.6°F11.4°C 48.2°F9.0°C 85% 3.0 mph NNW4.8 kmh NNW 4.0 mph6.4 kmh 30.41 in1029.8 mb 0.00 in0.0 mm 0.00 in0.0 mm 0.01 in0.3 mm
03:21 AM 52.6°F11.4°C 48.2°F9.0°C 85% 3.0 mph 4.8 kmh 3.0 mph4.8 kmh 30.41 in1029.8 mb 0.00 in0.0 mm 0.00 in0.0 mm 0.01 in0.3 mm
03:22 AM 52.6°F11.4°C 48.2°F9.0°C 85% 1.0 mph NE1.6 kmh NE 3.0 mph4.8 kmh 30.41 in1029.8 mb 0.00 in0.0 mm 0.00 in0.0 mm 0.01 in0.3 mm
03:23 AM 52.6°F11.4°C 48.2°F9.0°C 85% 2.0 mph NE3.2 kmh NE 3.0 mph4.8 kmh 30.41 in1029.8 mb 0.00 in0.0 mm 0.00 in0.0 mm 0.01 in0.3 mm
03:25 AM 52.8°F11.6°C 48.4°F9.1°C 85% 3.0 mph WNW4.8 kmh WNW 3.0 mph4.8 kmh 30.41 in1029.8 mb 0.00 in0.0 mm 0.00 in0.0 mm 0.01 in0.3 mm
03:26 AM 52.8°F11.6°C 48.4°F9.1°C 85% 3.0 mph NNW4.8 kmh NNW 4.0 mph6.4 kmh 30.41 in1029.8 mb 0.00 in0.0 mm 0.00 in0.0 mm 0.01 in0.3 mm
03:27 AM 52.8°F11.6°C 48.4°F9.1°C 85% 3.0 mph NNW4.8 kmh NNW 4.0 mph6.4 kmh 30.42 in1030.1 mb 0.00 in0.0 mm 0.00 in0.0 mm 0.01 in0.3 mm
03:28 AM 52.8°F11.6°C 48.4°F9.1°C 85% 4.0 mph NNW6.4 kmh NNW 4.0 mph6.4 kmh 30.42 in1030.1 mb 0.00 in0.0 mm 0.00 in0.0 mm 0.01 in0.3 mm
03:30 AM 52.8°F11.6°C 48.4°F9.1°C 85% 3.0 mph WNW4.8 kmh WNW 4.0 mph6.4 kmh 30.42 in1030.1 mb 0.00 in0.0 mm 0.00 in0.0 mm 0.01 in0.3 mm
03:31 AM 52.8°F11.6°C 48.4°F9.1°C 85% 3.0 mph NW4.8 kmh NW 4.0 mph6.4 kmh 30.42 in1030.1 mb 0.00 in0.0 mm 0.00 in0.0 mm 0.01 in0.3 mm
03:32 AM 52.8°F11.6°C 48.4°F9.1°C 85% 3.0 mph 4.8 kmh 4.0 mph6.4 kmh 30.42 in1030.1 mb 0.00 in0.0 mm 0.00 in0.0 mm 0.01 in0.3 mm
03:33 AM 52.6°F11.4°C 48.2°F9.0°C 85% 3.0 mph ENE4.8 kmh ENE 4.0 mph6.4 kmh 30.42 in1030.1 mb 0.00 in0.0 mm 0.00 in0.0 mm 0.01 in0.3 mm
03:35 AM 52.6°F11.4°C 48.2°F9.0°C 85% 4.0 mph 6.4 kmh 4.0 mph6.4 kmh 30.42 in1030.1 mb 0.00 in0.0 mm 0.00 in0.0 mm 0.01 in0.3 mm
03:36 AM 52.6°F11.4°C 48.2°F9.0°C 85% 2.0 mph NNE3.2 kmh NNE 4.0 mph6.4 kmh 30.42 in1030.1 mb 0.00 in0.0 mm 0.00 in0.0 mm 0.01 in0.3 mm
03:37 AM 52.6°F11.4°C 48.2°F9.0°C 85% 3.0 mph NNW4.8 kmh NNW 4.0 mph6.4 kmh 30.42 in1030.1 mb 0.00 in0.0 mm 0.00 in0.0 mm 0.01 in0.3 mm
03:38 AM 52.6°F11.4°C 48.2°F9.0°C 85% 2.0 mph NNE3.2 kmh NNE 4.0 mph6.4 kmh 30.42 in1030.1 mb 0.00 in0.0 mm 0.00 in0.0 mm 0.01 in0.3 mm
03:40 AM 52.6°F11.4°C 48.2°F9.0°C 85% 2.0 mph NNE3.2 kmh NNE 4.0 mph6.4 kmh 30.41 in1029.8 mb 0.00 in0.0 mm 0.00 in0.0 mm 0.01 in0.3 mm
03:41 AM 53.2°F11.8°C 48.8°F9.3°C 85% 4.0 mph NNW6.4 kmh NNW 5.0 mph8.0 kmh 30.42 in1030.1 mb 0.00 in0.0 mm 0.00 in0.0 mm 0.01 in0.3 mm
03:42 AM 53.2°F11.8°C 48.8°F9.3°C 85% 5.0 mph NNE8.0 kmh NNE 5.0 mph8.0 kmh 30.42 in1030.1 mb 0.00 in0.0 mm 0.00 in0.0 mm 0.01 in0.3 mm
03:43 AM 53.2°F11.8°C 48.2°F9.0°C 83% 5.0 mph NW8.0 kmh NW 5.0 mph8.0 kmh 30.42 in1030.1 mb 0.00 in0.0 mm 0.00 in0.0 mm 0.01 in0.3 mm
03:45 AM 53.2°F11.8°C 48.2°F9.0°C 83% 3.0 mph NNW4.8 kmh NNW 5.0 mph8.0 kmh 30.42 in1030.1 mb 0.00 in0.0 mm 0.00 in0.0 mm 0.01 in0.3 mm
03:46 AM 53.1°F11.7°C 48.1°F8.9°C 83% 2.0 mph NE3.2 kmh NE 5.0 mph8.0 kmh 30.42 in1030.1 mb 0.00 in0.0 mm 0.00 in0.0 mm 0.01 in0.3 mm
03:47 AM 53.1°F11.7°C 48.1°F8.9°C 83% 5.0 mph NNE8.0 kmh NNE 5.0 mph8.0 kmh 30.42 in1030.1 mb 0.00 in0.0 mm 0.00 in0.0 mm 0.01 in0.3 mm
03:48 AM 53.1°F11.7°C 48.1°F8.9°C 83% 4.0 mph 6.4 kmh 5.0 mph8.0 kmh 30.42 in1030.1 mb 0.00 in0.0 mm 0.00 in0.0 mm 0.01 in0.3 mm
03:50 AM 53.1°F11.7°C 48.1°F8.9°C 83% 6.0 mph 9.7 kmh 6.0 mph9.7 kmh 30.43 in1030.5 mb 0.00 in0.0 mm 0.00 in0.0 mm 0.01 in0.3 mm
03:51 AM 52.8°F11.6°C 47.8°F8.8°C 83% 4.0 mph NNE6.4 kmh NNE 6.0 mph9.7 kmh 30.43 in1030.5 mb 0.00 in0.0 mm 0.00 in0.0 mm 0.01 in0.3 mm
03:52 AM 52.8°F11.6°C 47.8°F8.8°C 83% 4.0 mph NNW6.4 kmh NNW 6.0 mph9.7 kmh 30.43 in1030.5 mb 0.00 in0.0 mm 0.00 in0.0 mm 0.01 in0.3 mm
03:53 AM 52.6°F11.4°C 48.2°F9.0°C 85% 5.0 mph 8.0 kmh 6.0 mph9.7 kmh 30.43 in1030.5 mb 0.00 in0.0 mm 0.00 in0.0 mm 0.01 in0.3 mm
03:55 AM 52.5°F11.4°C 48.1°F8.9°C 85% 5.0 mph NNW8.0 kmh NNW 6.0 mph9.7 kmh 30.43 in1030.5 mb 0.00 in0.0 mm 0.00 in0.0 mm 0.01 in0.3 mm
03:57 AM 52.3°F11.3°C 47.9°F8.8°C 85% 4.0 mph NNE6.4 kmh NNE 6.0 mph9.7 kmh 30.43 in1030.5 mb 0.00 in0.0 mm 0.00 in0.0 mm 0.01 in0.3 mm
03:58 AM 52.3°F11.3°C 48.2°F9.0°C 86% 2.0 mph 3.2 kmh 6.0 mph9.7 kmh 30.42 in1030.1 mb 0.00 in0.0 mm 0.00 in0.0 mm 0.01 in0.3 mm
04:00 AM 52.3°F11.3°C 48.2°F9.0°C 86% 3.0 mph E4.8 kmh E 6.0 mph9.7 kmh 30.42 in1030.1 mb 0.00 in0.0 mm 0.00 in0.0 mm 0.01 in0.3 mm
04:01 AM 52.3°F11.3°C 48.2°F9.0°C 86% 2.0 mph NNW3.2 kmh NNW 5.0 mph8.0 kmh 30.42 in1030.1 mb 0.00 in0.0 mm 0.00 in0.0 mm 0.01 in0.3 mm
04:02 AM 52.3°F11.3°C 48.2°F9.0°C 86% 4.0 mph NE6.4 kmh NE 5.0 mph8.0 kmh 30.42 in1030.1 mb 0.00 in0.0 mm 0.00 in0.0 mm 0.01 in0.3 mm
04:03 AM 52.3°F11.3°C 48.2°F9.0°C 86% 2.0 mph NW3.2 kmh NW 6.0 mph9.7 kmh 30.42 in1030.1 mb 0.00 in0.0 mm 0.00 in0.0 mm 0.01 in0.3 mm
04:05 AM 52.3°F11.3°C 48.2°F9.0°C 86% 2.0 mph NNE3.2 kmh NNE 6.0 mph9.7 kmh 30.43 in1030.5 mb 0.00 in0.0 mm 0.00 in0.0 mm 0.01 in0.3 mm
04:06 AM 52.5°F11.4°C 48.4°F9.1°C 86% 5.0 mph NNW8.0 kmh NNW 6.0 mph9.7 kmh 30.43 in1030.5 mb 0.00 in0.0 mm 0.00 in0.0 mm 0.01 in0.3 mm
04:07 AM 52.5°F11.4°C 48.4°F9.1°C 86% 4.0 mph 6.4 kmh 6.0 mph9.7 kmh 30.43 in1030.5 mb 0.00 in0.0 mm 0.00 in0.0 mm 0.01 in0.3 mm
04:08 AM 52.6°F11.4°C 48.5°F9.2°C 86% 3.0 mph NNE4.8 kmh NNE 6.0 mph9.7 kmh 30.43 in1030.5 mb 0.00 in0.0 mm 0.00 in0.0 mm 0.01 in0.3 mm
04:10 AM 52.6°F11.4°C 48.5°F9.2°C 86% 3.0 mph NNW4.8 kmh NNW 6.0 mph9.7 kmh 30.43 in1030.5 mb 0.00 in0.0 mm 0.00 in0.0 mm 0.01 in0.3 mm
04:11 AM 52.6°F11.4°C 48.5°F9.2°C 86% 3.0 mph WNW4.8 kmh WNW 6.0 mph9.7 kmh 30.43 in1030.5 mb 0.00 in0.0 mm 0.00 in0.0 mm 0.01 in0.3 mm
04:12 AM 52.6°F11.4°C 48.5°F9.2°C 86% 2.0 mph NNE3.2 kmh NNE 6.0 mph9.7 kmh 30.43 in1030.5 mb 0.00 in0.0 mm 0.00 in0.0 mm 0.01 in0.3 mm
04:13 AM 52.6°F11.4°C 48.5°F9.2°C 86% 3.0 mph NW4.8 kmh NW 6.0 mph9.7 kmh 30.43 in1030.5 mb 0.00 in0.0 mm 0.00 in0.0 mm 0.01 in0.3 mm
04:15 AM 52.6°F11.4°C 48.5°F9.2°C 86% 2.0 mph NNW3.2 kmh NNW 6.0 mph9.7 kmh 30.43 in1030.5 mb 0.00 in0.0 mm 0.00 in0.0 mm 0.01 in0.3 mm
04:16 AM 52.5°F11.4°C 48.4°F9.1°C 86% 4.0 mph 6.4 kmh 6.0 mph9.7 kmh 30.43 in1030.5 mb 0.00 in0.0 mm 0.00 in0.0 mm 0.01 in0.3 mm
04:17 AM 52.3°F11.3°C 48.2°F9.0°C 86% 3.0 mph W4.8 kmh W 5.0 mph8.0 kmh 30.44 in1030.8 mb 0.00 in0.0 mm 0.00 in0.0 mm 0.01 in0.3 mm
04:18 AM 52.2°F11.2°C 48.1°F8.9°C 86% 4.0 mph WNW6.4 kmh WNW 4.0 mph6.4 kmh 30.44 in1030.8 mb 0.00 in0.0 mm 0.00 in0.0 mm 0.01 in0.3 mm
04:20 AM 52.2°F11.2°C 48.1°F8.9°C 86% 4.0 mph NNE6.4 kmh NNE 4.0 mph6.4 kmh 30.44 in1030.8 mb 0.00 in0.0 mm 0.00 in0.0 mm 0.01 in0.3 mm
04:21 AM 51.9°F11.1°C 47.8°F8.8°C 86% 4.0 mph NNW6.4 kmh NNW 4.0 mph6.4 kmh 30.44 in1030.8 mb 0.00 in0.0 mm 0.00 in0.0 mm 0.01 in0.3 mm
04:22 AM 51.9°F11.1°C 47.8°F8.8°C 86% 6.0 mph NE9.7 kmh NE 6.0 mph9.7 kmh 30.44 in1030.8 mb 0.00 in0.0 mm 0.00 in0.0 mm 0.01 in0.3 mm
04:23 AM 51.8°F11.0°C 47.7°F8.7°C 86% 2.0 mph E3.2 kmh E 6.0 mph9.7 kmh 30.44 in1030.8 mb 0.00 in0.0 mm 0.00 in0.0 mm 0.01 in0.3 mm
04:25 AM 51.8°F11.0°C 47.7°F8.7°C 86% 2.0 mph NE3.2 kmh NE 6.0 mph9.7 kmh 30.44 in1030.8 mb 0.00 in0.0 mm 0.00 in0.0 mm 0.01 in0.3 mm
04:26 AM 51.8°F11.0°C 47.7°F8.7°C 86% 1.0 mph NE1.6 kmh NE 6.0 mph9.7 kmh 30.44 in1030.8 mb 0.00 in0.0 mm 0.00 in0.0 mm 0.01 in0.3 mm
04:27 AM 51.8°F11.0°C 48.3°F9.1°C 88% 1.0 mph NE1.6 kmh NE 6.0 mph9.7 kmh 30.44 in1030.8 mb 0.00 in0.0 mm 0.00 in0.0 mm 0.01 in0.3 mm
04:28 AM 51.8°F11.0°C 48.3°F9.1°C 88% 2.0 mph NNW3.2 kmh NNW 6.0 mph9.7 kmh 30.44 in1030.8 mb 0.00 in0.0 mm 0.00 in0.0 mm 0.01 in0.3 mm
04:30 AM 51.8°F11.0°C 48.3°F9.1°C 88% 2.0 mph NNE3.2 kmh NNE 6.0 mph9.7 kmh 30.43 in1030.5 mb 0.00 in0.0 mm 0.00 in0.0 mm 0.01 in0.3 mm
04:31 AM 51.8°F11.0°C 48.3°F9.1°C 88% 3.0 mph NNW4.8 kmh NNW 6.0 mph9.7 kmh 30.44 in1030.8 mb 0.00 in0.0 mm 0.00 in0.0 mm 0.01 in0.3 mm
04:32 AM 51.8°F11.0°C 48.3°F9.1°C 88% 2.0 mph NW3.2 kmh NW 5.0 mph8.0 kmh 30.44 in1030.8 mb 0.00 in0.0 mm 0.00 in0.0 mm 0.01 in0.3 mm
04:33 AM 51.8°F11.0°C 48.3°F9.1°C 88% 3.0 mph NNW4.8 kmh NNW 4.0 mph6.4 kmh 30.44 in1030.8 mb 0.00 in0.0 mm 0.00 in0.0 mm 0.01 in0.3 mm
04:35 AM 51.8°F11.0°C 48.3°F9.1°C 88% 2.0 mph NNW3.2 kmh NNW 4.0 mph6.4 kmh 30.44 in1030.8 mb 0.00 in0.0 mm 0.00 in0.0 mm 0.01 in0.3 mm
04:36 AM 51.8°F11.0°C 48.3°F9.1°C 88% 4.0 mph NNE6.4 kmh NNE 4.0 mph6.4 kmh 30.44 in1030.8 mb 0.00 in0.0 mm 0.00 in0.0 mm 0.01 in0.3 mm
04:37 AM 51.8°F11.0°C 48.3°F9.1°C 88% 3.0 mph NNW4.8 kmh NNW 4.0 mph6.4 kmh 30.44 in1030.8 mb 0.00 in0.0 mm 0.00 in0.0 mm 0.01 in0.3 mm
04:38 AM 51.8°F11.0°C 48.3°F9.1°C 88% 4.0 mph 6.4 kmh 4.0 mph6.4 kmh 30.44 in1030.8 mb 0.00 in0.0 mm 0.00 in0.0 mm 0.01 in0.3 mm
04:40 AM 51.8°F11.0°C 48.3°F9.1°C 88% 3.0 mph NE4.8 kmh NE 6.0 mph9.7 kmh 30.45 in1031.2 mb 0.00 in0.0 mm 0.00 in0.0 mm 0.01 in0.3 mm
04:41 AM 51.8°F11.0°C 48.3°F9.1°C 88% 3.0 mph NE4.8 kmh NE 6.0 mph9.7 kmh 30.44 in1030.8 mb 0.00 in0.0 mm 0.00 in0.0 mm 0.01 in0.3 mm
04:42 AM 51.8°F11.0°C 48.3°F9.1°C 88% 5.0 mph NNE8.0 kmh NNE 6.0 mph9.7 kmh 30.44 in1030.8 mb 0.00 in0.0 mm 0.00 in0.0 mm 0.01 in0.3 mm
04:43 AM 51.9°F11.1°C 48.4°F9.1°C 88% 5.0 mph NNE8.0 kmh NNE 7.0 mph11.3 kmh 30.45 in1031.2 mb 0.00 in0.0 mm 0.00 in0.0 mm 0.01 in0.3 mm
04:45 AM 51.9°F11.1°C 48.4°F9.1°C 88% 5.0 mph NE8.0 kmh NE 7.0 mph11.3 kmh 30.44 in1030.8 mb 0.00 in0.0 mm 0.00 in0.0 mm 0.01 in0.3 mm
04:46 AM 52.2°F11.2°C 48.1°F8.9°C 86% 4.0 mph 6.4 kmh 9.0 mph14.5 kmh 30.44 in1030.8 mb 0.00 in0.0 mm 0.00 in0.0 mm 0.01 in0.3 mm
04:47 AM 52.2°F11.2°C 48.1°F8.9°C 86% 3.0 mph NNE4.8 kmh NNE 9.0 mph14.5 kmh 30.44 in1030.8 mb 0.00 in0.0 mm 0.00 in0.0 mm 0.01 in0.3 mm
04:48 AM 52.2°F11.2°C 48.1°F8.9°C 86% 2.0 mph ESE3.2 kmh ESE 9.0 mph14.5 kmh 30.44 in1030.8 mb 0.00 in0.0 mm 0.00 in0.0 mm 0.01 in0.3 mm
04:50 AM 52.2°F11.2°C 48.1°F8.9°C 86% 2.0 mph ESE3.2 kmh ESE 9.0 mph14.5 kmh 30.45 in1031.2 mb 0.00 in0.0 mm 0.00 in0.0 mm 0.01 in0.3 mm
04:51 AM 52.2°F11.2°C 48.1°F8.9°C 86% 2.0 mph ESE3.2 kmh ESE 9.0 mph14.5 kmh 30.45 in1031.2 mb 0.00 in0.0 mm 0.00 in0.0 mm 0.01 in0.3 mm
04:52 AM 52.2°F11.2°C 48.1°F8.9°C 86% 2.0 mph WNW3.2 kmh WNW 9.0 mph14.5 kmh 30.45 in1031.2 mb 0.00 in0.0 mm 0.00 in0.0 mm 0.01 in0.3 mm
04:53 AM 52.2°F11.2°C 48.1°F8.9°C 86% 1.0 mph WNW1.6 kmh WNW 9.0 mph14.5 kmh 30.45 in1031.2 mb 0.00 in0.0 mm 0.00 in0.0 mm 0.01 in0.3 mm
04:55 AM 52.2°F11.2°C 48.1°F8.9°C 86% 1.0 mph WNW1.6 kmh WNW 9.0 mph14.5 kmh 30.45 in1031.2 mb 0.00 in0.0 mm 0.00 in0.0 mm 0.01 in0.3 mm
04:56 AM 51.9°F11.1°C 47.8°F8.8°C 86% 3.0 mph NNE4.8 kmh NNE 4.0 mph6.4 kmh 30.45 in1031.2 mb 0.00 in0.0 mm 0.00 in0.0 mm 0.01 in0.3 mm
04:57 AM 51.9°F11.1°C 47.8°F8.8°C 86% 2.0 mph SW3.2 kmh SW 4.0 mph6.4 kmh 30.46 in1031.5 mb 0.00 in0.0 mm 0.00 in0.0 mm 0.01 in0.3 mm
04:58 AM 51.9°F11.1°C 47.8°F8.8°C 86% 2.0 mph SW3.2 kmh SW 4.0 mph6.4 kmh 30.46 in1031.5 mb 0.00 in0.0 mm 0.00 in0.0 mm 0.01 in0.3 mm
05:00 AM 51.9°F11.1°C 47.8°F8.8°C 86% 2.0 mph SW3.2 kmh SW 4.0 mph6.4 kmh 30.46 in1031.5 mb 0.00 in0.0 mm 0.00 in0.0 mm 0.01 in0.3 mm
05:01 AM 51.9°F11.1°C 47.8°F8.8°C 86% 5.0 mph NNE8.0 kmh NNE 5.0 mph8.0 kmh 30.46 in1031.5 mb 0.00 in0.0 mm 0.00 in0.0 mm 0.01 in0.3 mm
05:02 AM 51.9°F11.1°C 47.8°F8.8°C 86% 5.0 mph NE8.0 kmh NE 5.0 mph8.0 kmh 30.46 in1031.5 mb 0.00 in0.0 mm 0.00 in0.0 mm 0.01 in0.3 mm
05:03 AM 51.9°F11.1°C 47.8°F8.8°C 86% 5.0 mph NE8.0 kmh NE 5.0 mph8.0 kmh 30.46 in1031.5 mb 0.00 in0.0 mm 0.00 in0.0 mm 0.01 in0.3 mm
05:05 AM 51.9°F11.1°C 47.8°F8.8°C 86% 5.0 mph NE8.0 kmh NE 5.0 mph8.0 kmh 30.46 in1031.5 mb 0.00 in0.0 mm 0.00 in0.0 mm 0.01 in0.3 mm
05:06 AM 51.9°F11.1°C 47.8°F8.8°C 86% 2.0 mph NNE3.2 kmh NNE 5.0 mph8.0 kmh 30.46 in1031.5 mb 0.00 in0.0 mm 0.00 in0.0 mm 0.01 in0.3 mm
05:07 AM 51.9°F11.1°C 47.5°F8.6°C 85% 4.0 mph NNE6.4 kmh NNE 5.0 mph8.0 kmh 30.46 in1031.5 mb 0.00 in0.0 mm 0.00 in0.0 mm 0.01 in0.3 mm
05:08 AM 51.9°F11.1°C 47.5°F8.6°C 85% 4.0 mph NNE6.4 kmh NNE 5.0 mph8.0 kmh 30.46 in1031.5 mb 0.00 in0.0 mm 0.00 in0.0 mm 0.01 in0.3 mm
05:10 AM 51.9°F11.1°C 47.5°F8.6°C 85% 3.0 mph NNE4.8 kmh NNE 5.0 mph8.0 kmh 30.47 in1031.8 mb 0.00 in0.0 mm 0.00 in0.0 mm 0.01 in0.3 mm
05:11 AM 51.8°F11.0°C 47.4°F8.6°C 85% 5.0 mph NNE8.0 kmh NNE 5.0 mph8.0 kmh 30.47 in1031.8 mb 0.00 in0.0 mm 0.00 in0.0 mm 0.01 in0.3 mm
05:12 AM 51.8°F11.0°C 47.4°F8.6°C 85% 2.0 mph NW3.2 kmh NW 5.0 mph8.0 kmh 30.47 in1031.8 mb 0.00 in0.0 mm 0.00 in0.0 mm 0.01 in0.3 mm
05:13 AM 51.8°F11.0°C 47.4°F8.6°C 85% 4.0 mph WNW6.4 kmh WNW 6.0 mph9.7 kmh 30.48 in1032.2 mb 0.00 in0.0 mm 0.00 in0.0 mm 0.01 in0.3 mm
05:15 AM 51.8°F11.0°C 47.4°F8.6°C 85% 4.0 mph NNE6.4 kmh NNE 6.0 mph9.7 kmh 30.48 in1032.2 mb 0.00 in0.0 mm 0.00 in0.0 mm 0.01 in0.3 mm
05:16 AM 51.8°F11.0°C 47.4°F8.6°C 85% 2.0 mph NNW3.2 kmh NNW 6.0 mph9.7 kmh 30.48 in1032.2 mb 0.00 in0.0 mm 0.00 in0.0 mm 0.01 in0.3 mm
05:17 AM 51.8°F11.0°C 47.4°F8.6°C 85% 1.0 mph 1.6 kmh 6.0 mph9.7 kmh 30.48 in1032.2 mb 0.00 in0.0 mm 0.00 in0.0 mm 0.01 in0.3 mm
05:18 AM 51.8°F11.0°C 47.4°F8.6°C 85% 3.0 mph NNW4.8 kmh NNW 6.0 mph9.7 kmh 30.48 in1032.2 mb 0.00 in0.0 mm 0.00 in0.0 mm 0.01 in0.3 mm
05:20 AM 51.5°F10.8°C 47.4°F8.6°C 86% 3.0 mph 4.8 kmh 6.0 mph9.7 kmh 30.48 in1032.2 mb 0.00 in0.0 mm 0.00 in0.0 mm 0.01 in0.3 mm
05:21 AM 51.4°F10.8°C 47.3°F8.5°C 86% 2.0 mph NNW3.2 kmh NNW 6.0 mph9.7 kmh 30.49 in1032.5 mb 0.00 in0.0 mm 0.00 in0.0 mm 0.01 in0.3 mm
05:22 AM 51.4°F10.8°C 47.3°F8.5°C 86% 4.0 mph NNW6.4 kmh NNW 6.0 mph9.7 kmh 30.49 in1032.5 mb 0.00 in0.0 mm 0.00 in0.0 mm 0.01 in0.3 mm
05:23 AM 51.3°F10.7°C 47.2°F8.4°C 86% 3.0 mph 4.8 kmh 5.0 mph8.0 kmh 30.49 in1032.5 mb 0.00 in0.0 mm 0.00 in0.0 mm 0.01 in0.3 mm
05:25 AM 51.3°F10.7°C 47.2°F8.4°C 86% 4.0 mph 6.4 kmh 5.0 mph8.0 kmh 30.48 in1032.2 mb 0.00 in0.0 mm 0.00 in0.0 mm 0.01 in0.3 mm
05:26 AM 50.9°F10.5°C 46.8°F8.2°C 86% 3.0 mph NNE4.8 kmh NNE 5.0 mph8.0 kmh 30.48 in1032.2 mb 0.00 in0.0 mm 0.00 in0.0 mm 0.01 in0.3 mm
05:27 AM 50.9°F10.5°C 46.8°F8.2°C 86% 7.0 mph NNE11.3 kmh NNE 7.0 mph11.3 kmh 30.48 in1032.2 mb 0.00 in0.0 mm 0.00 in0.0 mm 0.01 in0.3 mm
05:28 AM 50.5°F10.3°C 45.5°F7.5°C 83% 4.0 mph NNE6.4 kmh NNE 7.0 mph11.3 kmh 30.48 in1032.2 mb 0.00 in0.0 mm 0.00 in0.0 mm 0.01 in0.3 mm
05:30 AM 50.5°F10.3°C 45.5°F7.5°C 83% 5.0 mph NNE8.0 kmh NNE 10.0 mph16.1 kmh 30.48 in1032.2 mb 0.00 in0.0 mm 0.00 in0.0 mm 0.01 in0.3 mm
05:31 AM 50.1°F10.1°C 44.5°F6.9°C 81% 4.0 mph 6.4 kmh 10.0 mph16.1 kmh 30.48 in1032.2 mb 0.00 in0.0 mm 0.00 in0.0 mm 0.01 in0.3 mm
05:32 AM 50.1°F10.1°C 44.5°F6.9°C 81% 7.0 mph NNE11.3 kmh NNE 10.0 mph16.1 kmh 30.48 in1032.2 mb 0.00 in0.0 mm 0.00 in0.0 mm 0.01 in0.3 mm
05:33 AM 50.0°F10.0°C 44.4°F6.9°C 81% 3.0 mph NNW4.8 kmh NNW 10.0 mph16.1 kmh 30.48 in1032.2 mb 0.00 in0.0 mm 0.00 in0.0 mm 0.01 in0.3 mm
05:35 AM 50.0°F10.0°C 44.4°F6.9°C 81% 4.0 mph NNW6.4 kmh NNW 10.0 mph16.1 kmh 30.48 in1032.2 mb 0.00 in0.0 mm 0.00 in0.0 mm 0.01 in0.3 mm
05:36 AM 49.6°F9.8°C 44.0°F6.7°C 81% 5.0 mph NNE8.0 kmh NNE 10.0 mph16.1 kmh 30.48 in1032.2 mb 0.00 in0.0 mm 0.00 in0.0 mm 0.01 in0.3 mm
05:37 AM 49.6°F9.8°C 44.0°F6.7°C 81% 3.0 mph NNE4.8 kmh NNE 10.0 mph16.1 kmh 30.49 in1032.5 mb 0.00 in0.0 mm 0.00 in0.0 mm 0.01 in0.3 mm
05:38 AM 49.4°F9.7°C 43.8°F6.6°C 81% 4.0 mph NNE6.4 kmh NNE 7.0 mph11.3 kmh 30.49 in1032.5 mb 0.00 in0.0 mm 0.00 in0.0 mm 0.01 in0.3 mm
05:40 AM 49.4°F9.7°C 43.8°F6.6°C 81% 8.0 mph NW12.9 kmh NW 8.0 mph12.9 kmh 30.49 in1032.5 mb 0.00 in0.0 mm 0.00 in0.0 mm 0.01 in0.3 mm
05:41 AM 49.0°F9.4°C 43.4°F6.3°C 81% 7.0 mph NNE11.3 kmh NNE 8.0 mph12.9 kmh 30.49 in1032.5 mb 0.00 in0.0 mm 0.00 in0.0 mm 0.01 in0.3 mm
05:42 AM 49.0°F9.4°C 43.4°F6.3°C 81% 2.0 mph NNE3.2 kmh NNE 8.0 mph12.9 kmh 30.49 in1032.5 mb 0.00 in0.0 mm 0.00 in0.0 mm 0.01 in0.3 mm
05:43 AM 49.0°F9.4°C 43.4°F6.3°C 81% 3.0 mph NNE4.8 kmh NNE 8.0 mph12.9 kmh 30.50 in1032.8 mb 0.00 in0.0 mm 0.00 in0.0 mm 0.01 in0.3 mm
05:45 AM 49.0°F9.4°C 43.4°F6.3°C 81% 3.0 mph NNW4.8 kmh NNW 8.0 mph12.9 kmh 30.49 in1032.5 mb 0.00 in0.0 mm 0.00 in0.0 mm 0.01 in0.3 mm
05:46 AM 48.9°F9.4°C 43.3°F6.3°C 81% 3.0 mph NNE4.8 kmh NNE 8.0 mph12.9 kmh 30.49 in1032.5 mb 0.00 in0.0 mm 0.00 in0.0 mm 0.01 in0.3 mm
05:47 AM 48.9°F9.4°C 43.3°F6.3°C 81% 3.0 mph 4.8 kmh 8.0 mph12.9 kmh 30.49 in1032.5 mb 0.00 in0.0 mm 0.00 in0.0 mm 0.01 in0.3 mm
05:48 AM 48.6°F9.2°C 43.1°F6.2°C 81% 7.0 mph WNW11.3 kmh WNW 8.0 mph12.9 kmh 30.49 in1032.5 mb 0.00 in0.0 mm 0.00 in0.0 mm 0.01 in0.3 mm
05:50 AM 48.6°F9.2°C 43.1°F6.2°C 81% 3.0 mph NNE4.8 kmh NNE 7.0 mph11.3 kmh 30.49 in1032.5 mb 0.00 in0.0 mm 0.00 in0.0 mm 0.01 in0.3 mm
05:51 AM 48.5°F9.2°C 43.0°F6.1°C 81% 7.0 mph 11.3 kmh 7.0 mph11.3 kmh 30.49 in1032.5 mb 0.00 in0.0 mm 0.00 in0.0 mm 0.01 in0.3 mm
05:52 AM 48.4°F9.1°C 42.9°F6.1°C 81% 3.0 mph 4.8 kmh 7.0 mph11.3 kmh 30.49 in1032.5 mb 0.00 in0.0 mm 0.00 in0.0 mm 0.01 in0.3 mm
05:53 AM 48.4°F9.1°C 42.9°F6.1°C 81% 4.0 mph NNE6.4 kmh NNE 7.0 mph11.3 kmh 30.50 in1032.8 mb 0.00 in0.0 mm 0.00 in0.0 mm 0.01 in0.3 mm
05:55 AM 48.4°F9.1°C 42.9°F6.1°C 81% 5.0 mph NNE8.0 kmh NNE 7.0 mph11.3 kmh 30.49 in1032.5 mb 0.00 in0.0 mm 0.00 in0.0 mm 0.01 in0.3 mm
05:56 AM 48.4°F9.1°C 42.9°F6.1°C 81% 3.0 mph W4.8 kmh W 7.0 mph11.3 kmh 30.49 in1032.5 mb 0.00 in0.0 mm 0.00 in0.0 mm 0.01 in0.3 mm
05:57 AM 48.4°F9.1°C 42.9°F6.1°C 81% 4.0 mph NNE6.4 kmh NNE 7.0 mph11.3 kmh 30.50 in1032.8 mb 0.00 in0.0 mm 0.00 in0.0 mm 0.01 in0.3 mm
05:58 AM 48.4°F9.1°C 42.9°F6.1°C 81% 5.0 mph NNE8.0 kmh NNE 7.0 mph11.3 kmh 30.50 in1032.8 mb 0.00 in0.0 mm 0.00 in0.0 mm 0.01 in0.3 mm
06:00 AM 48.4°F9.1°C 42.9°F6.1°C 81% 5.0 mph NNE8.0 kmh NNE 7.0 mph11.3 kmh 30.50 in1032.8 mb 0.00 in0.0 mm 0.00 in0.0 mm 0.01 in0.3 mm
06:01 AM 48.4°F9.1°C 42.9°F6.1°C 81% 5.0 mph NE8.0 kmh NE 5.0 mph8.0 kmh 30.50 in1032.8 mb 0.00 in0.0 mm 0.00 in0.0 mm 0.01 in0.3 mm
06:02 AM 48.4°F9.1°C 42.9°F6.1°C 81% 3.0 mph NNE4.8 kmh NNE 5.0 mph8.0 kmh 30.50 in1032.8 mb 0.00 in0.0 mm 0.00 in0.0 mm 0.01 in0.3 mm
06:03 AM 48.4°F9.1°C 42.9°F6.1°C 81% 5.0 mph 8.0 kmh 5.0 mph8.0 kmh 30.51 in1033.2 mb 0.00 in0.0 mm 0.00 in0.0 mm 0.01 in0.3 mm
06:05 AM 48.2°F9.0°C 42.7°F5.9°C 81% 6.0 mph 9.7 kmh 6.0 mph9.7 kmh 30.51 in1033.2 mb 0.00 in0.0 mm 0.00 in0.0 mm 0.01 in0.3 mm
06:06 AM 48.2°F9.0°C 42.7°F5.9°C 81% 6.0 mph WNW9.7 kmh WNW 6.0 mph9.7 kmh 30.51 in1033.2 mb 0.00 in0.0 mm 0.00 in0.0 mm 0.01 in0.3 mm
06:07 AM 48.2°F9.0°C 43.3°F6.3°C 83% 5.0 mph NNE8.0 kmh NNE 6.0 mph9.7 kmh 30.52 in1033.5 mb 0.00 in0.0 mm 0.00 in0.0 mm 0.01 in0.3 mm
06:08 AM 48.2°F9.0°C 43.9°F6.6°C 85% 5.0 mph NNE8.0 kmh NNE 6.0 mph9.7 kmh 30.52 in1033.5 mb 0.00 in0.0 mm 0.00 in0.0 mm 0.01 in0.3 mm
06:10 AM 47.7°F8.7°C 43.7°F6.5°C 86% 4.0 mph NNE6.4 kmh NNE 6.0 mph9.7 kmh 30.52 in1033.5 mb 0.00 in0.0 mm 0.00 in0.0 mm 0.01 in0.3 mm
06:11 AM 47.7°F8.7°C 43.7°F6.5°C 86% 4.0 mph 6.4 kmh 6.0 mph9.7 kmh 30.52 in1033.5 mb 0.00 in0.0 mm 0.00 in0.0 mm 0.01 in0.3 mm
06:12 AM 47.7°F8.7°C 43.7°F6.5°C 86% 4.0 mph NNE6.4 kmh NNE 6.0 mph9.7 kmh 30.52 in1033.5 mb 0.01 in0.3 mm 0.60 in15.2 mm 0.01 in0.3 mm
06:13 AM 47.7°F8.7°C 43.7°F6.5°C 86% 1.0 mph 1.6 kmh 6.0 mph9.7 kmh 30.52 in1033.5 mb 0.01 in0.3 mm 0.00 in0.0 mm 0.01 in0.3 mm
06:15 AM 47.6°F8.7°C 44.2°F6.8°C 88% 2.0 mph 3.2 kmh 6.0 mph9.7 kmh 30.52 in1033.5 mb 0.01 in0.3 mm 0.00 in0.0 mm 0.01 in0.3 mm
06:16 AM 47.6°F8.7°C 44.2°F6.8°C 88% 2.0 mph 3.2 kmh 6.0 mph9.7 kmh 30.52 in1033.5 mb 0.01 in0.3 mm 0.00 in0.0 mm 0.01 in0.3 mm
06:17 AM 47.6°F8.7°C 43.6°F6.4°C 86% 3.0 mph NNE4.8 kmh NNE 5.0 mph8.0 kmh 30.51 in1033.2 mb 0.01 in0.3 mm 0.00 in0.0 mm 0.01 in0.3 mm
06:18 AM 47.5°F8.6°C 43.5°F6.4°C 86% 4.0 mph NNW6.4 kmh NNW 5.0 mph8.0 kmh 30.51 in1033.2 mb 0.01 in0.3 mm 0.00 in0.0 mm 0.01 in0.3 mm
06:20 AM 47.3°F8.5°C 43.3°F6.3°C 86% 2.0 mph NNE3.2 kmh NNE 4.0 mph6.4 kmh 30.51 in1033.2 mb 0.01 in0.3 mm 0.00 in0.0 mm 0.01 in0.3 mm
06:21 AM 47.3°F8.5°C 43.3°F6.3°C 86% 2.0 mph NNE3.2 kmh NNE 4.0 mph6.4 kmh 30.51 in1033.2 mb 0.01 in0.3 mm 0.00 in0.0 mm 0.01 in0.3 mm
06:22 AM 47.3°F8.5°C 43.3°F6.3°C 86% 4.0 mph NE6.4 kmh NE 5.0 mph8.0 kmh 30.51 in1033.2 mb 0.01 in0.3 mm 0.00 in0.0 mm 0.01 in0.3 mm
06:23 AM 47.3°F8.5°C 43.3°F6.3°C 86% 2.0 mph NNE3.2 kmh NNE 5.0 mph8.0 kmh 30.51 in1033.2 mb 0.01 in0.3 mm 0.00 in0.0 mm 0.01 in0.3 mm
06:25 AM 47.1°F8.4°C 43.1°F6.2°C 86% 4.0 mph NNE6.4 kmh NNE 5.0 mph8.0 kmh 30.52 in1033.5 mb 0.01 in0.3 mm 0.00 in0.0 mm 0.01 in0.3 mm
06:26 AM 47.1°F8.4°C 43.1°F6.2°C 86% 2.0 mph NNE3.2 kmh NNE 5.0 mph8.0 kmh 30.52 in1033.5 mb 0.01 in0.3 mm 0.00 in0.0 mm 0.01 in0.3 mm
06:27 AM 47.1°F8.4°C 43.1°F6.2°C 86% 3.0 mph NNW4.8 kmh NNW 5.0 mph8.0 kmh 30.52 in1033.5 mb 0.01 in0.3 mm 0.00 in0.0 mm 0.01 in0.3 mm
06:28 AM 47.1°F8.4°C 43.1°F6.2°C 86% 3.0 mph 4.8 kmh 5.0 mph8.0 kmh 30.52 in1033.5 mb 0.01 in0.3 mm 0.00 in0.0 mm 0.01 in0.3 mm
06:30 AM 47.1°F8.4°C 42.8°F6.0°C 85% 4.0 mph NNE6.4 kmh NNE 5.0 mph8.0 kmh 30.52 in1033.5 mb 0.01 in0.3 mm 0.00 in0.0 mm 0.01 in0.3 mm
06:31 AM 47.1°F8.4°C 42.8°F6.0°C 85% 4.0 mph NW6.4 kmh NW 5.0 mph8.0 kmh 30.52 in1033.5 mb 0.01 in0.3 mm 0.00 in0.0 mm 0.01 in0.3 mm
06:32 AM 47.1°F8.4°C 42.8°F6.0°C 85% 5.0 mph NNE8.0 kmh NNE 5.0 mph8.0 kmh 30.52 in1033.5 mb 0.01 in0.3 mm 0.00 in0.0 mm 0.01 in0.3 mm
06:33 AM 47.1°F8.4°C 42.2°F5.7°C 83% 4.0 mph NNE6.4 kmh NNE 5.0 mph8.0 kmh 30.52 in1033.5 mb 0.01 in0.3 mm 0.00 in0.0 mm 0.01 in0.3 mm
06:35 AM 47.1°F8.4°C 42.2°F5.7°C 83% 3.0 mph NNE4.8 kmh NNE 5.0 mph8.0 kmh 30.52 in1033.5 mb 0.01 in0.3 mm 0.00 in0.0 mm 0.01 in0.3 mm
06:36 AM 47.1°F8.4°C 42.2°F5.7°C 83% 5.0 mph 8.0 kmh 5.0 mph8.0 kmh 30.52 in1033.5 mb 0.01 in0.3 mm 0.00 in0.0 mm 0.01 in0.3 mm
06:37 AM 47.1°F8.4°C 42.2°F5.7°C 83% 6.0 mph NNW9.7 kmh NNW 7.0 mph11.3 kmh 30.52 in1033.5 mb 0.01 in0.3 mm 0.00 in0.0 mm 0.01 in0.3 mm
06:38 AM 47.1°F8.4°C 41.6°F5.3°C 81% 3.0 mph NE4.8 kmh NE 7.0 mph11.3 kmh 30.52 in1033.5 mb 0.01 in0.3 mm 0.00 in0.0 mm 0.01 in0.3 mm
06:40 AM 47.1°F8.4°C 41.6°F5.3°C 81% 3.0 mph NE4.8 kmh NE 7.0 mph11.3 kmh 30.52 in1033.5 mb 0.01 in0.3 mm 0.00 in0.0 mm 0.01 in0.3 mm
06:41 AM 47.1°F8.4°C 41.6°F5.3°C 81% 2.0 mph NNE3.2 kmh NNE 7.0 mph11.3 kmh 30.52 in1033.5 mb 0.01 in0.3 mm 0.00 in0.0 mm 0.01 in0.3 mm
06:42 AM 47.1°F8.4°C 41.6°F5.3°C 81% 4.0 mph NNW6.4 kmh NNW 7.0 mph11.3 kmh 30.52 in1033.5 mb 0.01 in0.3 mm 0.00 in0.0 mm 0.01 in0.3 mm
06:43 AM 47.1°F8.4°C 41.6°F5.3°C 81% 4.0 mph NNW6.4 kmh NNW 7.0 mph11.3 kmh 30.53 in1033.9 mb 0.01 in0.3 mm 0.00 in0.0 mm 0.01 in0.3 mm
06:45 AM 47.1°F8.4°C 41.6°F5.3°C 81% 5.0 mph NW8.0 kmh NW 8.0 mph12.9 kmh 30.53 in1033.9 mb 0.01 in0.3 mm 0.00 in0.0 mm 0.01 in0.3 mm
06:46 AM 47.1°F8.4°C 41.6°F5.3°C 81% 5.0 mph NNE8.0 kmh NNE 8.0 mph12.9 kmh 30.53 in1033.9 mb 0.01 in0.3 mm 0.00 in0.0 mm 0.01 in0.3 mm
06:47 AM 47.1°F8.4°C 41.6°F5.3°C 81% 6.0 mph NNE9.7 kmh NNE 8.0 mph12.9 kmh 30.53 in1033.9 mb 0.01 in0.3 mm 0.00 in0.0 mm 0.01 in0.3 mm
06:48 AM 47.1°F8.4°C 41.6°F5.3°C 81% 6.0 mph 9.7 kmh 8.0 mph12.9 kmh 30.53 in1033.9 mb 0.01 in0.3 mm 0.00 in0.0 mm 0.01 in0.3 mm
06:50 AM 47.1°F8.4°C 41.6°F5.3°C 81% 5.0 mph WNW8.0 kmh WNW 8.0 mph12.9 kmh 30.53 in1033.9 mb 0.01 in0.3 mm 0.00 in0.0 mm 0.01 in0.3 mm
06:51 AM 46.9°F8.3°C 41.4°F5.2°C 81% 6.0 mph NNW9.7 kmh NNW 8.0 mph12.9 kmh 30.52 in1033.5 mb 0.01 in0.3 mm 0.00 in0.0 mm 0.01 in0.3 mm
06:52 AM 46.9°F8.3°C 41.4°F5.2°C 81% 4.0 mph NNW6.4 kmh NNW 8.0 mph12.9 kmh 30.52 in1033.5 mb 0.01 in0.3 mm 0.00 in0.0 mm 0.01 in0.3 mm
06:53 AM 46.7°F8.2°C 41.2°F5.1°C 81% 3.0 mph ENE4.8 kmh ENE 8.0 mph12.9 kmh 30.52 in1033.5 mb 0.01 in0.3 mm 0.00 in0.0 mm 0.01 in0.3 mm
06:55 AM 46.7°F8.2°C 41.8°F5.4°C 83% 2.0 mph NNE3.2 kmh NNE 7.0 mph11.3 kmh 30.52 in1033.5 mb 0.02 in0.5 mm 0.30 in7.6 mm 0.02 in0.5 mm
06:56 AM 46.4°F8.0°C 41.5°F5.3°C 83% 5.0 mph 8.0 kmh 7.0 mph11.3 kmh 30.52 in1033.5 mb 0.03 in0.8 mm 0.60 in15.2 mm 0.03 in0.8 mm
06:57 AM 46.1°F7.8°C 41.2°F5.1°C 83% 3.0 mph NNE4.8 kmh NNE 7.0 mph11.3 kmh 30.52 in1033.5 mb 0.03 in0.8 mm 0.00 in0.0 mm 0.03 in0.8 mm
06:58 AM 45.9°F7.7°C 41.6°F5.3°C 85% 5.0 mph NNE8.0 kmh NNE 7.0 mph11.3 kmh 30.52 in1033.5 mb 0.04 in1.0 mm 0.60 in15.2 mm 0.04 in1.0 mm
07:00 AM 45.9°F7.7°C 41.9°F5.5°C 86% 4.0 mph NNE6.4 kmh NNE 7.0 mph11.3 kmh 30.52 in1033.5 mb 0.04 in1.0 mm 0.00 in0.0 mm 0.04 in1.0 mm
07:01 AM 45.7°F7.6°C 41.7°F5.4°C 86% 4.0 mph NNW6.4 kmh NNW 7.0 mph11.3 kmh 30.52 in1033.5 mb 0.05 in1.3 mm 0.60 in15.2 mm 0.05 in1.3 mm
07:02 AM 45.5°F7.5°C 41.5°F5.3°C 86% 2.0 mph NW3.2 kmh NW 7.0 mph11.3 kmh 30.52 in1033.5 mb 0.05 in1.3 mm 0.00 in0.0 mm 0.05 in1.3 mm
07:03 AM 45.5°F7.5°C 42.1°F5.6°C 88% 2.0 mph 3.2 kmh 7.0 mph11.3 kmh 30.51 in1033.2 mb 0.05 in1.3 mm 0.00 in0.0 mm 0.05 in1.3 mm
07:05 AM 45.2°F7.3°C 41.8°F5.4°C 88% 3.0 mph NNE4.8 kmh NNE 7.0 mph11.3 kmh 30.52 in1033.5 mb 0.05 in1.3 mm 0.00 in0.0 mm 0.05 in1.3 mm
07:06 AM 45.0°F7.2°C 41.6°F5.3°C 88% 3.0 mph NNE4.8 kmh NNE 6.0 mph9.7 kmh 30.52 in1033.5 mb 0.06 in1.5 mm 0.60 in15.2 mm 0.06 in1.5 mm
07:07 AM 45.0°F7.2°C 41.6°F5.3°C 88% 3.0 mph NNE4.8 kmh NNE 6.0 mph9.7 kmh 30.52 in1033.5 mb 0.06 in1.5 mm 0.00 in0.0 mm 0.06 in1.5 mm
07:08 AM 44.8°F7.1°C 41.4°F5.2°C 88% 3.0 mph 4.8 kmh 4.0 mph6.4 kmh 30.52 in1033.5 mb 0.00 in0.0 mm 0.00 in0.0 mm 0.06 in1.5 mm
07:10 AM 44.8°F7.1°C 41.4°F5.2°C 88% 3.0 mph 4.8 kmh 4.0 mph6.4 kmh 30.52 in1033.5 mb 0.00 in0.0 mm 0.00 in0.0 mm 0.06 in1.5 mm
07:11 AM 44.6°F7.0°C 41.8°F5.4°C 90% 2.0 mph NNE3.2 kmh NNE 3.0 mph4.8 kmh 30.53 in1033.9 mb 0.01 in0.3 mm 0.60 in15.2 mm 0.07 in1.8 mm
07:12 AM 44.6°F7.0°C 41.8°F5.4°C 90% 5.0 mph NNE8.0 kmh NNE 5.0 mph8.0 kmh 30.52 in1033.5 mb 0.01 in0.3 mm 0.00 in0.0 mm 0.07 in1.8 mm
07:13 AM 44.4°F6.9°C 41.6°F5.3°C 90% 5.0 mph NE8.0 kmh NE 5.0 mph8.0 kmh 30.54 in1034.2 mb 0.01 in0.3 mm 0.00 in0.0 mm 0.07 in1.8 mm
07:15 AM 44.2°F6.8°C 41.4°F5.2°C 90% 6.0 mph 9.7 kmh 6.0 mph9.7 kmh 30.55 in1034.5 mb 0.01 in0.3 mm 0.00 in0.0 mm 0.07 in1.8 mm
07:16 AM 44.2°F6.8°C 41.4°F5.2°C 90% 1.0 mph NNE1.6 kmh NNE 6.0 mph9.7 kmh 30.54 in1034.2 mb 0.01 in0.3 mm 0.00 in0.0 mm 0.07 in1.8 mm
07:17 AM 44.2°F6.8°C 41.4°F5.2°C 90% 1.0 mph WNW1.6 kmh WNW 6.0 mph9.7 kmh 30.54 in1034.2 mb 0.01 in0.3 mm 0.00 in0.0 mm 0.07 in1.8 mm
07:18 AM 44.2°F6.8°C 41.4°F5.2°C 90% 2.0 mph NE3.2 kmh NE 6.0 mph9.7 kmh 30.53 in1033.9 mb 0.01 in0.3 mm 0.00 in0.0 mm 0.07 in1.8 mm
07:20 AM 44.2°F6.8°C 41.4°F5.2°C 90% 3.0 mph NNW4.8 kmh NNW 6.0 mph9.7 kmh 30.54 in1034.2 mb 0.01 in0.3 mm 0.00 in0.0 mm 0.07 in1.8 mm
07:21 AM 44.0°F6.7°C 41.2°F5.1°C 90% 4.0 mph NW6.4 kmh NW 6.0 mph9.7 kmh 30.54 in1034.2 mb 0.01 in0.3 mm 0.00 in0.0 mm 0.07 in1.8 mm
07:22 AM 44.0°F6.7°C 41.2°F5.1°C 90% 2.0 mph NNE3.2 kmh NNE 6.0 mph9.7 kmh 30.54 in1034.2 mb 0.01 in0.3 mm 0.00 in0.0 mm 0.07 in1.8 mm
07:23 AM 43.9°F6.6°C 41.1°F5.1°C 90% 3.0 mph ENE4.8 kmh ENE 6.0 mph9.7 kmh 30.53 in1033.9 mb 0.02 in0.5 mm 0.60 in15.2 mm 0.08 in2.0 mm
07:25 AM 43.9°F6.6°C 41.4°F5.2°C 91% 2.0 mph W3.2 kmh W 6.0 mph9.7 kmh 30.55 in1034.5 mb 0.02 in0.5 mm 0.00 in0.0 mm 0.08 in2.0 mm
07:26 AM 43.6°F6.4°C 41.1°F5.1°C 91% 3.0 mph NW4.8 kmh NW 6.0 mph9.7 kmh 30.55 in1034.5 mb 0.02 in0.5 mm 0.00 in0.0 mm 0.08 in2.0 mm
07:27 AM 43.6°F6.4°C 41.1°F5.1°C 91% 2.0 mph WNW3.2 kmh WNW 6.0 mph9.7 kmh 30.55 in1034.5 mb 0.02 in0.5 mm 0.00 in0.0 mm 0.08 in2.0 mm
07:28 AM 43.6°F6.4°C 41.1°F5.1°C 91% 2.0 mph 3.2 kmh 6.0 mph9.7 kmh 30.55 in1034.5 mb 0.02 in0.5 mm 0.00 in0.0 mm 0.08 in2.0 mm
07:30 AM 43.6°F6.4°C 41.1°F5.1°C 91% 2.0 mph NW3.2 kmh NW 6.0 mph9.7 kmh 30.55 in1034.5 mb 0.03 in0.8 mm 0.30 in7.6 mm 0.09 in2.3 mm
07:31 AM 43.6°F6.4°C 41.1°F5.1°C 91% 1.0 mph ESE1.6 kmh ESE 6.0 mph9.7 kmh 30.55 in1034.5 mb 0.03 in0.8 mm 0.00 in0.0 mm 0.09 in2.3 mm
07:32 AM 43.6°F6.4°C 41.1°F5.1°C 91% Calm Calm 6.0 mph9.7 kmh 30.55 in1034.5 mb 0.03 in0.8 mm 0.00 in0.0 mm 0.09 in2.3 mm
07:33 AM 43.4°F6.3°C 40.9°F4.9°C 91% 2.0 mph NNW3.2 kmh NNW 4.0 mph6.4 kmh 30.55 in1034.5 mb 0.03 in0.8 mm 0.00 in0.0 mm 0.09 in2.3 mm
07:35 AM 43.4°F6.3°C 40.9°F4.9°C 91% 1.0 mph 1.6 kmh 4.0 mph6.4 kmh 30.55 in1034.5 mb 0.03 in0.8 mm 0.00 in0.0 mm 0.09 in2.3 mm
07:36 AM 43.4°F6.3°C 40.9°F4.9°C 91% 1.0 mph WNW1.6 kmh WNW 4.0 mph6.4 kmh 30.55 in1034.5 mb 0.03 in0.8 mm 0.00 in0.0 mm 0.09 in2.3 mm
07:37 AM 43.4°F6.3°C 40.9°F4.9°C 91% Calm Calm 4.0 mph6.4 kmh 30.56 in1034.9 mb 0.03 in0.8 mm 0.00 in0.0 mm 0.09 in2.3 mm
07:38 AM 43.4°F6.3°C 40.9°F4.9°C 91% 1.0 mph W1.6 kmh W 3.0 mph4.8 kmh 30.56 in1034.9 mb 0.03 in0.8 mm 0.00 in0.0 mm 0.09 in2.3 mm
07:40 AM 43.2°F6.2°C 40.7°F4.8°C 91% 1.0 mph NW1.6 kmh NW 3.0 mph4.8 kmh 30.56 in1034.9 mb 0.03 in0.8 mm 0.00 in0.0 mm 0.09 in2.3 mm
07:41 AM 43.2°F6.2°C 40.7°F4.8°C 91% 1.0 mph NNE1.6 kmh NNE 3.0 mph4.8 kmh 30.56 in1034.9 mb 0.03 in0.8 mm 0.00 in0.0 mm 0.09 in2.3 mm
07:42 AM 43.2°F6.2°C 40.7°F4.8°C 91% 1.0 mph NE1.6 kmh NE 3.0 mph4.8 kmh 30.56 in1034.9 mb 0.03 in0.8 mm 0.00 in0.0 mm 0.09 in2.3 mm
07:43 AM 43.0°F6.1°C 40.5°F4.7°C 91% 2.0 mph NE3.2 kmh NE 3.0 mph4.8 kmh 30.55 in1034.5 mb 0.03 in0.8 mm 0.00 in0.0 mm 0.09 in2.3 mm
07:45 AM 43.0°F6.1°C 40.5°F4.7°C 91% 1.0 mph NNE1.6 kmh NNE 2.0 mph3.2 kmh 30.55 in1034.5 mb 0.03 in0.8 mm 0.00 in0.0 mm 0.09 in2.3 mm
07:46 AM 42.7°F5.9°C 39.9°F4.4°C 90% 1.0 mph 1.6 kmh 2.0 mph3.2 kmh 30.55 in1034.5 mb 0.04 in1.0 mm 0.60 in15.2 mm 0.10 in2.5 mm
07:47 AM 42.7°F5.9°C 39.9°F4.4°C 90% Calm Calm 2.0 mph3.2 kmh 30.55 in1034.5 mb 0.04 in1.0 mm 0.00 in0.0 mm 0.10 in2.5 mm
07:48 AM 42.7°F5.9°C 39.9°F4.4°C 90% Calm Calm 2.0 mph3.2 kmh 30.55 in1034.5 mb 0.04 in1.0 mm 0.00 in0.0 mm 0.10 in2.5 mm
07:50 AM 42.7°F5.9°C 39.9°F4.4°C 90% 2.0 mph WNW3.2 kmh WNW 2.0 mph3.2 kmh 30.55 in1034.5 mb 0.04 in1.0 mm 0.00 in0.0 mm 0.10 in2.5 mm
07:51 AM 42.7°F5.9°C 39.9°F4.4°C 90% 1.0 mph NNE1.6 kmh NNE 2.0 mph3.2 kmh 30.55 in1034.5 mb 0.04 in1.0 mm 0.00 in0.0 mm 0.10 in2.5 mm
07:52 AM 42.7°F5.9°C 39.4°F4.1°C 88% 1.0 mph NNW1.6 kmh NNW 2.0 mph3.2 kmh 30.55 in1034.5 mb 0.04 in1.0 mm 0.00 in0.0 mm 0.10 in2.5 mm
07:53 AM 42.7°F5.9°C 39.4°F4.1°C 88% 2.0 mph S3.2 kmh S 2.0 mph3.2 kmh 30.55 in1034.5 mb 0.04 in1.0 mm 0.00 in0.0 mm 0.10 in2.5 mm
07:55 AM 43.0°F6.1°C 39.7°F4.3°C 88% 1.0 mph S1.6 kmh S 2.0 mph3.2 kmh 30.55 in1034.5 mb 0.04 in1.0 mm 0.00 in0.0 mm 0.10 in2.5 mm
07:56 AM 43.0°F6.1°C 39.7°F4.3°C 88% Calm Calm 2.0 mph3.2 kmh 30.55 in1034.5 mb 0.04 in1.0 mm 0.00 in0.0 mm 0.10 in2.5 mm
07:57 AM 43.0°F6.1°C 39.7°F4.3°C 88% Calm Calm 2.0 mph3.2 kmh 30.56 in1034.9 mb 0.04 in1.0 mm 0.00 in0.0 mm 0.10 in2.5 mm
07:58 AM 42.7°F5.9°C 39.4°F4.1°C 88% Calm Calm 2.0 mph3.2 kmh 30.56 in1034.9 mb 0.04 in1.0 mm 0.00 in0.0 mm 0.10 in2.5 mm
08:00 AM 42.7°F5.9°C 39.9°F4.4°C 90% Calm Calm 2.0 mph3.2 kmh 30.55 in1034.5 mb 0.04 in1.0 mm 0.00 in0.0 mm 0.10 in2.5 mm
08:01 AM 42.7°F5.9°C 39.9°F4.4°C 90% Calm Calm 2.0 mph3.2 kmh 30.56 in1034.9 mb 0.04 in1.0 mm 0.00 in0.0 mm 0.10 in2.5 mm
08:02 AM 42.7°F5.9°C 39.9°F4.4°C 90% Calm Calm 2.0 mph3.2 kmh 30.56 in1034.9 mb 0.04 in1.0 mm 0.00 in0.0 mm 0.10 in2.5 mm
08:03 AM 42.7°F5.9°C 39.9°F4.4°C 90% Calm Calm 2.0 mph3.2 kmh 30.56 in1034.9 mb 0.04 in1.0 mm 0.00 in0.0 mm 0.10 in2.5 mm
08:05 AM 42.5°F5.8°C 40.0°F4.4°C 91% Calm Calm 1.0 mph1.6 kmh 30.56 in1034.9 mb 0.04 in1.0 mm 0.00 in0.0 mm 0.10 in2.5 mm
08:06 AM 42.5°F5.8°C 40.0°F4.4°C 91% Calm Calm 1.0 mph1.6 kmh 30.56 in1034.9 mb 0.04 in1.0 mm 0.00 in0.0 mm 0.10 in2.5 mm
08:07 AM 42.5°F5.8°C 40.0°F4.4°C 91% 1.0 mph 1.6 kmh 2.0 mph3.2 kmh 30.56 in1034.9 mb 0.00 in0.0 mm 0.00 in0.0 mm 0.10 in2.5 mm
08:08 AM 42.4°F5.8°C 40.5°F4.7°C 93% 1.0 mph NNW1.6 kmh NNW 2.0 mph3.2 kmh 30.56 in1034.9 mb 0.00 in0.0 mm 0.00 in0.0 mm 0.10 in2.5 mm
08:10 AM 42.4°F5.8°C 40.5°F4.7°C 93% 1.0 mph 1.6 kmh 2.0 mph3.2 kmh 30.56 in1034.9 mb 0.00 in0.0 mm 0.00 in0.0 mm 0.10 in2.5 mm
08:11 AM 42.4°F5.8°C 40.5°F4.7°C 93% 2.0 mph NNE3.2 kmh NNE 2.0 mph3.2 kmh 30.56 in1034.9 mb 0.00 in0.0 mm 0.00 in0.0 mm 0.10 in2.5 mm
08:12 AM 42.4°F5.8°C 40.5°F4.7°C 93% 1.0 mph NE1.6 kmh NE 2.0 mph3.2 kmh 30.56 in1034.9 mb 0.00 in0.0 mm 0.00 in0.0 mm 0.10 in2.5 mm
08:13 AM 42.4°F5.8°C 40.5°F4.7°C 93% 1.0 mph NNE1.6 kmh NNE 2.0 mph3.2 kmh 30.56 in1034.9 mb 0.00 in0.0 mm 0.00 in0.0 mm 0.10 in2.5 mm
08:15 AM 42.4°F5.8°C 40.5°F4.7°C 93% 2.0 mph NNE3.2 kmh NNE 2.0 mph3.2 kmh 30.56 in1034.9 mb 0.00 in0.0 mm 0.00 in0.0 mm 0.10 in2.5 mm
08:16 AM 42.4°F5.8°C 40.5°F4.7°C 93% 2.0 mph NW3.2 kmh NW 2.0 mph3.2 kmh 30.56 in1034.9 mb 0.01 in0.3 mm 0.60 in15.2 mm 0.11 in2.8 mm
08:17 AM 42.3°F5.7°C 40.4°F4.7°C 93% Calm Calm 2.0 mph3.2 kmh 30.56 in1034.9 mb 0.01 in0.3 mm 0.00 in0.0 mm 0.11 in2.8 mm
08:18 AM 42.3°F5.7°C 40.4°F4.7°C 93% 1.0 mph 1.6 kmh 2.0 mph3.2 kmh 30.56 in1034.9 mb 0.01 in0.3 mm 0.00 in0.0 mm 0.11 in2.8 mm
08:20 AM 42.3°F5.7°C 40.4°F4.7°C 93% Calm Calm 2.0 mph3.2 kmh 30.57 in1035.2 mb 0.01 in0.3 mm 0.00 in0.0 mm 0.11 in2.8 mm
08:21 AM 42.4°F5.8°C 40.5°F4.7°C 93% 1.0 mph 1.6 kmh 2.0 mph3.2 kmh 30.56 in1034.9 mb 0.01 in0.3 mm 0.00 in0.0 mm 0.11 in2.8 mm
08:22 AM 42.4°F5.8°C 41.0°F5.0°C 95% 2.0 mph NNE3.2 kmh NNE 2.0 mph3.2 kmh 30.56 in1034.9 mb 0.01 in0.3 mm 0.00 in0.0 mm 0.11 in2.8 mm
08:23 AM 42.4°F5.8°C 41.0°F5.0°C 95% 1.0 mph NNE1.6 kmh NNE 2.0 mph3.2 kmh 30.56 in1034.9 mb 0.01 in0.3 mm 0.00 in0.0 mm 0.11 in2.8 mm
08:25 AM 42.4°F5.8°C 41.0°F5.0°C 95% 2.0 mph NNE3.2 kmh NNE 2.0 mph3.2 kmh 30.56 in1034.9 mb 0.01 in0.3 mm 0.00 in0.0 mm 0.11 in2.8 mm
08:26 AM 42.3°F5.7°C 40.9°F4.9°C 95% 1.0 mph NNE1.6 kmh NNE 2.0 mph3.2 kmh 30.56 in1034.9 mb 0.01 in0.3 mm 0.00 in0.0 mm 0.11 in2.8 mm
08:27 AM 42.3°F5.7°C 40.9°F4.9°C 95% 2.0 mph 3.2 kmh 2.0 mph3.2 kmh 30.56 in1034.9 mb 0.01 in0.3 mm 0.00 in0.0 mm 0.11 in2.8 mm
08:28 AM 42.3°F5.7°C 40.9°F4.9°C 95% 2.0 mph 3.2 kmh 2.0 mph3.2 kmh 30.56 in1034.9 mb 0.01 in0.3 mm 0.00 in0.0 mm 0.11 in2.8 mm
08:30 AM 42.3°F5.7°C 40.9°F4.9°C 95% 1.0 mph NNW1.6 kmh NNW 2.0 mph3.2 kmh 30.55 in1034.5 mb 0.01 in0.3 mm 0.00 in0.0 mm 0.11 in2.8 mm
08:31 AM 42.3°F5.7°C 40.9°F4.9°C 95% 2.0 mph NNW3.2 kmh NNW 3.0 mph4.8 kmh 30.55 in1034.5 mb 0.01 in0.3 mm 0.00 in0.0 mm 0.11 in2.8 mm
08:32 AM 42.3°F5.7°C 40.9°F4.9°C 95% 1.0 mph NNW1.6 kmh NNW 3.0 mph4.8 kmh 30.55 in1034.5 mb 0.01 in0.3 mm 0.00 in0.0 mm 0.11 in2.8 mm
08:33 AM 42.3°F5.7°C 40.9°F4.9°C 95% 2.0 mph NNW3.2 kmh NNW 3.0 mph4.8 kmh 30.56 in1034.9 mb 0.01 in0.3 mm 0.00 in0.0 mm 0.11 in2.8 mm
08:35 AM 42.3°F5.7°C 40.9°F4.9°C 95% 1.0 mph NNE1.6 kmh NNE 3.0 mph4.8 kmh 30.56 in1034.9 mb 0.01 in0.3 mm 0.00 in0.0 mm 0.11 in2.8 mm
08:36 AM 42.3°F5.7°C 40.9°F4.9°C 95% 2.0 mph NNE3.2 kmh NNE 3.0 mph4.8 kmh 30.56 in1034.9 mb 0.01 in0.3 mm 0.00 in0.0 mm 0.11 in2.8 mm
08:37 AM 42.3°F5.7°C 40.9°F4.9°C 95% 2.0 mph NNE3.2 kmh NNE 3.0 mph4.8 kmh 30.56 in1034.9 mb 0.01 in0.3 mm 0.00 in0.0 mm 0.11 in2.8 mm
08:38 AM 42.3°F5.7°C 40.9°F4.9°C 95% Calm Calm 3.0 mph4.8 kmh 30.56 in1034.9 mb 0.01 in0.3 mm 0.00 in0.0 mm 0.11 in2.8 mm
08:40 AM 42.4°F5.8°C 41.0°F5.0°C 95% 1.0 mph E1.6 kmh E 3.0 mph4.8 kmh 30.56 in1034.9 mb 0.01 in0.3 mm 0.00 in0.0 mm 0.11 in2.8 mm
08:41 AM 42.4°F5.8°C 41.0°F5.0°C 95% 2.0 mph WNW3.2 kmh WNW 3.0 mph4.8 kmh 30.56 in1034.9 mb 0.01 in0.3 mm 0.00 in0.0 mm 0.11 in2.8 mm
08:42 AM 42.4°F5.8°C 41.0°F5.0°C 95% 2.0 mph 3.2 kmh 3.0 mph4.8 kmh 30.56 in1034.9 mb 0.01 in0.3 mm 0.00 in0.0 mm 0.11 in2.8 mm
08:43 AM 42.4°F5.8°C 41.0°F5.0°C 95% 2.0 mph NNW3.2 kmh NNW 3.0 mph4.8 kmh 30.56 in1034.9 mb 0.01 in0.3 mm 0.00 in0.0 mm 0.11 in2.8 mm
08:45 AM 42.4°F5.8°C 41.0°F5.0°C 95% Calm Calm 3.0 mph4.8 kmh 30.56 in1034.9 mb 0.01 in0.3 mm 0.00 in0.0 mm 0.11 in2.8 mm
08:46 AM 42.5°F5.8°C 41.1°F5.1°C 95% Calm Calm 2.0 mph3.2 kmh 30.56 in1034.9 mb 0.01 in0.3 mm 0.00 in0.0 mm 0.11 in2.8 mm
08:47 AM 42.5°F5.8°C 41.1°F5.1°C 95% Calm Calm 2.0 mph3.2 kmh 30.56 in1034.9 mb 0.01 in0.3 mm 0.00 in0.0 mm 0.11 in2.8 mm
08:48 AM 42.5°F5.8°C 41.1°F5.1°C 95% Calm Calm 2.0 mph3.2 kmh 30.56 in1034.9 mb 0.01 in0.3 mm 0.00 in0.0 mm 0.11 in2.8 mm
08:50 AM 42.5°F5.8°C 41.1°F5.1°C 95% 1.0 mph 1.6 kmh 2.0 mph3.2 kmh 30.56 in1034.9 mb 0.01 in0.3 mm 0.00 in0.0 mm 0.11 in2.8 mm
08:51 AM 42.5°F5.8°C 41.1°F5.1°C 95% Calm Calm 2.0 mph3.2 kmh 30.56 in1034.9 mb 0.01 in0.3 mm 0.00 in0.0 mm 0.11 in2.8 mm
08:52 AM 42.5°F5.8°C 41.1°F5.1°C 95% Calm Calm 2.0 mph3.2 kmh 30.56 in1034.9 mb 0.01 in0.3 mm 0.00 in0.0 mm 0.11 in2.8 mm
08:53 AM 42.5°F5.8°C 41.1°F5.1°C 95% Calm Calm 1.0 mph1.6 kmh 30.56 in1034.9 mb 0.01 in0.3 mm 0.00 in0.0 mm 0.11 in2.8 mm
08:55 AM 42.5°F5.8°C 41.1°F5.1°C 95% 2.0 mph 3.2 kmh 2.0 mph3.2 kmh 30.56 in1034.9 mb 0.01 in0.3 mm 0.00 in0.0 mm 0.11 in2.8 mm
08:56 AM 42.5°F5.8°C 41.1°F5.1°C 95% Calm Calm 2.0 mph3.2 kmh 30.56 in1034.9 mb 0.01 in0.3 mm 0.00 in0.0 mm 0.11 in2.8 mm
08:57 AM 42.5°F5.8°C 41.1°F5.1°C 95% Calm Calm 2.0 mph3.2 kmh 30.57 in1035.2 mb 0.01 in0.3 mm 0.00 in0.0 mm 0.11 in2.8 mm
08:58 AM 42.7°F5.9°C 41.3°F5.2°C 95% Calm Calm 2.0 mph3.2 kmh 30.57 in1035.2 mb 0.01 in0.3 mm 0.00 in0.0 mm 0.11 in2.8 mm
09:00 AM 42.7°F5.9°C 41.3°F5.2°C 95% Calm Calm 2.0 mph3.2 kmh 30.56 in1034.9 mb 0.01 in0.3 mm 0.00 in0.0 mm 0.11 in2.8 mm
09:01 AM 42.7°F5.9°C 41.3°F5.2°C 95% 1.0 mph NNW1.6 kmh NNW 2.0 mph3.2 kmh 30.56 in1034.9 mb 0.01 in0.3 mm 0.00 in0.0 mm 0.11 in2.8 mm
09:02 AM 42.7°F5.9°C 41.3°F5.2°C 95% Calm Calm 2.0 mph3.2 kmh 30.56 in1034.9 mb 0.01 in0.3 mm 0.00 in0.0 mm 0.11 in2.8 mm
09:03 AM 42.7°F5.9°C 41.3°F5.2°C 95% Calm Calm 2.0 mph3.2 kmh 30.56 in1034.9 mb 0.01 in0.3 mm 0.00 in0.0 mm 0.11 in2.8 mm
09:05 AM 42.7°F5.9°C 41.3°F5.2°C 95% 2.0 mph 3.2 kmh 2.0 mph3.2 kmh 30.56 in1034.9 mb 0.01 in0.3 mm 0.00 in0.0 mm 0.11 in2.8 mm
09:06 AM 42.7°F5.9°C 41.3°F5.2°C 95% Calm Calm 2.0 mph3.2 kmh 30.56 in1034.9 mb 0.01 in0.3 mm 0.00 in0.0 mm 0.11 in2.8 mm
09:07 AM 42.7°F5.9°C 41.3°F5.2°C 95% 1.0 mph NNW1.6 kmh NNW 2.0 mph3.2 kmh 30.56 in1034.9 mb 0.00 in0.0 mm 0.00 in0.0 mm 0.11 in2.8 mm
09:08 AM 43.0°F6.1°C 41.6°F5.3°C 95% 1.0 mph NW1.6 kmh NW 2.0 mph3.2 kmh 30.56 in1034.9 mb 0.00 in0.0 mm 0.00 in0.0 mm 0.11 in2.8 mm
09:10 AM 43.0°F6.1°C 41.6°F5.3°C 95% 1.0 mph 1.6 kmh 2.0 mph3.2 kmh 30.56 in1034.9 mb 0.00 in0.0 mm 0.00 in0.0 mm 0.11 in2.8 mm
09:11 AM 43.0°F6.1°C 41.6°F5.3°C 95% 3.0 mph W4.8 kmh W 3.0 mph4.8 kmh 30.57 in1035.2 mb 0.00 in0.0 mm 0.00 in0.0 mm 0.11 in2.8 mm
09:12 AM 43.0°F6.1°C 41.6°F5.3°C 95% Calm Calm 3.0 mph4.8 kmh 30.57 in1035.2 mb 0.00 in0.0 mm 0.00 in0.0 mm 0.11 in2.8 mm
09:13 AM 43.0°F6.1°C 41.6°F5.3°C 95% Calm Calm 3.0 mph4.8 kmh 30.57 in1035.2 mb 0.00 in0.0 mm 0.00 in0.0 mm 0.11 in2.8 mm
09:15 AM 43.0°F6.1°C 41.6°F5.3°C 95% Calm Calm 3.0 mph4.8 kmh 30.57 in1035.2 mb 0.00 in0.0 mm 0.00 in0.0 mm 0.11 in2.8 mm
09:16 AM 43.2°F6.2°C 41.8°F5.4°C 95% Calm Calm 3.0 mph4.8 kmh 30.57 in1035.2 mb 0.00 in0.0 mm 0.00 in0.0 mm 0.11 in2.8 mm
09:17 AM 43.2°F6.2°C 41.8°F5.4°C 95% 1.0 mph WNW1.6 kmh WNW 3.0 mph4.8 kmh 30.57 in1035.2 mb 0.00 in0.0 mm 0.00 in0.0 mm 0.11 in2.8 mm
09:18 AM 43.2°F6.2°C 41.8°F5.4°C 95% 2.0 mph NNW3.2 kmh NNW 3.0 mph4.8 kmh 30.57 in1035.2 mb 0.00 in0.0 mm 0.00 in0.0 mm 0.11 in2.8 mm
09:20 AM 43.2°F6.2°C 41.3°F5.2°C 93% 2.0 mph 3.2 kmh 3.0 mph4.8 kmh 30.57 in1035.2 mb 0.00 in0.0 mm 0.00 in0.0 mm 0.11 in2.8 mm
09:21 AM 43.2°F6.2°C 41.3°F5.2°C 93% 2.0 mph 3.2 kmh 3.0 mph4.8 kmh 30.58 in1035.6 mb 0.00 in0.0 mm 0.00 in0.0 mm 0.11 in2.8 mm
09:22 AM 43.2°F6.2°C 41.3°F5.2°C 93% 1.0 mph NNW1.6 kmh NNW 2.0 mph3.2 kmh 30.58 in1035.6 mb 0.00 in0.0 mm 0.00 in0.0 mm 0.11 in2.8 mm
09:23 AM 43.2°F6.2°C 41.3°F5.2°C 93% Calm Calm 2.0 mph3.2 kmh 30.58 in1035.6 mb 0.00 in0.0 mm 0.00 in0.0 mm 0.11 in2.8 mm
09:25 AM 43.2°F6.2°C 41.3°F5.2°C 93% Calm Calm 2.0 mph3.2 kmh 30.58 in1035.6 mb 0.00 in0.0 mm 0.00 in0.0 mm 0.11 in2.8 mm
09:26 AM 43.2°F6.2°C 41.3°F5.2°C 93% Calm Calm 2.0 mph3.2 kmh 30.57 in1035.2 mb 0.00 in0.0 mm 0.00 in0.0 mm 0.11 in2.8 mm
09:27 AM 43.2°F6.2°C 41.3°F5.2°C 93% Calm Calm 2.0 mph3.2 kmh 30.58 in1035.6 mb 0.00 in0.0 mm 0.00 in0.0 mm 0.11 in2.8 mm
09:28 AM 43.2°F6.2°C 41.3°F5.2°C 93% 2.0 mph W3.2 kmh W 2.0 mph3.2 kmh 30.58 in1035.6 mb 0.00 in0.0 mm 0.00 in0.0 mm 0.11 in2.8 mm
09:30 AM 43.2°F6.2°C 41.3°F5.2°C 93% Calm Calm 2.0 mph3.2 kmh 30.58 in1035.6 mb 0.00 in0.0 mm 0.00 in0.0 mm 0.11 in2.8 mm
09:31 AM 43.2°F6.2°C 40.7°F4.8°C 91% 3.0 mph NNE4.8 kmh NNE 3.0 mph4.8 kmh 30.58 in1035.6 mb 0.00 in0.0 mm 0.00 in0.0 mm 0.11 in2.8 mm
09:32 AM 43.2°F6.2°C 40.7°F4.8°C 91% 3.0 mph NE4.8 kmh NE 3.0 mph4.8 kmh 30.58 in1035.6 mb 0.00 in0.0 mm 0.00 in0.0 mm 0.11 in2.8 mm
09:33 AM 43.2°F6.2°C 39.9°F4.4°C 88% 3.0 mph NNE4.8 kmh NNE 3.0 mph4.8 kmh 30.58 in1035.6 mb 0.00 in0.0 mm 0.00 in0.0 mm 0.11 in2.8 mm
09:35 AM 43.2°F6.2°C 39.9°F4.4°C 88% 1.0 mph NNW1.6 kmh NNW 3.0 mph4.8 kmh 30.57 in1035.2 mb 0.00 in0.0 mm 0.00 in0.0 mm 0.11 in2.8 mm
09:36 AM 43.2°F6.2°C 39.9°F4.4°C 88% 1.0 mph NNW1.6 kmh NNW 3.0 mph4.8 kmh 30.57 in1035.2 mb 0.00 in0.0 mm 0.00 in0.0 mm 0.11 in2.8 mm
09:37 AM 43.2°F6.2°C 39.3°F4.1°C 86% 4.0 mph E6.4 kmh E 5.0 mph8.0 kmh 30.57 in1035.2 mb 0.00 in0.0 mm 0.00 in0.0 mm 0.11 in2.8 mm
09:38 AM 43.2°F6.2°C 39.0°F3.9°C 85% 2.0 mph NNE3.2 kmh NNE 5.0 mph8.0 kmh 30.57 in1035.2 mb 0.00 in0.0 mm 0.00 in0.0 mm 0.11 in2.8 mm
09:40 AM 43.4°F6.3°C 38.6°F3.7°C 83% 3.0 mph NNE4.8 kmh NNE 5.0 mph8.0 kmh 30.56 in1034.9 mb 0.00 in0.0 mm 0.00 in0.0 mm 0.11 in2.8 mm
09:41 AM 43.6°F6.4°C 38.8°F3.8°C 83% 3.0 mph ENE4.8 kmh ENE 5.0 mph8.0 kmh 30.56 in1034.9 mb 0.00 in0.0 mm 0.00 in0.0 mm 0.11 in2.8 mm
09:42 AM 43.6°F6.4°C 38.2°F3.4°C 81% 2.0 mph NE3.2 kmh NE 5.0 mph8.0 kmh 30.56 in1034.9 mb 0.00 in0.0 mm 0.00 in0.0 mm 0.11 in2.8 mm
09:43 AM 43.9°F6.6°C 38.2°F3.4°C 80% 4.0 mph NW6.4 kmh NW 5.0 mph8.0 kmh 30.56 in1034.9 mb 0.00 in0.0 mm 0.00 in0.0 mm 0.11 in2.8 mm
09:45 AM 44.0°F6.7°C 37.6°F3.1°C 78% 4.0 mph NW6.4 kmh NW 5.0 mph8.0 kmh 30.57 in1035.2 mb 0.00 in0.0 mm 0.00 in0.0 mm 0.11 in2.8 mm
09:46 AM 44.0°F6.7°C 37.6°F3.1°C 78% 3.0 mph E4.8 kmh E 5.0 mph8.0 kmh 30.57 in1035.2 mb 0.00 in0.0 mm 0.00 in0.0 mm 0.11 in2.8 mm
09:47 AM 44.0°F6.7°C 37.6°F3.1°C 78% 1.0 mph WNW1.6 kmh WNW 4.0 mph6.4 kmh 30.57 in1035.2 mb 0.00 in0.0 mm 0.00 in0.0 mm 0.11 in2.8 mm
09:48 AM 44.2°F6.8°C 37.8°F3.2°C 78% 2.0 mph ENE3.2 kmh ENE 4.0 mph6.4 kmh 30.57 in1035.2 mb 0.00 in0.0 mm 0.00 in0.0 mm 0.11 in2.8 mm
09:50 AM 44.2°F6.8°C 37.8°F3.2°C 78% 2.0 mph ESE3.2 kmh ESE 4.0 mph6.4 kmh 30.57 in1035.2 mb 0.00 in0.0 mm 0.00 in0.0 mm 0.11 in2.8 mm
09:51 AM 44.2°F6.8°C 37.8°F3.2°C 78% 2.0 mph ESE3.2 kmh ESE 4.0 mph6.4 kmh 30.57 in1035.2 mb 0.00 in0.0 mm 0.00 in0.0 mm 0.11 in2.8 mm
09:52 AM 44.2°F6.8°C 37.2°F2.9°C 76% 2.0 mph NNE3.2 kmh NNE 4.0 mph6.4 kmh 30.57 in1035.2 mb 0.00 in0.0 mm 0.00 in0.0 mm 0.11 in2.8 mm
09:53 AM 44.2°F6.8°C 37.2°F2.9°C 76% 1.0 mph W1.6 kmh W 4.0 mph6.4 kmh 30.58 in1035.6 mb 0.00 in0.0 mm 0.00 in0.0 mm 0.11 in2.8 mm
09:55 AM 44.2°F6.8°C 37.2°F2.9°C 76% 1.0 mph W1.6 kmh W 4.0 mph6.4 kmh 30.58 in1035.6 mb 0.00 in0.0 mm 0.00 in0.0 mm 0.11 in2.8 mm
09:56 AM 44.2°F6.8°C 37.2°F2.9°C 76% 1.0 mph W1.6 kmh W 4.0 mph6.4 kmh 30.58 in1035.6 mb 0.00 in0.0 mm 0.00 in0.0 mm 0.11 in2.8 mm
09:57 AM 44.6°F7.0°C 37.6°F3.1°C 76% 2.0 mph NNE3.2 kmh NNE 3.0 mph4.8 kmh 30.58 in1035.6 mb 0.00 in0.0 mm 0.00 in0.0 mm 0.11 in2.8 mm
09:58 AM 44.6°F7.0°C 37.2°F2.9°C 75% 3.0 mph WNW4.8 kmh WNW 4.0 mph6.4 kmh 30.58 in1035.6 mb 0.00 in0.0 mm 0.00 in0.0 mm 0.11 in2.8 mm
10:00 AM 44.6°F7.0°C 37.2°F2.9°C 75% 3.0 mph WNW4.8 kmh WNW 4.0 mph6.4 kmh 30.58 in1035.6 mb 0.00 in0.0 mm 0.00 in0.0 mm 0.11 in2.8 mm
10:01 AM 44.6°F7.0°C 37.2°F2.9°C 75% 3.0 mph WNW4.8 kmh WNW 4.0 mph6.4 kmh 30.58 in1035.6 mb 0.00 in0.0 mm 0.00 in0.0 mm 0.11 in2.8 mm
10:02 AM 44.6°F7.0°C 37.2°F2.9°C 75% 3.0 mph WNW4.8 kmh WNW 4.0 mph6.4 kmh 30.58 in1035.6 mb 0.00 in0.0 mm 0.00 in0.0 mm 0.11 in2.8 mm
10:03 AM 44.6°F7.0°C 36.9°F2.7°C 74% 2.0 mph NE3.2 kmh NE 4.0 mph6.4 kmh 30.58 in1035.6 mb 0.00 in0.0 mm 0.00 in0.0 mm 0.11 in2.8 mm
10:05 AM 44.6°F7.0°C 36.9°F2.7°C 74% 2.0 mph NNW3.2 kmh NNW 4.0 mph6.4 kmh 30.58 in1035.6 mb 0.00 in0.0 mm 0.00 in0.0 mm 0.11 in2.8 mm
10:06 AM 44.4°F6.9°C 36.4°F2.4°C 73% 2.0 mph NNE3.2 kmh NNE 4.0 mph6.4 kmh 30.58 in1035.6 mb 0.00 in0.0 mm 0.00 in0.0 mm 0.11 in2.8 mm
10:08 AM 44.4°F6.9°C 36.4°F2.4°C 73% 3.0 mph NNW4.8 kmh NNW 4.0 mph6.4 kmh 30.58 in1035.6 mb 0.00 in0.0 mm 0.00 in0.0 mm 0.11 in2.8 mm
10:10 AM 44.4°F6.9°C 36.4°F2.4°C 73% 2.0 mph NNE3.2 kmh NNE 4.0 mph6.4 kmh 30.58 in1035.6 mb 0.00 in0.0 mm 0.00 in0.0 mm 0.11 in2.8 mm
10:11 AM 44.4°F6.9°C 36.4°F2.4°C 73% 3.0 mph NNE4.8 kmh NNE 4.0 mph6.4 kmh 30.58 in1035.6 mb 0.00 in0.0 mm 0.00 in0.0 mm 0.11 in2.8 mm
10:12 AM 44.4°F6.9°C 35.7°F2.1°C 71% 3.0 mph 4.8 kmh 4.0 mph6.4 kmh 30.58 in1035.6 mb 0.00 in0.0 mm 0.00 in0.0 mm 0.11 in2.8 mm
10:13 AM 44.4°F6.9°C 35.7°F2.1°C 71% 4.0 mph NNE6.4 kmh NNE 4.0 mph6.4 kmh 30.58 in1035.6 mb 0.00 in0.0 mm 0.00 in0.0 mm 0.11 in2.8 mm
10:15 AM 44.4°F6.9°C 35.3°F1.8°C 70% 3.0 mph NNE4.8 kmh NNE 4.0 mph6.4 kmh 30.58 in1035.6 mb 0.00 in0.0 mm 0.00 in0.0 mm 0.11 in2.8 mm
10:16 AM 44.6°F7.0°C 35.5°F1.9°C 70% 1.0 mph NNE1.6 kmh NNE 4.0 mph6.4 kmh 30.58 in1035.6 mb 0.00 in0.0 mm 0.00 in0.0 mm 0.11 in2.8 mm
10:17 AM 44.6°F7.0°C 35.5°F1.9°C 70% 1.0 mph 1.6 kmh 4.0 mph6.4 kmh 30.58 in1035.6 mb 0.00 in0.0 mm 0.00 in0.0 mm 0.11 in2.8 mm
10:18 AM 44.6°F7.0°C 35.5°F1.9°C 70% 5.0 mph NNE8.0 kmh NNE 5.0 mph8.0 kmh 30.58 in1035.6 mb 0.00 in0.0 mm 0.00 in0.0 mm 0.11 in2.8 mm
10:20 AM 44.6°F7.0°C 35.5°F1.9°C 70% 6.0 mph NNE9.7 kmh NNE 6.0 mph9.7 kmh 30.58 in1035.6 mb 0.00 in0.0 mm 0.00 in0.0 mm 0.11 in2.8 mm
10:21 AM 44.6°F7.0°C 34.8°F1.6°C 68% 5.0 mph NNE8.0 kmh NNE 6.0 mph9.7 kmh 30.58 in1035.6 mb 0.00 in0.0 mm 0.00 in0.0 mm 0.11 in2.8 mm
10:22 AM 44.6°F7.0°C 34.8°F1.6°C 68% 2.0 mph 3.2 kmh 6.0 mph9.7 kmh 30.58 in1035.6 mb 0.00 in0.0 mm 0.00 in0.0 mm 0.11 in2.8 mm
10:23 AM 44.8°F7.1°C 35.3°F1.8°C 69% 3.0 mph 4.8 kmh 6.0 mph9.7 kmh 30.58 in1035.6 mb 0.00 in0.0 mm 0.00 in0.0 mm 0.11 in2.8 mm
10:25 AM 44.8°F7.1°C 35.3°F1.8°C 69% 4.0 mph WNW6.4 kmh WNW 6.0 mph9.7 kmh 30.58 in1035.6 mb 0.00 in0.0 mm 0.00 in0.0 mm 0.11 in2.8 mm
10:26 AM 44.8°F7.1°C 35.3°F1.8°C 69% 1.0 mph NNE1.6 kmh NNE 6.0 mph9.7 kmh 30.57 in1035.2 mb 0.00 in0.0 mm 0.00 in0.0 mm 0.11 in2.8 mm
10:27 AM 44.8°F7.1°C 35.3°F1.8°C 69% 1.0 mph NE1.6 kmh NE 6.0 mph9.7 kmh 30.57 in1035.2 mb 0.00 in0.0 mm 0.00 in0.0 mm 0.11 in2.8 mm
10:28 AM 45.0°F7.2°C 35.5°F1.9°C 69% 1.0 mph WSW1.6 kmh WSW 6.0 mph9.7 kmh 30.57 in1035.2 mb 0.00 in0.0 mm 0.00 in0.0 mm 0.11 in2.8 mm
10:30 AM 45.0°F7.2°C 35.5°F1.9°C 69% 2.0 mph NNE3.2 kmh NNE 6.0 mph9.7 kmh 30.57 in1035.2 mb 0.00 in0.0 mm 0.00 in0.0 mm 0.11 in2.8 mm
10:31 AM 45.0°F7.2°C 35.2°F1.8°C 68% 2.0 mph NW3.2 kmh NW 4.0 mph6.4 kmh 30.57 in1035.2 mb 0.00 in0.0 mm 0.00 in0.0 mm 0.11 in2.8 mm
10:32 AM 45.0°F7.2°C 35.2°F1.8°C 68% 2.0 mph 3.2 kmh 4.0 mph6.4 kmh 30.57 in1035.2 mb 0.00 in0.0 mm 0.00 in0.0 mm 0.11 in2.8 mm
10:33 AM 45.0°F7.2°C 34.4°F1.3°C 66% 2.0 mph NNE3.2 kmh NNE 5.0 mph8.0 kmh 30.57 in1035.2 mb 0.00 in0.0 mm 0.00 in0.0 mm 0.11 in2.8 mm
10:35 AM 45.0°F7.2°C 34.4°F1.3°C 66% 4.0 mph 6.4 kmh 5.0 mph8.0 kmh 30.57 in1035.2 mb 0.00 in0.0 mm 0.00 in0.0 mm 0.11 in2.8 mm
10:36 AM 45.0°F7.2°C 34.0°F1.1°C 65% 3.0 mph NNW4.8 kmh NNW 5.0 mph8.0 kmh 30.57 in1035.2 mb 0.00 in0.0 mm 0.00 in0.0 mm 0.11 in2.8 mm
10:37 AM 45.0°F7.2°C 34.4°F1.3°C 66% 3.0 mph NNE4.8 kmh NNE 5.0 mph8.0 kmh 30.58 in1035.6 mb 0.00 in0.0 mm 0.00 in0.0 mm 0.11 in2.8 mm
10:38 AM 44.8°F7.1°C 33.8°F1.0°C 65% 4.0 mph NNE6.4 kmh NNE 5.0 mph8.0 kmh 30.58 in1035.6 mb 0.00 in0.0 mm 0.00 in0.0 mm 0.11 in2.8 mm
10:40 AM 44.8°F7.1°C 33.8°F1.0°C 65% 6.0 mph NNE9.7 kmh NNE 6.0 mph9.7 kmh 30.58 in1035.6 mb 0.00 in0.0 mm 0.00 in0.0 mm 0.11 in2.8 mm
10:41 AM 44.8°F7.1°C 33.8°F1.0°C 65% 2.0 mph 3.2 kmh 6.0 mph9.7 kmh 30.58 in1035.6 mb 0.00 in0.0 mm 0.00 in0.0 mm 0.11 in2.8 mm
10:42 AM 44.8°F7.1°C 33.8°F1.0°C 65% Calm Calm 6.0 mph9.7 kmh 30.58 in1035.6 mb 0.00 in0.0 mm 0.00 in0.0 mm 0.11 in2.8 mm
10:43 AM 44.8°F7.1°C 34.2°F1.2°C 66% 3.0 mph NW4.8 kmh NW 6.0 mph9.7 kmh 30.59 in1035.9 mb 0.00 in0.0 mm 0.00 in0.0 mm 0.11 in2.8 mm
10:45 AM 44.8°F7.1°C 33.8°F1.0°C 65% 4.0 mph WNW6.4 kmh WNW 6.0 mph9.7 kmh 30.60 in1036.2 mb 0.00 in0.0 mm 0.00 in0.0 mm 0.11 in2.8 mm
10:46 AM 44.8°F7.1°C 33.8°F1.0°C 65% 5.0 mph NNE8.0 kmh NNE 6.0 mph9.7 kmh 30.60 in1036.2 mb 0.00 in0.0 mm 0.00 in0.0 mm 0.11 in2.8 mm
10:47 AM 44.8°F7.1°C 34.2°F1.2°C 66% 2.0 mph NE3.2 kmh NE 6.0 mph9.7 kmh 30.61 in1036.6 mb 0.00 in0.0 mm 0.00 in0.0 mm 0.11 in2.8 mm
10:48 AM 44.6°F7.0°C 34.8°F1.6°C 68% 2.0 mph 3.2 kmh 6.0 mph9.7 kmh 30.61 in1036.6 mb 0.00 in0.0 mm 0.00 in0.0 mm 0.11 in2.8 mm
10:50 AM 44.6°F7.0°C 34.8°F1.6°C 68% 2.0 mph 3.2 kmh 6.0 mph9.7 kmh 30.61 in1036.6 mb 0.00 in0.0 mm 0.00 in0.0 mm 0.11 in2.8 mm
10:51 AM 44.6°F7.0°C 34.8°F1.6°C 68% 3.0 mph NE4.8 kmh NE 6.0 mph9.7 kmh 30.60 in1036.2 mb 0.00 in0.0 mm 0.00 in0.0 mm 0.11 in2.8 mm
10:52 AM 44.6°F7.0°C 34.8°F1.6°C 68% 3.0 mph 4.8 kmh 6.0 mph9.7 kmh 30.60 in1036.2 mb 0.00 in0.0 mm 0.00 in0.0 mm 0.11 in2.8 mm
10:53 AM 44.6°F7.0°C 34.8°F1.6°C 68% 2.0 mph NNE3.2 kmh NNE 6.0 mph9.7 kmh 30.59 in1035.9 mb 0.00 in0.0 mm 0.00 in0.0 mm 0.11 in2.8 mm
10:55 AM 44.6°F7.0°C 34.8°F1.6°C 68% 3.0 mph NNW4.8 kmh NNW 6.0 mph9.7 kmh 30.59 in1035.9 mb 0.00 in0.0 mm 0.00 in0.0 mm 0.11 in2.8 mm
10:56 AM 44.6°F7.0°C 34.8°F1.6°C 68% 3.0 mph NNW4.8 kmh NNW 4.0 mph6.4 kmh 30.59 in1035.9 mb 0.00 in0.0 mm 0.00 in0.0 mm 0.11 in2.8 mm
10:57 AM 44.6°F7.0°C 34.8°F1.6°C 68% 2.0 mph NNE3.2 kmh NNE 4.0 mph6.4 kmh 30.59 in1035.9 mb 0.00 in0.0 mm 0.00 in0.0 mm 0.11 in2.8 mm
10:58 AM 44.6°F7.0°C 34.8°F1.6°C 68% 3.0 mph NNE4.8 kmh NNE 5.0 mph8.0 kmh 30.59 in1035.9 mb 0.00 in0.0 mm 0.00 in0.0 mm 0.11 in2.8 mm
11:00 AM 44.6°F7.0°C 35.1°F1.7°C 69% 3.0 mph NNW4.8 kmh NNW 5.0 mph8.0 kmh 30.59 in1035.9 mb 0.00 in0.0 mm 0.00 in0.0 mm 0.11 in2.8 mm
11:01 AM 44.4°F6.9°C 35.0°F1.7°C 69% 3.0 mph W4.8 kmh W 5.0 mph8.0 kmh 30.59 in1035.9 mb 0.00 in0.0 mm 0.00 in0.0 mm 0.11 in2.8 mm
11:02 AM 44.4°F6.9°C 35.3°F1.8°C 70% 5.0 mph E8.0 kmh E 5.0 mph8.0 kmh 30.59 in1035.9 mb 0.00 in0.0 mm 0.00 in0.0 mm 0.11 in2.8 mm
11:03 AM 44.2°F6.8°C 35.1°F1.7°C 70% 2.0 mph NNW3.2 kmh NNW 5.0 mph8.0 kmh 30.59 in1035.9 mb 0.00 in0.0 mm 0.00 in0.0 mm 0.11 in2.8 mm
11:05 AM 44.2°F6.8°C 35.5°F1.9°C 71% 2.0 mph NNE3.2 kmh NNE 5.0 mph8.0 kmh 30.59 in1035.9 mb 0.00 in0.0 mm 0.00 in0.0 mm 0.11 in2.8 mm
11:06 AM 44.2°F6.8°C 35.5°F1.9°C 71% 3.0 mph NW4.8 kmh NW 5.0 mph8.0 kmh 30.59 in1035.9 mb 0.00 in0.0 mm 0.00 in0.0 mm 0.11 in2.8 mm
11:07 AM 44.2°F6.8°C 35.5°F1.9°C 71% 2.0 mph NW3.2 kmh NW 5.0 mph8.0 kmh 30.59 in1035.9 mb 0.00 in0.0 mm 0.00 in0.0 mm 0.11 in2.8 mm
11:08 AM 44.0°F6.7°C 34.9°F1.6°C 70% 4.0 mph NW6.4 kmh NW 5.0 mph8.0 kmh 30.59 in1035.9 mb 0.00 in0.0 mm 0.00 in0.0 mm 0.11 in2.8 mm
11:10 AM 44.0°F6.7°C 34.9°F1.6°C 70% 2.0 mph NW3.2 kmh NW 5.0 mph8.0 kmh 30.59 in1035.9 mb 0.00 in0.0 mm 0.00 in0.0 mm 0.11 in2.8 mm
11:11 AM 44.0°F6.7°C 35.3°F1.8°C 71% 2.0 mph 3.2 kmh 5.0 mph8.0 kmh 30.59 in1035.9 mb 0.00 in0.0 mm 0.00 in0.0 mm 0.11 in2.8 mm
11:12 AM 44.0°F6.7°C 35.3°F1.8°C 71% 2.0 mph NNE3.2 kmh NNE 5.0 mph8.0 kmh 30.59 in1035.9 mb 0.00 in0.0 mm 0.00 in0.0 mm 0.11 in2.8 mm
11:13 AM 44.0°F6.7°C 36.0°F2.2°C 73% 2.0 mph 3.2 kmh 5.0 mph8.0 kmh 30.59 in1035.9 mb 0.00 in0.0 mm 0.00 in0.0 mm 0.11 in2.8 mm
11:15 AM 44.0°F6.7°C 35.3°F1.8°C 71% 1.0 mph NNE1.6 kmh NNE 5.0 mph8.0 kmh 30.60 in1036.2 mb 0.00 in0.0 mm 0.00 in0.0 mm 0.11 in2.8 mm
11:16 AM 44.2°F6.8°C 36.2°F2.3°C 73% 1.0 mph NNE1.6 kmh NNE 5.0 mph8.0 kmh 30.60 in1036.2 mb 0.00 in0.0 mm 0.00 in0.0 mm 0.11 in2.8 mm
11:17 AM 44.2°F6.8°C 36.2°F2.3°C 73% 3.0 mph NW4.8 kmh NW 5.0 mph8.0 kmh 30.60 in1036.2 mb 0.00 in0.0 mm 0.00 in0.0 mm 0.11 in2.8 mm
11:18 AM 44.2°F6.8°C 35.1°F1.7°C 70% 3.0 mph 4.8 kmh 5.0 mph8.0 kmh 30.60 in1036.2 mb 0.00 in0.0 mm 0.00 in0.0 mm 0.11 in2.8 mm
11:20 AM 44.6°F7.0°C 35.5°F1.9°C 70% 2.0 mph 3.2 kmh 5.0 mph8.0 kmh 30.59 in1035.9 mb 0.00 in0.0 mm 0.00 in0.0 mm 0.11 in2.8 mm
11:21 AM 44.6°F7.0°C 35.5°F1.9°C 70% 1.0 mph 1.6 kmh 5.0 mph8.0 kmh 30.59 in1035.9 mb 0.00 in0.0 mm 0.00 in0.0 mm 0.11 in2.8 mm
11:22 AM 44.6°F7.0°C 35.9°F2.2°C 71% 3.0 mph 4.8 kmh 5.0 mph8.0 kmh 30.60 in1036.2 mb 0.00 in0.0 mm 0.00 in0.0 mm 0.11 in2.8 mm
11:23 AM 44.6°F7.0°C 35.5°F1.9°C 70% 2.0 mph NE3.2 kmh NE 5.0 mph8.0 kmh 30.59 in1035.9 mb 0.00 in0.0 mm 0.00 in0.0 mm 0.11 in2.8 mm
11:25 AM 44.8°F7.1°C 35.7°F2.1°C 70% 3.0 mph ENE4.8 kmh ENE 5.0 mph8.0 kmh 30.60 in1036.2 mb 0.00 in0.0 mm 0.00 in0.0 mm 0.11 in2.8 mm
11:26 AM 44.8°F7.1°C 35.7°F2.1°C 70% 2.0 mph NNE3.2 kmh NNE 5.0 mph8.0 kmh 30.60 in1036.2 mb 0.00 in0.0 mm 0.00 in0.0 mm 0.11 in2.8 mm
11:27 AM 44.8°F7.1°C 35.7°F2.1°C 70% Calm Calm 5.0 mph8.0 kmh 30.59 in1035.9 mb 0.00 in0.0 mm 0.00 in0.0 mm 0.11 in2.8 mm
11:28 AM 45.0°F7.2°C 35.9°F2.2°C 70% 2.0 mph NNE3.2 kmh NNE 3.0 mph4.8 kmh 30.59 in1035.9 mb 0.00 in0.0 mm 0.00 in0.0 mm 0.11 in2.8 mm
11:30 AM 45.0°F7.2°C 35.9°F2.2°C 70% Calm Calm 3.0 mph4.8 kmh 30.59 in1035.9 mb 0.00 in0.0 mm 0.00 in0.0 mm 0.11 in2.8 mm
11:31 AM 45.0°F7.2°C 35.9°F2.2°C 70% Calm Calm 3.0 mph4.8 kmh 30.59 in1035.9 mb 0.00 in0.0 mm 0.00 in0.0 mm 0.11 in2.8 mm
11:32 AM 45.0°F7.2°C 35.9°F2.2°C 70% 2.0 mph 3.2 kmh 3.0 mph4.8 kmh 30.59 in1035.9 mb 0.00 in0.0 mm 0.00 in0.0 mm 0.11 in2.8 mm
11:33 AM 45.0°F7.2°C 35.9°F2.2°C 70% 2.0 mph NNW3.2 kmh NNW 3.0 mph4.8 kmh 30.59 in1035.9 mb 0.00 in0.0 mm 0.00 in0.0 mm 0.11 in2.8 mm
11:35 AM 45.2°F7.3°C 36.1°F2.3°C 70% 2.0 mph NNW3.2 kmh NNW 3.0 mph4.8 kmh 30.60 in1036.2 mb 0.00 in0.0 mm 0.00 in0.0 mm 0.11 in2.8 mm
11:36 AM 45.2°F7.3°C 36.1°F2.3°C 70% 2.0 mph NNW3.2 kmh NNW 3.0 mph4.8 kmh 30.60 in1036.2 mb 0.00 in0.0 mm 0.00 in0.0 mm 0.11 in2.8 mm
11:37 AM 45.5°F7.5°C 36.4°F2.4°C 70% 1.0 mph NNE1.6 kmh NNE 2.0 mph3.2 kmh 30.60 in1036.2 mb 0.00 in0.0 mm 0.00 in0.0 mm 0.11 in2.8 mm
11:38 AM 45.5°F7.5°C 36.0°F2.2°C 69% 2.0 mph NNW3.2 kmh NNW 5.0 mph8.0 kmh 30.60 in1036.2 mb 0.00 in0.0 mm 0.00 in0.0 mm 0.11 in2.8 mm
11:40 AM 45.5°F7.5°C 35.6°F2.0°C 68% 3.0 mph NNW4.8 kmh NNW 5.0 mph8.0 kmh 30.59 in1035.9 mb 0.00 in0.0 mm 0.00 in0.0 mm 0.11 in2.8 mm
11:41 AM 45.5°F7.5°C 35.6°F2.0°C 68% 3.0 mph NNW4.8 kmh NNW 5.0 mph8.0 kmh 30.59 in1035.9 mb 0.00 in0.0 mm 0.00 in0.0 mm 0.11 in2.8 mm
11:42 AM 45.5°F7.5°C 34.9°F1.6°C 66% 6.0 mph 9.7 kmh 6.0 mph9.7 kmh 30.59 in1035.9 mb 0.00 in0.0 mm 0.00 in0.0 mm 0.11 in2.8 mm
11:43 AM 45.5°F7.5°C 34.5°F1.4°C 65% 1.0 mph WNW1.6 kmh WNW 6.0 mph9.7 kmh 30.59 in1035.9 mb 0.00 in0.0 mm 0.00 in0.0 mm 0.11 in2.8 mm
11:45 AM 45.5°F7.5°C 34.9°F1.6°C 66% 4.0 mph ENE6.4 kmh ENE 6.0 mph9.7 kmh 30.60 in1036.2 mb 0.00 in0.0 mm 0.00 in0.0 mm 0.11 in2.8 mm
11:46 AM 45.5°F7.5°C 34.9°F1.6°C 66% 4.0 mph ENE6.4 kmh ENE 6.0 mph9.7 kmh 30.60 in1036.2 mb 0.00 in0.0 mm 0.00 in0.0 mm 0.11 in2.8 mm
11:47 AM 45.7°F7.6°C 35.8°F2.1°C 68% 2.0 mph ENE3.2 kmh ENE 6.0 mph9.7 kmh 30.59 in1035.9 mb 0.00 in0.0 mm 0.00 in0.0 mm 0.11 in2.8 mm
11:48 AM 45.7°F7.6°C 35.8°F2.1°C 68% 1.0 mph NNW1.6 kmh NNW 6.0 mph9.7 kmh 30.59 in1035.9 mb 0.00 in0.0 mm 0.00 in0.0 mm 0.11 in2.8 mm
11:50 AM 45.7°F7.6°C 35.8°F2.1°C 68% 2.0 mph 3.2 kmh 6.0 mph9.7 kmh 30.60 in1036.2 mb 0.00 in0.0 mm 0.00 in0.0 mm 0.11 in2.8 mm
11:51 AM 45.9°F7.7°C 34.9°F1.6°C 65% 2.0 mph ENE3.2 kmh ENE 6.0 mph9.7 kmh 30.60 in1036.2 mb 0.00 in0.0 mm 0.00 in0.0 mm 0.11 in2.8 mm
11:52 AM 45.9°F7.7°C 34.9°F1.6°C 65% 3.0 mph WNW4.8 kmh WNW 4.0 mph6.4 kmh 30.60 in1036.2 mb 0.00 in0.0 mm 0.00 in0.0 mm 0.11 in2.8 mm
11:53 AM 45.9°F7.7°C 34.9°F1.6°C 65% 5.0 mph NNW8.0 kmh NNW 5.0 mph8.0 kmh 30.61 in1036.6 mb 0.00 in0.0 mm 0.00 in0.0 mm 0.11 in2.8 mm
11:55 AM 45.9°F7.7°C 34.9°F1.6°C 65% 5.0 mph NNW8.0 kmh NNW 5.0 mph8.0 kmh 30.62 in1036.9 mb 0.00 in0.0 mm 0.00 in0.0 mm 0.11 in2.8 mm
11:56 AM 45.9°F7.7°C 34.9°F1.6°C 65% 2.0 mph NNE3.2 kmh NNE 5.0 mph8.0 kmh 30.62 in1036.9 mb 0.00 in0.0 mm 0.00 in0.0 mm 0.11 in2.8 mm
11:57 AM 45.9°F7.7°C 34.9°F1.6°C 65% 3.0 mph NNE4.8 kmh NNE 5.0 mph8.0 kmh 30.62 in1036.9 mb 0.00 in0.0 mm 0.00 in0.0 mm 0.11 in2.8 mm
11:58 AM 45.9°F7.7°C 34.9°F1.6°C 65% 3.0 mph NW4.8 kmh NW 5.0 mph8.0 kmh 30.62 in1036.9 mb 0.00 in0.0 mm 0.00 in0.0 mm 0.11 in2.8 mm
12:00 PM 45.7°F7.6°C 34.7°F1.5°C 65% 3.0 mph NNE4.8 kmh NNE 5.0 mph8.0 kmh 30.62 in1036.9 mb 0.00 in0.0 mm 0.00 in0.0 mm 0.11 in2.8 mm
12:01 PM 45.7°F7.6°C 33.9°F1.1°C 63% 1.0 mph WNW1.6 kmh WNW 5.0 mph8.0 kmh 30.62 in1036.9 mb 0.00 in0.0 mm 0.00 in0.0 mm 0.11 in2.8 mm
12:02 PM 45.7°F7.6°C 33.9°F1.1°C 63% 1.0 mph 1.6 kmh 5.0 mph8.0 kmh 30.62 in1036.9 mb 0.00 in0.0 mm 0.00 in0.0 mm 0.11 in2.8 mm
12:03 PM 45.7°F7.6°C 33.9°F1.1°C 63% 4.0 mph 6.4 kmh 5.0 mph8.0 kmh 30.62 in1036.9 mb 0.00 in0.0 mm 0.00 in0.0 mm 0.11 in2.8 mm
12:05 PM 45.5°F7.5°C 33.7°F0.9°C 63% 3.0 mph 4.8 kmh 4.0 mph6.4 kmh 30.62 in1036.9 mb 0.00 in0.0 mm 0.00 in0.0 mm 0.11 in2.8 mm
12:06 PM 45.5°F7.5°C 34.9°F1.6°C 66% 1.0 mph NNW1.6 kmh NNW 4.0 mph6.4 kmh 30.62 in1036.9 mb 0.00 in0.0 mm 0.00 in0.0 mm 0.11 in2.8 mm
12:07 PM 45.5°F7.5°C 35.6°F2.0°C 68% 2.0 mph 3.2 kmh 4.0 mph6.4 kmh 30.62 in1036.9 mb 0.00 in0.0 mm 0.00 in0.0 mm 0.11 in2.8 mm
12:08 PM 45.5°F7.5°C 35.6°F2.0°C 68% 2.0 mph 3.2 kmh 4.0 mph6.4 kmh 30.62 in1036.9 mb 0.00 in0.0 mm 0.00 in0.0 mm 0.11 in2.8 mm
12:09 PM 45.5°F7.5°C 35.6°F2.0°C 68% 1.0 mph 1.6 kmh 4.0 mph6.4 kmh 30.62 in1036.9 mb 0.00 in0.0 mm 0.00 in0.0 mm 0.11 in2.8 mm
12:10 PM 45.5°F7.5°C 34.9°F1.6°C 66% 2.0 mph NNE3.2 kmh NNE 4.0 mph6.4 kmh 30.62 in1036.9 mb 0.00 in0.0 mm 0.00 in0.0 mm 0.11 in2.8 mm
12:11 PM 45.7°F7.6°C 34.7°F1.5°C 65% 1.0 mph NW1.6 kmh NW 4.0 mph6.4 kmh 30.61 in1036.6 mb 0.00 in0.0 mm 0.00 in0.0 mm 0.11 in2.8 mm
12:12 PM 45.7°F7.6°C 35.1°F1.7°C 66% 2.0 mph 3.2 kmh 4.0 mph6.4 kmh 30.61 in1036.6 mb 0.00 in0.0 mm 0.00 in0.0 mm 0.11 in2.8 mm
12:13 PM 45.7°F7.6°C 34.7°F1.5°C 65% 4.0 mph NW6.4 kmh NW 4.0 mph6.4 kmh 30.62 in1036.9 mb 0.00 in0.0 mm 0.00 in0.0 mm 0.11 in2.8 mm
12:14 PM 45.7°F7.6°C 34.7°F1.5°C 65% 3.0 mph NNW4.8 kmh NNW 5.0 mph8.0 kmh 30.62 in1036.9 mb 0.00 in0.0 mm 0.00 in0.0 mm 0.11 in2.8 mm
12:15 PM 45.9°F7.7°C 34.9°F1.6°C 65% 4.0 mph 6.4 kmh 5.0 mph8.0 kmh 30.62 in1036.9 mb 0.00 in0.0 mm 0.00 in0.0 mm 0.11 in2.8 mm
12:16 PM 45.9°F7.7°C 34.1°F1.2°C 63% 4.0 mph NNE6.4 kmh NNE 5.0 mph8.0 kmh 30.62 in1036.9 mb 0.00 in0.0 mm 0.00 in0.0 mm 0.11 in2.8 mm
12:17 PM 45.9°F7.7°C 34.1°F1.2°C 63% 3.0 mph 4.8 kmh 5.0 mph8.0 kmh 30.62 in1036.9 mb 0.00 in0.0 mm 0.00 in0.0 mm 0.11 in2.8 mm
12:18 PM 45.9°F7.7°C 34.1°F1.2°C 63% 3.0 mph 4.8 kmh 5.0 mph8.0 kmh 30.62 in1036.9 mb 0.00 in0.0 mm 0.00 in0.0 mm 0.11 in2.8 mm
12:19 PM 45.9°F7.7°C 34.9°F1.6°C 65% 4.0 mph 6.4 kmh 5.0 mph8.0 kmh 30.62 in1036.9 mb 0.00 in0.0 mm 0.00 in0.0 mm 0.11 in2.8 mm
12:20 PM 45.9°F7.7°C 34.9°F1.6°C 65% 6.0 mph ENE9.7 kmh ENE 6.0 mph9.7 kmh 30.62 in1036.9 mb 0.00 in0.0 mm 0.00 in0.0 mm 0.11 in2.8 mm
12:21 PM 45.9°F7.7°C 34.9°F1.6°C 65% 4.0 mph NW6.4 kmh NW 6.0 mph9.7 kmh 30.62 in1036.9 mb 0.00 in0.0 mm 0.00 in0.0 mm 0.11 in2.8 mm
12:22 PM 45.9°F7.7°C 34.9°F1.6°C 65% 6.0 mph NW9.7 kmh NW 6.0 mph9.7 kmh 30.62 in1036.9 mb 0.00 in0.0 mm 0.00 in0.0 mm 0.11 in2.8 mm
12:23 PM 45.9°F7.7°C 34.1°F1.2°C 63% 3.0 mph NNE4.8 kmh NNE 6.0 mph9.7 kmh 30.62 in1036.9 mb 0.00 in0.0 mm 0.00 in0.0 mm 0.11 in2.8 mm
12:24 PM 45.9°F7.7°C 34.1°F1.2°C 63% 3.0 mph NNW4.8 kmh NNW 6.0 mph9.7 kmh 30.62 in1036.9 mb 0.00 in0.0 mm 0.00 in0.0 mm 0.11 in2.8 mm
12:25 PM 45.9°F7.7°C 34.9°F1.6°C 65% 3.0 mph NW4.8 kmh NW 6.0 mph9.7 kmh 30.62 in1036.9 mb 0.00 in0.0 mm 0.00 in0.0 mm 0.11 in2.8 mm
12:26 PM 45.9°F7.7°C 34.1°F1.2°C 63% 3.0 mph 4.8 kmh 6.0 mph9.7 kmh 30.62 in1036.9 mb 0.00 in0.0 mm 0.00 in0.0 mm 0.11 in2.8 mm
12:27 PM 45.9°F7.7°C 34.1°F1.2°C 63% 2.0 mph 3.2 kmh 6.0 mph9.7 kmh 30.62 in1036.9 mb 0.00 in0.0 mm 0.00 in0.0 mm 0.11 in2.8 mm
12:28 PM 45.9°F7.7°C 34.9°F1.6°C 65% 5.0 mph NNW8.0 kmh NNW 6.0 mph9.7 kmh 30.62 in1036.9 mb 0.00 in0.0 mm 0.00 in0.0 mm 0.11 in2.8 mm
12:29 PM 45.9°F7.7°C 34.1°F1.2°C 63% 3.0 mph NNE4.8 kmh NNE 6.0 mph9.7 kmh 30.61 in1036.6 mb 0.00 in0.0 mm 0.00 in0.0 mm 0.11 in2.8 mm
12:30 PM 45.9°F7.7°C 34.1°F1.2°C 63% 3.0 mph NNE4.8 kmh NNE 6.0 mph9.7 kmh 30.61 in1036.6 mb 0.00 in0.0 mm 0.00 in0.0 mm 0.11 in2.8 mm
12:31 PM 45.9°F7.7°C 34.1°F1.2°C 63% 3.0 mph NNE4.8 kmh NNE 6.0 mph9.7 kmh 30.61 in1036.6 mb 0.00 in0.0 mm 0.00 in0.0 mm 0.11 in2.8 mm
12:32 PM 45.9°F7.7°C 34.1°F1.2°C 63% 4.0 mph NW6.4 kmh NW 6.0 mph9.7 kmh 30.61 in1036.6 mb 0.00 in0.0 mm 0.00 in0.0 mm 0.11 in2.8 mm
12:33 PM 45.9°F7.7°C 34.1°F1.2°C 63% 4.0 mph 6.4 kmh 5.0 mph8.0 kmh 30.62 in1036.9 mb 0.00 in0.0 mm 0.00 in0.0 mm 0.11 in2.8 mm
12:34 PM 45.9°F7.7°C 33.3°F0.7°C 61% 4.0 mph NNE6.4 kmh NNE 5.0 mph8.0 kmh 30.62 in1036.9 mb 0.00 in0.0 mm 0.00 in0.0 mm 0.11 in2.8 mm
12:35 PM 45.9°F7.7°C 33.3°F0.7°C 61% 3.0 mph SW4.8 kmh SW 5.0 mph8.0 kmh 30.61 in1036.6 mb 0.00 in0.0 mm 0.00 in0.0 mm 0.11 in2.8 mm
12:36 PM 45.9°F7.7°C 33.3°F0.7°C 61% 3.0 mph NNE4.8 kmh NNE 5.0 mph8.0 kmh 30.61 in1036.6 mb 0.00 in0.0 mm 0.00 in0.0 mm 0.11 in2.8 mm
12:37 PM 45.9°F7.7°C 33.3°F0.7°C 61% 2.0 mph 3.2 kmh 5.0 mph8.0 kmh 30.60 in1036.2 mb 0.00 in0.0 mm 0.00 in0.0 mm 0.11 in2.8 mm
12:38 PM 45.9°F7.7°C 33.3°F0.7°C 61% 2.0 mph 3.2 kmh 5.0 mph8.0 kmh 30.60 in1036.2 mb 0.00 in0.0 mm 0.00 in0.0 mm 0.11 in2.8 mm
12:39 PM 45.9°F7.7°C 33.3°F0.7°C 61% 1.0 mph ENE1.6 kmh ENE 5.0 mph8.0 kmh 30.60 in1036.2 mb 0.00 in0.0 mm 0.00 in0.0 mm 0.11 in2.8 mm
12:40 PM 45.9°F7.7°C 33.3°F0.7°C 61% 6.0 mph NNW9.7 kmh NNW 6.0 mph9.7 kmh 30.60 in1036.2 mb 0.00 in0.0 mm 0.00 in0.0 mm 0.11 in2.8 mm
12:41 PM 45.9°F7.7°C 33.3°F0.7°C 61% 4.0 mph NNE6.4 kmh NNE 6.0 mph9.7 kmh 30.60 in1036.2 mb 0.00 in0.0 mm 0.00 in0.0 mm 0.11 in2.8 mm
12:42 PM 45.9°F7.7°C 33.3°F0.7°C 61% 2.0 mph NNW3.2 kmh NNW 6.0 mph9.7 kmh 30.60 in1036.2 mb 0.00 in0.0 mm 0.00 in0.0 mm 0.11 in2.8 mm
12:43 PM 45.9°F7.7°C 33.3°F0.7°C 61% 3.0 mph 4.8 kmh 6.0 mph9.7 kmh 30.60 in1036.2 mb 0.00 in0.0 mm 0.00 in0.0 mm 0.11 in2.8 mm
12:44 PM 45.9°F7.7°C 33.3°F0.7°C 61% 2.0 mph 3.2 kmh 6.0 mph9.7 kmh 30.60 in1036.2 mb 0.00 in0.0 mm 0.00 in0.0 mm 0.11 in2.8 mm
12:45 PM 45.9°F7.7°C 33.3°F0.7°C 61% 3.0 mph E4.8 kmh E 6.0 mph9.7 kmh 30.59 in1035.9 mb 0.00 in0.0 mm 0.00 in0.0 mm 0.11 in2.8 mm
12:46 PM 46.1°F7.8°C 33.5°F0.8°C 61% 4.0 mph 6.4 kmh 6.0 mph9.7 kmh 30.59 in1035.9 mb 0.00 in0.0 mm 0.00 in0.0 mm 0.11 in2.8 mm
12:47 PM 46.1°F7.8°C 33.5°F0.8°C 61% 2.0 mph ESE3.2 kmh ESE 6.0 mph9.7 kmh 30.60 in1036.2 mb 0.00 in0.0 mm 0.00 in0.0 mm 0.11 in2.8 mm
12:48 PM 46.1°F7.8°C 33.5°F0.8°C 61% 2.0 mph NNW3.2 kmh NNW 6.0 mph9.7 kmh 30.60 in1036.2 mb 0.00 in0.0 mm 0.00 in0.0 mm 0.11 in2.8 mm
12:49 PM 46.1°F7.8°C 33.5°F0.8°C 61% 2.0 mph NNE3.2 kmh NNE 6.0 mph9.7 kmh 30.60 in1036.2 mb 0.00 in0.0 mm 0.00 in0.0 mm 0.11 in2.8 mm
12:50 PM 46.1°F7.8°C 33.5°F0.8°C 61% 5.0 mph NW8.0 kmh NW 6.0 mph9.7 kmh 30.60 in1036.2 mb 0.00 in0.0 mm 0.00 in0.0 mm 0.11 in2.8 mm
12:51 PM 46.1°F7.8°C 33.5°F0.8°C 61% 4.0 mph 6.4 kmh 5.0 mph8.0 kmh 30.60 in1036.2 mb 0.00 in0.0 mm 0.00 in0.0 mm 0.11 in2.8 mm
12:52 PM 46.1°F7.8°C 33.5°F0.8°C 61% 1.0 mph NE1.6 kmh NE 5.0 mph8.0 kmh 30.60 in1036.2 mb 0.00 in0.0 mm 0.00 in0.0 mm 0.11 in2.8 mm
12:53 PM 46.1°F7.8°C 33.5°F0.8°C 61% 2.0 mph SSE3.2 kmh SSE 5.0 mph8.0 kmh 30.59 in1035.9 mb 0.00 in0.0 mm 0.00 in0.0 mm 0.11 in2.8 mm
12:54 PM 46.1°F7.8°C 33.5°F0.8°C 61% 1.0 mph NW1.6 kmh NW 5.0 mph8.0 kmh 30.59 in1035.9 mb 0.00 in0.0 mm 0.00 in0.0 mm 0.11 in2.8 mm
12:55 PM 46.1°F7.8°C 33.5°F0.8°C 61% 1.0 mph E1.6 kmh E 5.0 mph8.0 kmh 30.59 in1035.9 mb 0.00 in0.0 mm 0.00 in0.0 mm 0.11 in2.8 mm
12:56 PM 46.1°F7.8°C 33.5°F0.8°C 61% Calm Calm 5.0 mph8.0 kmh 30.59 in1035.9 mb 0.00 in0.0 mm 0.00 in0.0 mm 0.11 in2.8 mm
12:57 PM 46.1°F7.8°C 33.5°F0.8°C 61% Calm Calm 5.0 mph8.0 kmh 30.60 in1036.2 mb 0.00 in0.0 mm 0.00 in0.0 mm 0.11 in2.8 mm
12:58 PM 46.1°F7.8°C 34.3°F1.3°C 63% Calm Calm 5.0 mph8.0 kmh 30.60 in1036.2 mb 0.00 in0.0 mm 0.00 in0.0 mm 0.11 in2.8 mm
12:59 PM 46.1°F7.8°C 34.3°F1.3°C 63% 1.0 mph WNW1.6 kmh WNW 5.0 mph8.0 kmh 30.60 in1036.2 mb 0.00 in0.0 mm 0.00 in0.0 mm 0.11 in2.8 mm
01:00 PM 46.1°F7.8°C 34.3°F1.3°C 63% 1.0 mph NNE1.6 kmh NNE 5.0 mph8.0 kmh 30.60 in1036.2 mb 0.00 in0.0 mm 0.00 in0.0 mm 0.11 in2.8 mm
01:01 PM 46.4°F8.0°C 33.8°F1.0°C 61% 2.0 mph NNW3.2 kmh NNW 5.0 mph8.0 kmh 30.59 in1035.9 mb 0.00 in0.0 mm 0.00 in0.0 mm 0.11 in2.8 mm
01:02 PM 46.4°F8.0°C 33.8°F1.0°C 61% 1.0 mph NNE1.6 kmh NNE 5.0 mph8.0 kmh 30.59 in1035.9 mb 0.00 in0.0 mm 0.00 in0.0 mm 0.11 in2.8 mm
01:03 PM 46.4°F8.0°C 33.8°F1.0°C 61% 2.0 mph NNE3.2 kmh NNE 3.0 mph4.8 kmh 30.59 in1035.9 mb 0.00 in0.0 mm 0.00 in0.0 mm 0.11 in2.8 mm
01:04 PM 46.4°F8.0°C 33.8°F1.0°C 61% 3.0 mph NNW4.8 kmh NNW 3.0 mph4.8 kmh 30.59 in1035.9 mb 0.00 in0.0 mm 0.00 in0.0 mm 0.11 in2.8 mm
01:05 PM 46.4°F8.0°C 33.8°F1.0°C 61% 2.0 mph NW3.2 kmh NW 3.0 mph4.8 kmh 30.59 in1035.9 mb 0.00 in0.0 mm 0.00 in0.0 mm 0.11 in2.8 mm
01:06 PM 46.4°F8.0°C 33.8°F1.0°C 61% 2.0 mph NNW3.2 kmh NNW 3.0 mph4.8 kmh 30.59 in1035.9 mb 0.00 in0.0 mm 0.00 in0.0 mm 0.11 in2.8 mm
01:07 PM 46.4°F8.0°C 33.8°F1.0°C 61% 1.0 mph SSW1.6 kmh SSW 4.0 mph6.4 kmh 30.59 in1035.9 mb 0.00 in0.0 mm 0.00 in0.0 mm 0.11 in2.8 mm
01:08 PM 46.1°F7.8°C 34.3°F1.3°C 63% 1.0 mph WNW1.6 kmh WNW 4.0 mph6.4 kmh 30.59 in1035.9 mb 0.00 in0.0 mm 0.00 in0.0 mm 0.11 in2.8 mm
01:09 PM 46.1°F7.8°C 34.3°F1.3°C 63% 4.0 mph NE6.4 kmh NE 4.0 mph6.4 kmh 30.59 in1035.9 mb 0.00 in0.0 mm 0.00 in0.0 mm 0.11 in2.8 mm
01:10 PM 46.1°F7.8°C 33.5°F0.8°C 61% 1.0 mph NNE1.6 kmh NNE 4.0 mph6.4 kmh 30.59 in1035.9 mb 0.00 in0.0 mm 0.00 in0.0 mm 0.11 in2.8 mm
01:11 PM 46.1°F7.8°C 33.5°F0.8°C 61% 5.0 mph SSE8.0 kmh SSE 5.0 mph8.0 kmh 30.59 in1035.9 mb 0.00 in0.0 mm 0.00 in0.0 mm 0.11 in2.8 mm
01:12 PM 46.1°F7.8°C 33.5°F0.8°C 61% 2.0 mph 3.2 kmh 5.0 mph8.0 kmh 30.59 in1035.9 mb 0.00 in0.0 mm 0.00 in0.0 mm 0.11 in2.8 mm
01:13 PM 46.1°F7.8°C 33.1°F0.6°C 60% 1.0 mph SSE1.6 kmh SSE 5.0 mph8.0 kmh 30.59 in1035.9 mb 0.00 in0.0 mm 0.00 in0.0 mm 0.11 in2.8 mm
01:14 PM 46.1°F7.8°C 33.1°F0.6°C 60% 2.0 mph NNE3.2 kmh NNE 5.0 mph8.0 kmh 30.59 in1035.9 mb 0.00 in0.0 mm 0.00 in0.0 mm 0.11 in2.8 mm
01:15 PM 45.9°F7.7°C 32.9°F0.5°C 60% 3.0 mph ESE4.8 kmh ESE 5.0 mph8.0 kmh 30.59 in1035.9 mb 0.00 in0.0 mm 0.00 in0.0 mm 0.11 in2.8 mm
01:16 PM 45.9°F7.7°C 32.9°F0.5°C 60% 3.0 mph NNE4.8 kmh NNE 5.0 mph8.0 kmh 30.59 in1035.9 mb 0.00 in0.0 mm 0.00 in0.0 mm 0.11 in2.8 mm
01:17 PM 45.9°F7.7°C 32.9°F0.5°C 60% 3.0 mph 4.8 kmh 5.0 mph8.0 kmh 30.60 in1036.2 mb 0.00 in0.0 mm 0.00 in0.0 mm 0.11 in2.8 mm
01:18 PM 45.9°F7.7°C 32.9°F0.5°C 60% 2.0 mph 3.2 kmh 5.0 mph8.0 kmh 30.60 in1036.2 mb 0.00 in0.0 mm 0.00 in0.0 mm 0.11 in2.8 mm
01:19 PM 45.9°F7.7°C 33.3°F0.7°C 61% 4.0 mph NNE6.4 kmh NNE 5.0 mph8.0 kmh 30.59 in1035.9 mb 0.00 in0.0 mm 0.00 in0.0 mm 0.11 in2.8 mm
01:20 PM 45.9°F7.7°C 33.3°F0.7°C 61% 1.0 mph SW1.6 kmh SW 5.0 mph8.0 kmh 30.59 in1035.9 mb 0.00 in0.0 mm 0.00 in0.0 mm 0.11 in2.8 mm
01:21 PM 45.9°F7.7°C 33.3°F0.7°C 61% 3.0 mph NNW4.8 kmh NNW 5.0 mph8.0 kmh 30.58 in1035.6 mb 0.00 in0.0 mm 0.00 in0.0 mm 0.11 in2.8 mm
01:22 PM 45.9°F7.7°C 33.3°F0.7°C 61% 4.0 mph NNW6.4 kmh NNW 5.0 mph8.0 kmh 30.58 in1035.6 mb 0.00 in0.0 mm 0.00 in0.0 mm 0.11 in2.8 mm
01:23 PM 45.9°F7.7°C 33.3°F0.7°C 61% 3.0 mph NNE4.8 kmh NNE 5.0 mph8.0 kmh 30.58 in1035.6 mb 0.00 in0.0 mm 0.00 in0.0 mm 0.11 in2.8 mm
01:24 PM 45.9°F7.7°C 32.9°F0.5°C 60% 3.0 mph NNW4.8 kmh NNW 5.0 mph8.0 kmh 30.58 in1035.6 mb 0.00 in0.0 mm 0.00 in0.0 mm 0.11 in2.8 mm
01:25 PM 45.9°F7.7°C 32.9°F0.5°C 60% 2.0 mph W3.2 kmh W 5.0 mph8.0 kmh 30.58 in1035.6 mb 0.00 in0.0 mm 0.00 in0.0 mm 0.11 in2.8 mm
01:26 PM 45.9°F7.7°C 33.3°F0.7°C 61% 3.0 mph W4.8 kmh W 5.0 mph8.0 kmh 30.58 in1035.6 mb 0.00 in0.0 mm 0.00 in0.0 mm 0.11 in2.8 mm
01:27 PM 45.9°F7.7°C 32.9°F0.5°C 60% 4.0 mph 6.4 kmh 5.0 mph8.0 kmh 30.58 in1035.6 mb 0.00 in0.0 mm 0.00 in0.0 mm 0.11 in2.8 mm
01:28 PM 45.9°F7.7°C 32.9°F0.5°C 60% 4.0 mph NNE6.4 kmh NNE 8.0 mph12.9 kmh 30.58 in1035.6 mb 0.00 in0.0 mm 0.00 in0.0 mm 0.11 in2.8 mm
01:29 PM 45.9°F7.7°C 32.9°F0.5°C 60% 3.0 mph NW4.8 kmh NW 8.0 mph12.9 kmh 30.58 in1035.6 mb 0.00 in0.0 mm 0.00 in0.0 mm 0.11 in2.8 mm
01:30 PM 45.9°F7.7°C 32.9°F0.5°C 60% 3.0 mph NNE4.8 kmh NNE 8.0 mph12.9 kmh 30.58 in1035.6 mb 0.00 in0.0 mm 0.00 in0.0 mm 0.11 in2.8 mm
01:31 PM 45.9°F7.7°C 32.9°F0.5°C 60% 3.0 mph NNE4.8 kmh NNE 8.0 mph12.9 kmh 30.58 in1035.6 mb 0.00 in0.0 mm 0.00 in0.0 mm 0.11 in2.8 mm
01:32 PM 45.9°F7.7°C 32.9°F0.5°C 60% 2.0 mph NW3.2 kmh NW 8.0 mph12.9 kmh 30.58 in1035.6 mb 0.00 in0.0 mm 0.00 in0.0 mm 0.11 in2.8 mm
01:33 PM 45.9°F7.7°C 32.9°F0.5°C 60% 3.0 mph NE4.8 kmh NE 8.0 mph12.9 kmh 30.58 in1035.6 mb 0.00 in0.0 mm 0.00 in0.0 mm 0.11 in2.8 mm
01:34 PM 45.9°F7.7°C 32.9°F0.5°C 60% 1.0 mph NNE1.6 kmh NNE 8.0 mph12.9 kmh 30.58 in1035.6 mb 0.00 in0.0 mm 0.00 in0.0 mm 0.11 in2.8 mm
01:35 PM 45.9°F7.7°C 32.4°F0.2°C 59% 5.0 mph NNE8.0 kmh NNE 8.0 mph12.9 kmh 30.57 in1035.2 mb 0.00 in0.0 mm 0.00 in0.0 mm 0.11 in2.8 mm
01:36 PM 45.9°F7.7°C 32.4°F0.2°C 59% 4.0 mph NNE6.4 kmh NNE 8.0 mph12.9 kmh 30.57 in1035.2 mb 0.00 in0.0 mm 0.00 in0.0 mm 0.11 in2.8 mm
01:37 PM 45.9°F7.7°C 32.4°F0.2°C 59% 4.0 mph WNW6.4 kmh WNW 8.0 mph12.9 kmh 30.57 in1035.2 mb 0.00 in0.0 mm 0.00 in0.0 mm 0.11 in2.8 mm
01:38 PM 45.9°F7.7°C 32.4°F0.2°C 59% 6.0 mph WNW9.7 kmh WNW 7.0 mph11.3 kmh 30.57 in1035.2 mb 0.00 in0.0 mm 0.00 in0.0 mm 0.11 in2.8 mm
01:39 PM 45.7°F7.6°C 32.7°F0.4°C 60% 3.0 mph NNE4.8 kmh NNE 7.0 mph11.3 kmh 30.57 in1035.2 mb 0.00 in0.0 mm 0.00 in0.0 mm 0.11 in2.8 mm
01:40 PM 45.7°F7.6°C 32.7°F0.4°C 60% 4.0 mph SE6.4 kmh SE 7.0 mph11.3 kmh 30.57 in1035.2 mb 0.00 in0.0 mm 0.00 in0.0 mm 0.11 in2.8 mm
01:41 PM 45.7°F7.6°C 32.7°F0.4°C 60% 6.0 mph SSW9.7 kmh SSW 7.0 mph11.3 kmh 30.56 in1034.9 mb 0.00 in0.0 mm 0.00 in0.0 mm 0.11 in2.8 mm
01:42 PM 45.5°F7.5°C 32.5°F0.3°C 60% 4.0 mph NE6.4 kmh NE 7.0 mph11.3 kmh 30.56 in1034.9 mb 0.00 in0.0 mm 0.00 in0.0 mm 0.11 in2.8 mm
01:43 PM 45.5°F7.5°C 32.5°F0.3°C 60% 4.0 mph NE6.4 kmh NE 7.0 mph11.3 kmh 30.56 in1034.9 mb 0.00 in0.0 mm 0.00 in0.0 mm 0.11 in2.8 mm
01:44 PM 45.5°F7.5°C 32.5°F0.3°C 60% 3.0 mph NNW4.8 kmh NNW 7.0 mph11.3 kmh 30.56 in1034.9 mb 0.00 in0.0 mm 0.00 in0.0 mm 0.11 in2.8 mm
01:45 PM 45.5°F7.5°C 32.5°F0.3°C 60% 4.0 mph NNE6.4 kmh NNE 6.0 mph9.7 kmh 30.56 in1034.9 mb 0.00 in0.0 mm 0.00 in0.0 mm 0.11 in2.8 mm
01:46 PM 45.5°F7.5°C 32.5°F0.3°C 60% 2.0 mph NNE3.2 kmh NNE 6.0 mph9.7 kmh 30.56 in1034.9 mb 0.00 in0.0 mm 0.00 in0.0 mm 0.11 in2.8 mm
01:47 PM 45.5°F7.5°C 32.5°F0.3°C 60% 3.0 mph NNE4.8 kmh NNE 6.0 mph9.7 kmh 30.56 in1034.9 mb 0.00 in0.0 mm 0.00 in0.0 mm 0.11 in2.8 mm
01:48 PM 45.5°F7.5°C 32.9°F0.5°C 61% 4.0 mph NNE6.4 kmh NNE 6.0 mph9.7 kmh 30.56 in1034.9 mb 0.00 in0.0 mm 0.00 in0.0 mm 0.11 in2.8 mm
01:49 PM 45.5°F7.5°C 32.9°F0.5°C 61% 2.0 mph NNW3.2 kmh NNW 6.0 mph9.7 kmh 30.55 in1034.5 mb 0.00 in0.0 mm 0.00 in0.0 mm 0.11 in2.8 mm
01:50 PM 45.5°F7.5°C 32.9°F0.5°C 61% 1.0 mph 1.6 kmh 6.0 mph9.7 kmh 30.55 in1034.5 mb 0.00 in0.0 mm 0.00 in0.0 mm 0.11 in2.8 mm
01:51 PM 45.5°F7.5°C 32.9°F0.5°C 61% 2.0 mph NNW3.2 kmh NNW 5.0 mph8.0 kmh 30.54 in1034.2 mb 0.00 in0.0 mm 0.00 in0.0 mm 0.11 in2.8 mm
01:52 PM 45.5°F7.5°C 32.9°F0.5°C 61% 3.0 mph 4.8 kmh 5.0 mph8.0 kmh 30.55 in1034.5 mb 0.00 in0.0 mm 0.00 in0.0 mm 0.11 in2.8 mm
01:53 PM 45.5°F7.5°C 32.9°F0.5°C 61% 3.0 mph 4.8 kmh 5.0 mph8.0 kmh 30.54 in1034.2 mb 0.00 in0.0 mm 0.00 in0.0 mm 0.11 in2.8 mm
01:54 PM 45.5°F7.5°C 32.5°F0.3°C 60% 3.0 mph NNE4.8 kmh NNE 5.0 mph8.0 kmh 30.54 in1034.2 mb 0.00 in0.0 mm 0.00 in0.0 mm 0.11 in2.8 mm
01:55 PM 45.5°F7.5°C 32.5°F0.3°C 60% 4.0 mph 6.4 kmh 5.0 mph8.0 kmh 30.54 in1034.2 mb 0.00 in0.0 mm 0.00 in0.0 mm 0.11 in2.8 mm
01:56 PM 45.5°F7.5°C 32.5°F0.3°C 60% 3.0 mph ENE4.8 kmh ENE 5.0 mph8.0 kmh 30.54 in1034.2 mb 0.00 in0.0 mm 0.00 in0.0 mm 0.11 in2.8 mm
01:57 PM 45.5°F7.5°C 32.5°F0.3°C 60% 4.0 mph NNW6.4 kmh NNW 5.0 mph8.0 kmh 30.55 in1034.5 mb 0.00 in0.0 mm 0.00 in0.0 mm 0.11 in2.8 mm
01:58 PM 45.5°F7.5°C 32.5°F0.3°C 60% 2.0 mph NNW3.2 kmh NNW 5.0 mph8.0 kmh 30.56 in1034.9 mb 0.00 in0.0 mm 0.00 in0.0 mm 0.11 in2.8 mm
01:59 PM 45.5°F7.5°C 32.5°F0.3°C 60% 5.0 mph NNE8.0 kmh NNE 5.0 mph8.0 kmh 30.56 in1034.9 mb 0.00 in0.0 mm 0.00 in0.0 mm 0.11 in2.8 mm
02:00 PM 45.5°F7.5°C 32.5°F0.3°C 60% 2.0 mph WNW3.2 kmh WNW 5.0 mph8.0 kmh 30.56 in1034.9 mb 0.00 in0.0 mm 0.00 in0.0 mm 0.11 in2.8 mm
02:01 PM 45.5°F7.5°C 32.5°F0.3°C 60% 4.0 mph NNE6.4 kmh NNE 6.0 mph9.7 kmh 30.56 in1034.9 mb 0.00 in0.0 mm 0.00 in0.0 mm 0.11 in2.8 mm
02:02 PM 45.5°F7.5°C 32.5°F0.3°C 60% 2.0 mph NE3.2 kmh NE 6.0 mph9.7 kmh 30.56 in1034.9 mb 0.00 in0.0 mm 0.00 in0.0 mm 0.11 in2.8 mm
02:03 PM 45.5°F7.5°C 32.5°F0.3°C 60% 2.0 mph NNE3.2 kmh NNE 6.0 mph9.7 kmh 30.56 in1034.9 mb 0.00 in0.0 mm 0.00 in0.0 mm 0.11 in2.8 mm
02:04 PM 45.5°F7.5°C 32.5°F0.3°C 60% 3.0 mph 4.8 kmh 6.0 mph9.7 kmh 30.56 in1034.9 mb 0.00 in0.0 mm 0.00 in0.0 mm 0.11 in2.8 mm
02:05 PM 45.5°F7.5°C 32.5°F0.3°C 60% 2.0 mph WNW3.2 kmh WNW 6.0 mph9.7 kmh 30.55 in1034.5 mb 0.00 in0.0 mm 0.00 in0.0 mm 0.11 in2.8 mm
02:06 PM 45.5°F7.5°C 32.1°F0.1°C 59% 5.0 mph NNE8.0 kmh NNE 6.0 mph9.7 kmh 30.55 in1034.5 mb 0.00 in0.0 mm 0.00 in0.0 mm 0.11 in2.8 mm
02:07 PM 45.5°F7.5°C 32.1°F0.1°C 59% 3.0 mph NNW4.8 kmh NNW 6.0 mph9.7 kmh 30.55 in1034.5 mb 0.00 in0.0 mm 0.00 in0.0 mm 0.11 in2.8 mm
02:08 PM 45.5°F7.5°C 32.1°F0.1°C 59% 6.0 mph NNE9.7 kmh NNE 6.0 mph9.7 kmh 30.55 in1034.5 mb 0.00 in0.0 mm 0.00 in0.0 mm 0.11 in2.8 mm
02:09 PM 45.5°F7.5°C 32.1°F0.1°C 59% 2.0 mph E3.2 kmh E 6.0 mph9.7 kmh 30.55 in1034.5 mb 0.00 in0.0 mm 0.00 in0.0 mm 0.11 in2.8 mm
02:10 PM 45.5°F7.5°C 32.5°F0.3°C 60% 3.0 mph E4.8 kmh E 6.0 mph9.7 kmh 30.55 in1034.5 mb 0.00 in0.0 mm 0.00 in0.0 mm 0.11 in2.8 mm
02:11 PM 45.2°F7.3°C 32.2°F0.1°C 60% 3.0 mph NNW4.8 kmh NNW 6.0 mph9.7 kmh 30.56 in1034.9 mb 0.00 in0.0 mm 0.00 in0.0 mm 0.11 in2.8 mm
02:12 PM 45.2°F7.3°C 32.2°F0.1°C 60% 2.0 mph NNE3.2 kmh NNE 6.0 mph9.7 kmh 30.56 in1034.9 mb 0.00 in0.0 mm 0.00 in0.0 mm 0.11 in2.8 mm
02:13 PM 45.2°F7.3°C 32.2°F0.1°C 60% 2.0 mph W3.2 kmh W 6.0 mph9.7 kmh 30.56 in1034.9 mb 0.00 in0.0 mm 0.00 in0.0 mm 0.11 in2.8 mm
02:14 PM 45.2°F7.3°C 32.2°F0.1°C 60% 3.0 mph NNE4.8 kmh NNE 6.0 mph9.7 kmh 30.56 in1034.9 mb 0.00 in0.0 mm 0.00 in0.0 mm 0.11 in2.8 mm
02:15 PM 45.2°F7.3°C 32.2°F0.1°C 60% 3.0 mph ENE4.8 kmh ENE 6.0 mph9.7 kmh 30.56 in1034.9 mb 0.00 in0.0 mm 0.00 in0.0 mm 0.11 in2.8 mm
02:16 PM 45.2°F7.3°C 32.2°F0.1°C 60% 5.0 mph W8.0 kmh W 6.0 mph9.7 kmh 30.56 in1034.9 mb 0.00 in0.0 mm 0.00 in0.0 mm 0.11 in2.8 mm
02:17 PM 45.2°F7.3°C 32.2°F0.1°C 60% 4.0 mph 6.4 kmh 6.0 mph9.7 kmh 30.55 in1034.5 mb 0.00 in0.0 mm 0.00 in0.0 mm 0.11 in2.8 mm
02:18 PM 45.2°F7.3°C 32.2°F0.1°C 60% 1.0 mph WSW1.6 kmh WSW 6.0 mph9.7 kmh 30.55 in1034.5 mb 0.00 in0.0 mm 0.00 in0.0 mm 0.11 in2.8 mm
02:19 PM 45.0°F7.2°C 32.4°F0.2°C 61% 3.0 mph 4.8 kmh 5.0 mph8.0 kmh 30.55 in1034.5 mb 0.00 in0.0 mm 0.00 in0.0 mm 0.11 in2.8 mm
02:20 PM 45.0°F7.2°C 32.4°F0.2°C 61% 1.0 mph SW1.6 kmh SW 5.0 mph8.0 kmh 30.55 in1034.5 mb 0.00 in0.0 mm 0.00 in0.0 mm 0.11 in2.8 mm
02:21 PM 45.0°F7.2°C 32.4°F0.2°C 61% 2.0 mph 3.2 kmh 5.0 mph8.0 kmh 30.55 in1034.5 mb 0.00 in0.0 mm 0.00 in0.0 mm 0.11 in2.8 mm
02:22 PM 45.0°F7.2°C 32.4°F0.2°C 61% 2.0 mph WNW3.2 kmh WNW 5.0 mph8.0 kmh 30.55 in1034.5 mb 0.00 in0.0 mm 0.00 in0.0 mm 0.11 in2.8 mm
02:23 PM 45.0°F7.2°C 32.4°F0.2°C 61% 3.0 mph NNW4.8 kmh NNW 6.0 mph9.7 kmh 30.54 in1034.2 mb 0.00 in0.0 mm 0.00 in0.0 mm 0.11 in2.8 mm
02:24 PM 45.0°F7.2°C 32.4°F0.2°C 61% 5.0 mph ENE8.0 kmh ENE 6.0 mph9.7 kmh 30.54 in1034.2 mb 0.00 in0.0 mm 0.00 in0.0 mm 0.11 in2.8 mm
02:25 PM 45.0°F7.2°C 32.4°F0.2°C 61% 3.0 mph 4.8 kmh 6.0 mph9.7 kmh 30.55 in1034.5 mb 0.00 in0.0 mm 0.00 in0.0 mm 0.11 in2.8 mm
02:26 PM 45.0°F7.2°C 32.4°F0.2°C 61% 2.0 mph NNE3.2 kmh NNE 6.0 mph9.7 kmh 30.55 in1034.5 mb 0.00 in0.0 mm 0.00 in0.0 mm 0.11 in2.8 mm
02:27 PM 45.0°F7.2°C 32.4°F0.2°C 61% 2.0 mph NNE3.2 kmh NNE 6.0 mph9.7 kmh 30.55 in1034.5 mb 0.00 in0.0 mm 0.00 in0.0 mm 0.11 in2.8 mm
02:28 PM 45.0°F7.2°C 32.0°F0.0°C 60% 2.0 mph W3.2 kmh W 6.0 mph9.7 kmh 30.55 in1034.5 mb 0.00 in0.0 mm 0.00 in0.0 mm 0.11 in2.8 mm
02:29 PM 45.0°F7.2°C 32.0°F0.0°C 60% 4.0 mph NW6.4 kmh NW 6.0 mph9.7 kmh 30.55 in1034.5 mb 0.00 in0.0 mm 0.00 in0.0 mm 0.11 in2.8 mm
02:30 PM 45.0°F7.2°C 32.4°F0.2°C 61% 2.0 mph 3.2 kmh 6.0 mph9.7 kmh 30.55 in1034.5 mb 0.00 in0.0 mm 0.00 in0.0 mm 0.11 in2.8 mm
02:31 PM 45.0°F7.2°C 32.4°F0.2°C 61% 2.0 mph E3.2 kmh E 6.0 mph9.7 kmh 30.55 in1034.5 mb 0.00 in0.0 mm 0.00 in0.0 mm 0.11 in2.8 mm
02:32 PM 45.0°F7.2°C 32.0°F0.0°C 60% 3.0 mph E4.8 kmh E 6.0 mph9.7 kmh 30.55 in1034.5 mb 0.00 in0.0 mm 0.00 in0.0 mm 0.11 in2.8 mm
02:33 PM 45.0°F7.2°C 32.0°F0.0°C 60% 2.0 mph NNE3.2 kmh NNE 5.0 mph8.0 kmh 30.55 in1034.5 mb 0.00 in0.0 mm 0.00 in0.0 mm 0.11 in2.8 mm
02:34 PM 45.0°F7.2°C 32.0°F0.0°C 60% 3.0 mph SE4.8 kmh SE 5.0 mph8.0 kmh 30.55 in1034.5 mb 0.00 in0.0 mm 0.00 in0.0 mm 0.11 in2.8 mm
02:35 PM 45.0°F7.2°C 32.0°F0.0°C 60% 3.0 mph NNE4.8 kmh NNE 5.0 mph8.0 kmh 30.54 in1034.2 mb 0.00 in0.0 mm 0.00 in0.0 mm 0.11 in2.8 mm
02:36 PM 45.0°F7.2°C 32.0°F0.0°C 60% 3.0 mph 4.8 kmh 5.0 mph8.0 kmh 30.54 in1034.2 mb 0.00 in0.0 mm 0.00 in0.0 mm 0.11 in2.8 mm
02:37 PM 45.0°F7.2°C 32.4°F0.2°C 61% 4.0 mph NNE6.4 kmh NNE 5.0 mph8.0 kmh 30.54 in1034.2 mb 0.00 in0.0 mm 0.00 in0.0 mm 0.11 in2.8 mm
02:38 PM 45.0°F7.2°C 32.4°F0.2°C 61% 2.0 mph NW3.2 kmh NW 4.0 mph6.4 kmh 30.54 in1034.2 mb 0.00 in0.0 mm 0.00 in0.0 mm 0.11 in2.8 mm
02:39 PM 45.0°F7.2°C 32.0°F0.0°C 60% 4.0 mph WNW6.4 kmh WNW 7.0 mph11.3 kmh 30.54 in1034.2 mb 0.00 in0.0 mm 0.00 in0.0 mm 0.11 in2.8 mm
02:40 PM 45.0°F7.2°C 32.0°F0.0°C 60% 4.0 mph NNE6.4 kmh NNE 7.0 mph11.3 kmh 30.54 in1034.2 mb 0.00 in0.0 mm 0.00 in0.0 mm 0.11 in2.8 mm
02:41 PM 45.0°F7.2°C 32.0°F0.0°C 60% 3.0 mph 4.8 kmh 7.0 mph11.3 kmh 30.54 in1034.2 mb 0.00 in0.0 mm 0.00 in0.0 mm 0.11 in2.8 mm
02:42 PM 45.0°F7.2°C 32.0°F0.0°C 60% 4.0 mph NNW6.4 kmh NNW 7.0 mph11.3 kmh 30.54 in1034.2 mb 0.00 in0.0 mm 0.00 in0.0 mm 0.11 in2.8 mm
02:43 PM 45.0°F7.2°C 32.0°F0.0°C 60% 2.0 mph ENE3.2 kmh ENE 7.0 mph11.3 kmh 30.54 in1034.2 mb 0.00 in0.0 mm 0.00 in0.0 mm 0.11 in2.8 mm
02:44 PM 45.0°F7.2°C 32.4°F0.2°C 61% 1.0 mph NE1.6 kmh NE 7.0 mph11.3 kmh 30.54 in1034.2 mb 0.00 in0.0 mm 0.00 in0.0 mm 0.11 in2.8 mm
02:45 PM 45.0°F7.2°C 32.4°F0.2°C 61% 2.0 mph NNE3.2 kmh NNE 7.0 mph11.3 kmh 30.54 in1034.2 mb 0.00 in0.0 mm 0.00 in0.0 mm 0.11 in2.8 mm
02:46 PM 45.0°F7.2°C 32.4°F0.2°C 61% 2.0 mph WSW3.2 kmh WSW 7.0 mph11.3 kmh 30.54 in1034.2 mb 0.00 in0.0 mm 0.00 in0.0 mm 0.11 in2.8 mm
02:47 PM 45.0°F7.2°C 32.4°F0.2°C 61% 2.0 mph ENE3.2 kmh ENE 7.0 mph11.3 kmh 30.53 in1033.9 mb 0.00 in0.0 mm 0.00 in0.0 mm 0.11 in2.8 mm
02:48 PM 45.0°F7.2°C 32.4°F0.2°C 61% 5.0 mph NNW8.0 kmh NNW 7.0 mph11.3 kmh 30.53 in1033.9 mb 0.00 in0.0 mm 0.00 in0.0 mm 0.11 in2.8 mm
02:49 PM 45.0°F7.2°C 32.0°F0.0°C 60% 5.0 mph NNW8.0 kmh NNW 5.0 mph8.0 kmh 30.53 in1033.9 mb 0.00 in0.0 mm 0.00 in0.0 mm 0.11 in2.8 mm
02:50 PM 45.0°F7.2°C 32.0°F0.0°C 60% 2.0 mph SW3.2 kmh SW 5.0 mph8.0 kmh 30.53 in1033.9 mb 0.00 in0.0 mm 0.00 in0.0 mm 0.11 in2.8 mm
02:51 PM 45.0°F7.2°C 32.0°F0.0°C 60% 3.0 mph ESE4.8 kmh ESE 5.0 mph8.0 kmh 30.53 in1033.9 mb 0.00 in0.0 mm 0.00 in0.0 mm 0.11 in2.8 mm
02:52 PM 45.0°F7.2°C 32.0°F0.0°C 60% 4.0 mph NNE6.4 kmh NNE 5.0 mph8.0 kmh 30.53 in1033.9 mb 0.00 in0.0 mm 0.00 in0.0 mm 0.11 in2.8 mm
02:53 PM 45.0°F7.2°C 32.0°F0.0°C 60% 2.0 mph NNW3.2 kmh NNW 5.0 mph8.0 kmh 30.53 in1033.9 mb 0.00 in0.0 mm 0.00 in0.0 mm 0.11 in2.8 mm
02:54 PM 45.0°F7.2°C 32.0°F0.0°C 60% 2.0 mph NNW3.2 kmh NNW 5.0 mph8.0 kmh 30.53 in1033.9 mb 0.00 in0.0 mm 0.00 in0.0 mm 0.11 in2.8 mm
02:55 PM 45.0°F7.2°C 32.0°F0.0°C 60% 2.0 mph NNE3.2 kmh NNE 5.0 mph8.0 kmh 30.53 in1033.9 mb 0.00 in0.0 mm 0.00 in0.0 mm 0.11 in2.8 mm
02:56 PM 45.0°F7.2°C 32.0°F0.0°C 60% 1.0 mph NE1.6 kmh NE 5.0 mph8.0 kmh 30.53 in1033.9 mb 0.00 in0.0 mm 0.00 in0.0 mm 0.11 in2.8 mm
02:57 PM 45.0°F7.2°C 32.0°F0.0°C 60% 1.0 mph NNW1.6 kmh NNW 5.0 mph8.0 kmh 30.54 in1034.2 mb 0.00 in0.0 mm 0.00 in0.0 mm 0.11 in2.8 mm
02:58 PM 45.0°F7.2°C 32.0°F0.0°C 60% Calm Calm 5.0 mph8.0 kmh 30.54 in1034.2 mb 0.00 in0.0 mm 0.00 in0.0 mm 0.11 in2.8 mm
02:59 PM 45.0°F7.2°C 32.0°F0.0°C 60% Calm Calm 4.0 mph6.4 kmh 30.54 in1034.2 mb 0.00 in0.0 mm 0.00 in0.0 mm 0.11 in2.8 mm
03:00 PM 45.0°F7.2°C 32.4°F0.2°C 61% 2.0 mph 3.2 kmh 4.0 mph6.4 kmh 30.54 in1034.2 mb 0.00 in0.0 mm 0.00 in0.0 mm 0.11 in2.8 mm
03:01 PM 45.0°F7.2°C 32.4°F0.2°C 61% 2.0 mph NW3.2 kmh NW 4.0 mph6.4 kmh 30.54 in1034.2 mb 0.00 in0.0 mm 0.00 in0.0 mm 0.11 in2.8 mm
03:02 PM 45.0°F7.2°C 32.4°F0.2°C 61% 2.0 mph 3.2 kmh 4.0 mph6.4 kmh 30.54 in1034.2 mb 0.00 in0.0 mm 0.00 in0.0 mm 0.11 in2.8 mm
03:03 PM 45.0°F7.2°C 32.4°F0.2°C 61% 4.0 mph NE6.4 kmh NE 4.0 mph6.4 kmh 30.54 in1034.2 mb 0.00 in0.0 mm 0.00 in0.0 mm 0.11 in2.8 mm
03:04 PM 45.0°F7.2°C 32.4°F0.2°C 61% 3.0 mph NNE4.8 kmh NNE 4.0 mph6.4 kmh 30.54 in1034.2 mb 0.00 in0.0 mm 0.00 in0.0 mm 0.11 in2.8 mm
03:05 PM 45.0°F7.2°C 32.4°F0.2°C 61% 3.0 mph NW4.8 kmh NW 4.0 mph6.4 kmh 30.53 in1033.9 mb 0.00 in0.0 mm 0.00 in0.0 mm 0.11 in2.8 mm
03:06 PM 45.0°F7.2°C 32.4°F0.2°C 61% 5.0 mph NNW8.0 kmh NNW 5.0 mph8.0 kmh 30.53 in1033.9 mb 0.00 in0.0 mm 0.00 in0.0 mm 0.11 in2.8 mm
03:07 PM 44.8°F7.1°C 32.2°F0.1°C 61% 3.0 mph NE4.8 kmh NE 5.0 mph8.0 kmh 30.53 in1033.9 mb 0.00 in0.0 mm 0.00 in0.0 mm 0.11 in2.8 mm
03:08 PM 44.8°F7.1°C 32.2°F0.1°C 61% 2.0 mph W3.2 kmh W 5.0 mph8.0 kmh 30.53 in1033.9 mb 0.00 in0.0 mm 0.00 in0.0 mm 0.11 in2.8 mm
03:09 PM 44.8°F7.1°C 33.1°F0.6°C 63% 2.0 mph NW3.2 kmh NW 5.0 mph8.0 kmh 30.53 in1033.9 mb 0.00 in0.0 mm 0.00 in0.0 mm 0.11 in2.8 mm
03:10 PM 44.8°F7.1°C 33.1°F0.6°C 63% 3.0 mph NW4.8 kmh NW 5.0 mph8.0 kmh 30.53 in1033.9 mb 0.00 in0.0 mm 0.00 in0.0 mm 0.11 in2.8 mm
03:11 PM 44.6°F7.0°C 32.9°F0.5°C 63% 2.0 mph W3.2 kmh W 5.0 mph8.0 kmh 30.53 in1033.9 mb 0.00 in0.0 mm 0.00 in0.0 mm 0.11 in2.8 mm
03:12 PM 44.6°F7.0°C 32.9°F0.5°C 63% 1.0 mph NE1.6 kmh NE 5.0 mph8.0 kmh 30.53 in1033.9 mb 0.00 in0.0 mm 0.00 in0.0 mm 0.11 in2.8 mm
03:13 PM 44.6°F7.0°C 32.9°F0.5°C 63% 2.0 mph NW3.2 kmh NW 5.0 mph8.0 kmh 30.54 in1034.2 mb 0.00 in0.0 mm 0.00 in0.0 mm 0.11 in2.8 mm
03:14 PM 44.6°F7.0°C 32.9°F0.5°C 63% 3.0 mph NE4.8 kmh NE 5.0 mph8.0 kmh 30.54 in1034.2 mb 0.00 in0.0 mm 0.00 in0.0 mm 0.11 in2.8 mm
03:15 PM 44.6°F7.0°C 32.9°F0.5°C 63% 2.0 mph W3.2 kmh W 5.0 mph8.0 kmh 30.55 in1034.5 mb 0.00 in0.0 mm 0.00 in0.0 mm 0.11 in2.8 mm
03:16 PM 44.6°F7.0°C 32.9°F0.5°C 63% 4.0 mph SE6.4 kmh SE 4.0 mph6.4 kmh 30.55 in1034.5 mb 0.00 in0.0 mm 0.00 in0.0 mm 0.11 in2.8 mm
03:17 PM 44.6°F7.0°C 32.9°F0.5°C 63% 2.0 mph NNE3.2 kmh NNE 4.0 mph6.4 kmh 30.56 in1034.9 mb 0.00 in0.0 mm 0.00 in0.0 mm 0.11 in2.8 mm
03:18 PM 44.6°F7.0°C 32.9°F0.5°C 63% 1.0 mph NNE1.6 kmh NNE 4.0 mph6.4 kmh 30.56 in1034.9 mb 0.00 in0.0 mm 0.00 in0.0 mm 0.11 in2.8 mm
03:19 PM 44.6°F7.0°C 32.9°F0.5°C 63% 2.0 mph NNE3.2 kmh NNE 4.0 mph6.4 kmh 30.56 in1034.9 mb 0.00 in0.0 mm 0.00 in0.0 mm 0.11 in2.8 mm
03:20 PM 44.6°F7.0°C 32.9°F0.5°C 63% 2.0 mph SW3.2 kmh SW 4.0 mph6.4 kmh 30.56 in1034.9 mb 0.00 in0.0 mm 0.00 in0.0 mm 0.11 in2.8 mm
03:21 PM 44.6°F7.0°C 33.7°F0.9°C 65% 1.0 mph SW1.6 kmh SW 4.0 mph6.4 kmh 30.56 in1034.9 mb 0.00 in0.0 mm 0.00 in0.0 mm 0.11 in2.8 mm
03:22 PM 44.6°F7.0°C 33.7°F0.9°C 65% 2.0 mph NNW3.2 kmh NNW 4.0 mph6.4 kmh 30.56 in1034.9 mb 0.00 in0.0 mm 0.00 in0.0 mm 0.11 in2.8 mm
03:23 PM 44.6°F7.0°C 33.7°F0.9°C 65% 1.0 mph NNE1.6 kmh NNE 4.0 mph6.4 kmh 30.56 in1034.9 mb 0.00 in0.0 mm 0.00 in0.0 mm 0.11 in2.8 mm
03:24 PM 44.6°F7.0°C 33.7°F0.9°C 65% 1.0 mph NNE1.6 kmh NNE 4.0 mph6.4 kmh 30.56 in1034.9 mb 0.00 in0.0 mm 0.00 in0.0 mm 0.11 in2.8 mm
03:25 PM 44.6°F7.0°C 33.7°F0.9°C 65% 1.0 mph 1.6 kmh 4.0 mph6.4 kmh 30.56 in1034.9 mb 0.00 in0.0 mm 0.00 in0.0 mm 0.11 in2.8 mm
03:26 PM 44.6°F7.0°C 33.7°F0.9°C 65% Calm Calm 3.0 mph4.8 kmh 30.56 in1034.9 mb 0.00 in0.0 mm 0.00 in0.0 mm 0.11 in2.8 mm
03:27 PM 44.6°F7.0°C 33.7°F0.9°C 65% 3.0 mph ESE4.8 kmh ESE 4.0 mph6.4 kmh 30.56 in1034.9 mb 0.00 in0.0 mm 0.00 in0.0 mm 0.11 in2.8 mm
03:28 PM 44.4°F6.9°C 33.5°F0.8°C 65% 2.0 mph NE3.2 kmh NE 4.0 mph6.4 kmh 30.56 in1034.9 mb 0.00 in0.0 mm 0.00 in0.0 mm 0.11 in2.8 mm
03:29 PM 44.4°F6.9°C 33.5°F0.8°C 65% 1.0 mph ESE1.6 kmh ESE 4.0 mph6.4 kmh 30.56 in1034.9 mb 0.00 in0.0 mm 0.00 in0.0 mm 0.11 in2.8 mm
03:30 PM 44.4°F6.9°C 33.5°F0.8°C 65% 4.0 mph 6.4 kmh 5.0 mph8.0 kmh 30.56 in1034.9 mb 0.00 in0.0 mm 0.00 in0.0 mm 0.11 in2.8 mm
03:31 PM 44.2°F6.8°C 33.7°F0.9°C 66% 1.0 mph WNW1.6 kmh WNW 5.0 mph8.0 kmh 30.56 in1034.9 mb 0.00 in0.0 mm 0.00 in0.0 mm 0.11 in2.8 mm
03:32 PM 44.2°F6.8°C 33.7°F0.9°C 66% 1.0 mph NW1.6 kmh NW 5.0 mph8.0 kmh 30.56 in1034.9 mb 0.00 in0.0 mm 0.00 in0.0 mm 0.11 in2.8 mm
03:33 PM 44.2°F6.8°C 34.4°F1.3°C 68% 3.0 mph ENE4.8 kmh ENE 5.0 mph8.0 kmh 30.56 in1034.9 mb 0.00 in0.0 mm 0.00 in0.0 mm 0.11 in2.8 mm
03:34 PM 44.0°F6.7°C 34.2°F1.2°C 68% 2.0 mph S3.2 kmh S 5.0 mph8.0 kmh 30.56 in1034.9 mb 0.00 in0.0 mm 0.00 in0.0 mm 0.11 in2.8 mm
03:35 PM 44.0°F6.7°C 34.2°F1.2°C 68% 1.0 mph ESE1.6 kmh ESE 5.0 mph8.0 kmh 30.56 in1034.9 mb 0.00 in0.0 mm 0.00 in0.0 mm 0.11 in2.8 mm
03:36 PM 44.0°F6.7°C 34.2°F1.2°C 68% 1.0 mph NNW1.6 kmh NNW 5.0 mph8.0 kmh 30.55 in1034.5 mb 0.00 in0.0 mm 0.00 in0.0 mm 0.11 in2.8 mm
03:37 PM 43.9°F6.6°C 34.1°F1.2°C 68% 3.0 mph 4.8 kmh 5.0 mph8.0 kmh 30.55 in1034.5 mb 0.00 in0.0 mm 0.00 in0.0 mm 0.11 in2.8 mm
03:38 PM 43.9°F6.6°C 34.1°F1.2°C 68% 4.0 mph WNW6.4 kmh WNW 5.0 mph8.0 kmh 30.55 in1034.5 mb 0.00 in0.0 mm 0.00 in0.0 mm 0.11 in2.8 mm
03:39 PM 43.9°F6.6°C 34.1°F1.2°C 68% 2.0 mph NW3.2 kmh NW 5.0 mph8.0 kmh 30.55 in1034.5 mb 0.00 in0.0 mm 0.00 in0.0 mm 0.11 in2.8 mm
03:40 PM 43.9°F6.6°C 34.1°F1.2°C 68% 4.0 mph NNE6.4 kmh NNE 4.0 mph6.4 kmh 30.55 in1034.5 mb 0.00 in0.0 mm 0.00 in0.0 mm 0.11 in2.8 mm
03:41 PM 43.9°F6.6°C 34.1°F1.2°C 68% 5.0 mph NNE8.0 kmh NNE 5.0 mph8.0 kmh 30.55 in1034.5 mb 0.00 in0.0 mm 0.00 in0.0 mm 0.11 in2.8 mm
03:42 PM 43.6°F6.4°C 33.8°F1.0°C 68% 3.0 mph WNW4.8 kmh WNW 5.0 mph8.0 kmh 30.55 in1034.5 mb 0.00 in0.0 mm 0.00 in0.0 mm 0.11 in2.8 mm
03:43 PM 43.6°F6.4°C 33.8°F1.0°C 68% 2.0 mph NNE3.2 kmh NNE 5.0 mph8.0 kmh 30.55 in1034.5 mb 0.00 in0.0 mm 0.00 in0.0 mm 0.11 in2.8 mm
03:44 PM 43.6°F6.4°C 33.8°F1.0°C 68% 2.0 mph NNE3.2 kmh NNE 5.0 mph8.0 kmh 30.55 in1034.5 mb 0.00 in0.0 mm 0.00 in0.0 mm 0.11 in2.8 mm
03:45 PM 43.6°F6.4°C 33.8°F1.0°C 68% 3.0 mph NE4.8 kmh NE 5.0 mph8.0 kmh 30.55 in1034.5 mb 0.00 in0.0 mm 0.00 in0.0 mm 0.11 in2.8 mm
03:46 PM 43.6°F6.4°C 33.8°F1.0°C 68% 5.0 mph ENE8.0 kmh ENE 5.0 mph8.0 kmh 30.55 in1034.5 mb 0.00 in0.0 mm 0.00 in0.0 mm 0.11 in2.8 mm
03:48 PM 43.6°F6.4°C 33.1°F0.6°C 66% 4.0 mph ENE6.4 kmh ENE 5.0 mph8.0 kmh 30.56 in1034.9 mb 0.00 in0.0 mm 0.00 in0.0 mm 0.11 in2.8 mm
03:49 PM 43.6°F6.4°C 33.1°F0.6°C 66% 3.0 mph NNW4.8 kmh NNW 5.0 mph8.0 kmh 30.55 in1034.5 mb 0.00 in0.0 mm 0.00 in0.0 mm 0.11 in2.8 mm
03:50 PM 43.6°F6.4°C 33.1°F0.6°C 66% 4.0 mph NNW6.4 kmh NNW 6.0 mph9.7 kmh 30.55 in1034.5 mb 0.00 in0.0 mm 0.00 in0.0 mm 0.11 in2.8 mm
03:51 PM 43.6°F6.4°C 33.1°F0.6°C 66% 2.0 mph 3.2 kmh 6.0 mph9.7 kmh 30.56 in1034.9 mb 0.00 in0.0 mm 0.00 in0.0 mm 0.11 in2.8 mm
03:52 PM 43.6°F6.4°C 33.1°F0.6°C 66% 2.0 mph W3.2 kmh W 6.0 mph9.7 kmh 30.56 in1034.9 mb 0.00 in0.0 mm 0.00 in0.0 mm 0.11 in2.8 mm
03:53 PM 43.6°F6.4°C 33.8°F1.0°C 68% 5.0 mph NW8.0 kmh NW 6.0 mph9.7 kmh 30.55 in1034.5 mb 0.00 in0.0 mm 0.00 in0.0 mm 0.11 in2.8 mm
03:54 PM 43.6°F6.4°C 33.8°F1.0°C 68% 3.0 mph NW4.8 kmh NW 6.0 mph9.7 kmh 30.56 in1034.9 mb 0.00 in0.0 mm 0.00 in0.0 mm 0.11 in2.8 mm
03:55 PM 43.6°F6.4°C 33.8°F1.0°C 68% 4.0 mph NW6.4 kmh NW 6.0 mph9.7 kmh 30.56 in1034.9 mb 0.00 in0.0 mm 0.00 in0.0 mm 0.11 in2.8 mm
03:56 PM 43.6°F6.4°C 33.8°F1.0°C 68% 3.0 mph NNE4.8 kmh NNE 6.0 mph9.7 kmh 30.56 in1034.9 mb 0.00 in0.0 mm 0.00 in0.0 mm 0.11 in2.8 mm
03:57 PM 43.6°F6.4°C 33.8°F1.0°C 68% 3.0 mph NNE4.8 kmh NNE 6.0 mph9.7 kmh 30.56 in1034.9 mb 0.00 in0.0 mm 0.00 in0.0 mm 0.11 in2.8 mm
03:58 PM 43.6°F6.4°C 33.1°F0.6°C 66% 2.0 mph NNE3.2 kmh NNE 6.0 mph9.7 kmh 30.56 in1034.9 mb 0.00 in0.0 mm 0.00 in0.0 mm 0.11 in2.8 mm
03:59 PM 43.6°F6.4°C 33.1°F0.6°C 66% 1.0 mph NE1.6 kmh NE 6.0 mph9.7 kmh 30.56 in1034.9 mb 0.00 in0.0 mm 0.00 in0.0 mm 0.11 in2.8 mm
04:00 PM 43.6°F6.4°C 33.1°F0.6°C 66% 2.0 mph WNW3.2 kmh WNW 5.0 mph8.0 kmh 30.56 in1034.9 mb 0.00 in0.0 mm 0.00 in0.0 mm 0.11 in2.8 mm
04:01 PM 43.6°F6.4°C 33.1°F0.6°C 66% 2.0 mph NNW3.2 kmh NNW 5.0 mph8.0 kmh 30.56 in1034.9 mb 0.00 in0.0 mm 0.00 in0.0 mm 0.11 in2.8 mm
04:02 PM 43.6°F6.4°C 33.1°F0.6°C 66% 2.0 mph NNW3.2 kmh NNW 5.0 mph8.0 kmh 30.56 in1034.9 mb 0.00 in0.0 mm 0.00 in0.0 mm 0.11 in2.8 mm
04:03 PM 43.6°F6.4°C 33.1°F0.6°C 66% 2.0 mph 3.2 kmh 5.0 mph8.0 kmh 30.56 in1034.9 mb 0.00 in0.0 mm 0.00 in0.0 mm 0.11 in2.8 mm
04:04 PM 43.6°F6.4°C 33.1°F0.6°C 66% 3.0 mph NW4.8 kmh NW 5.0 mph8.0 kmh 30.56 in1034.9 mb 0.00 in0.0 mm 0.00 in0.0 mm 0.11 in2.8 mm
04:05 PM 43.6°F6.4°C 33.1°F0.6°C 66% 2.0 mph E3.2 kmh E 5.0 mph8.0 kmh 30.56 in1034.9 mb 0.00 in0.0 mm 0.00 in0.0 mm 0.11 in2.8 mm
04:06 PM 43.6°F6.4°C 33.1°F0.6°C 66% 2.0 mph NNE3.2 kmh NNE 4.0 mph6.4 kmh 30.56 in1034.9 mb 0.00 in0.0 mm 0.00 in0.0 mm 0.11 in2.8 mm
04:07 PM 43.6°F6.4°C 33.1°F0.6°C 66% 3.0 mph 4.8 kmh 4.0 mph6.4 kmh 30.56 in1034.9 mb 0.00 in0.0 mm 0.00 in0.0 mm 0.11 in2.8 mm
04:08 PM 43.6°F6.4°C 33.1°F0.6°C 66% 4.0 mph NNW6.4 kmh NNW 6.0 mph9.7 kmh 30.56 in1034.9 mb 0.00 in0.0 mm 0.00 in0.0 mm 0.11 in2.8 mm
04:09 PM 43.4°F6.3°C 32.9°F0.5°C 66% 3.0 mph NNE4.8 kmh NNE 6.0 mph9.7 kmh 30.57 in1035.2 mb 0.00 in0.0 mm 0.00 in0.0 mm 0.11 in2.8 mm
04:10 PM 43.4°F6.3°C 32.9°F0.5°C 66% 2.0 mph NW3.2 kmh NW 6.0 mph9.7 kmh 30.57 in1035.2 mb 0.00 in0.0 mm 0.00 in0.0 mm 0.11 in2.8 mm
04:11 PM 43.4°F6.3°C 32.9°F0.5°C 66% 3.0 mph NW4.8 kmh NW 6.0 mph9.7 kmh 30.57 in1035.2 mb 0.00 in0.0 mm 0.00 in0.0 mm 0.11 in2.8 mm
04:12 PM 43.4°F6.3°C 32.9°F0.5°C 66% 4.0 mph NW6.4 kmh NW 6.0 mph9.7 kmh 30.57 in1035.2 mb 0.00 in0.0 mm 0.00 in0.0 mm 0.11 in2.8 mm
04:13 PM 43.4°F6.3°C 32.9°F0.5°C 66% 3.0 mph ENE4.8 kmh ENE 6.0 mph9.7 kmh 30.57 in1035.2 mb 0.00 in0.0 mm 0.00 in0.0 mm 0.11 in2.8 mm
04:14 PM 43.4°F6.3°C 32.9°F0.5°C 66% 3.0 mph NNE4.8 kmh NNE 6.0 mph9.7 kmh 30.57 in1035.2 mb 0.00 in0.0 mm 0.00 in0.0 mm 0.11 in2.8 mm
04:15 PM 43.4°F6.3°C 32.9°F0.5°C 66% 2.0 mph 3.2 kmh 6.0 mph9.7 kmh 30.57 in1035.2 mb 0.00 in0.0 mm 0.00 in0.0 mm 0.11 in2.8 mm
04:16 PM 43.4°F6.3°C 32.9°F0.5°C 66% 2.0 mph NNE3.2 kmh NNE 6.0 mph9.7 kmh 30.57 in1035.2 mb 0.00 in0.0 mm 0.00 in0.0 mm 0.11 in2.8 mm
04:17 PM 43.4°F6.3°C 32.9°F0.5°C 66% 2.0 mph 3.2 kmh 6.0 mph9.7 kmh 30.56 in1034.9 mb 0.00 in0.0 mm 0.00 in0.0 mm 0.11 in2.8 mm
04:18 PM 43.4°F6.3°C 33.6°F0.9°C 68% 2.0 mph NNW3.2 kmh NNW 5.0 mph8.0 kmh 30.56 in1034.9 mb 0.00 in0.0 mm 0.00 in0.0 mm 0.11 in2.8 mm
04:19 PM 43.4°F6.3°C 33.6°F0.9°C 68% 1.0 mph NE1.6 kmh NE 5.0 mph8.0 kmh 30.56 in1034.9 mb 0.00 in0.0 mm 0.00 in0.0 mm 0.11 in2.8 mm
04:20 PM 43.4°F6.3°C 33.6°F0.9°C 68% 3.0 mph NW4.8 kmh NW 5.0 mph8.0 kmh 30.56 in1034.9 mb 0.00 in0.0 mm 0.00 in0.0 mm 0.11 in2.8 mm
04:21 PM 43.2°F6.2°C 33.4°F0.8°C 68% 2.0 mph NW3.2 kmh NW 4.0 mph6.4 kmh 30.56 in1034.9 mb 0.00 in0.0 mm 0.00 in0.0 mm 0.11 in2.8 mm
04:22 PM 43.2°F6.2°C 33.4°F0.8°C 68% 4.0 mph NNW6.4 kmh NNW 4.0 mph6.4 kmh 30.56 in1034.9 mb 0.00 in0.0 mm 0.00 in0.0 mm 0.11 in2.8 mm
04:23 PM 43.2°F6.2°C 33.4°F0.8°C 68% 2.0 mph NNW3.2 kmh NNW 4.0 mph6.4 kmh 30.56 in1034.9 mb 0.00 in0.0 mm 0.00 in0.0 mm 0.11 in2.8 mm
04:24 PM 43.2°F6.2°C 33.4°F0.8°C 68% 3.0 mph ENE4.8 kmh ENE 4.0 mph6.4 kmh 30.56 in1034.9 mb 0.00 in0.0 mm 0.00 in0.0 mm 0.11 in2.8 mm
04:25 PM 43.2°F6.2°C 33.4°F0.8°C 68% 2.0 mph NNE3.2 kmh NNE 4.0 mph6.4 kmh 30.56 in1034.9 mb 0.00 in0.0 mm 0.00 in0.0 mm 0.11 in2.8 mm
04:26 PM 43.2°F6.2°C 33.4°F0.8°C 68% 3.0 mph NE4.8 kmh NE 4.0 mph6.4 kmh 30.56 in1034.9 mb 0.00 in0.0 mm 0.00 in0.0 mm 0.11 in2.8 mm
04:27 PM 43.2°F6.2°C 33.8°F1.0°C 69% 2.0 mph NW3.2 kmh NW 4.0 mph6.4 kmh 30.56 in1034.9 mb 0.00 in0.0 mm 0.00 in0.0 mm 0.11 in2.8 mm
04:28 PM 43.2°F6.2°C 33.8°F1.0°C 69% 6.0 mph NNE9.7 kmh NNE 6.0 mph9.7 kmh 30.56 in1034.9 mb 0.00 in0.0 mm 0.00 in0.0 mm 0.11 in2.8 mm
04:29 PM 43.2°F6.2°C 33.8°F1.0°C 69% 2.0 mph NNW3.2 kmh NNW 6.0 mph9.7 kmh 30.56 in1034.9 mb 0.00 in0.0 mm 0.00 in0.0 mm 0.11 in2.8 mm
04:30 PM 43.2°F6.2°C 33.8°F1.0°C 69% 3.0 mph ENE4.8 kmh ENE 6.0 mph9.7 kmh 30.56 in1034.9 mb 0.00 in0.0 mm 0.00 in0.0 mm 0.11 in2.8 mm
04:31 PM 43.2°F6.2°C 34.2°F1.2°C 70% 2.0 mph NE3.2 kmh NE 6.0 mph9.7 kmh 30.56 in1034.9 mb 0.00 in0.0 mm 0.00 in0.0 mm 0.11 in2.8 mm
04:32 PM 43.2°F6.2°C 34.2°F1.2°C 70% 2.0 mph NNE3.2 kmh NNE 6.0 mph9.7 kmh 30.56 in1034.9 mb 0.00 in0.0 mm 0.00 in0.0 mm 0.11 in2.8 mm
04:33 PM 43.2°F6.2°C 34.2°F1.2°C 70% 4.0 mph 6.4 kmh 6.0 mph9.7 kmh 30.57 in1035.2 mb 0.00 in0.0 mm 0.00 in0.0 mm 0.11 in2.8 mm
04:34 PM 43.2°F6.2°C 34.2°F1.2°C 70% 4.0 mph 6.4 kmh 8.0 mph12.9 kmh 30.57 in1035.2 mb 0.00 in0.0 mm 0.00 in0.0 mm 0.11 in2.8 mm
04:35 PM 43.2°F6.2°C 34.2°F1.2°C 70% 4.0 mph NNE6.4 kmh NNE 8.0 mph12.9 kmh 30.57 in1035.2 mb 0.00 in0.0 mm 0.00 in0.0 mm 0.11 in2.8 mm
04:36 PM 43.2°F6.2°C 34.2°F1.2°C 70% 4.0 mph NW6.4 kmh NW 8.0 mph12.9 kmh 30.57 in1035.2 mb 0.00 in0.0 mm 0.00 in0.0 mm 0.11 in2.8 mm
04:37 PM 43.2°F6.2°C 34.5°F1.4°C 71% 4.0 mph NE6.4 kmh NE 8.0 mph12.9 kmh 30.57 in1035.2 mb 0.00 in0.0 mm 0.00 in0.0 mm 0.11 in2.8 mm
04:38 PM 43.0°F6.1°C 34.3°F1.3°C 71% 3.0 mph NNE4.8 kmh NNE 8.0 mph12.9 kmh 30.57 in1035.2 mb 0.00 in0.0 mm 0.00 in0.0 mm 0.11 in2.8 mm
04:39 PM 43.0°F6.1°C 34.3°F1.3°C 71% 4.0 mph NNE6.4 kmh NNE 8.0 mph12.9 kmh 30.57 in1035.2 mb 0.00 in0.0 mm 0.00 in0.0 mm 0.11 in2.8 mm
04:40 PM 43.0°F6.1°C 34.3°F1.3°C 71% 1.0 mph NNE1.6 kmh NNE 8.0 mph12.9 kmh 30.57 in1035.2 mb 0.00 in0.0 mm 0.00 in0.0 mm 0.11 in2.8 mm
04:41 PM 43.0°F6.1°C 34.3°F1.3°C 71% 2.0 mph W3.2 kmh W 8.0 mph12.9 kmh 30.58 in1035.6 mb 0.00 in0.0 mm 0.00 in0.0 mm 0.11 in2.8 mm
04:42 PM 43.0°F6.1°C 35.0°F1.7°C 73% 2.0 mph S3.2 kmh S 8.0 mph12.9 kmh 30.58 in1035.6 mb 0.00 in0.0 mm 0.00 in0.0 mm 0.11 in2.8 mm
04:43 PM 42.7°F5.9°C 34.7°F1.5°C 73% 3.0 mph NNE4.8 kmh NNE 8.0 mph12.9 kmh 30.58 in1035.6 mb 0.00 in0.0 mm 0.00 in0.0 mm 0.11 in2.8 mm
04:44 PM 42.7°F5.9°C 34.7°F1.5°C 73% 1.0 mph NNW1.6 kmh NNW 5.0 mph8.0 kmh 30.59 in1035.9 mb 0.00 in0.0 mm 0.00 in0.0 mm 0.11 in2.8 mm
04:45 PM 42.7°F5.9°C 34.7°F1.5°C 73% 4.0 mph NNE6.4 kmh NNE 5.0 mph8.0 kmh 30.59 in1035.9 mb 0.00 in0.0 mm 0.00 in0.0 mm 0.11 in2.8 mm
04:46 PM 42.7°F5.9°C 34.7°F1.5°C 73% 3.0 mph NNE4.8 kmh NNE 5.0 mph8.0 kmh 30.59 in1035.9 mb 0.00 in0.0 mm 0.00 in0.0 mm 0.11 in2.8 mm
04:47 PM 42.7°F5.9°C 34.7°F1.5°C 73% 4.0 mph NNE6.4 kmh NNE 5.0 mph8.0 kmh 30.58 in1035.6 mb 0.00 in0.0 mm 0.00 in0.0 mm 0.11 in2.8 mm
04:48 PM 42.5°F5.8°C 34.5°F1.4°C 73% 3.0 mph 4.8 kmh 5.0 mph8.0 kmh 30.58 in1035.6 mb 0.00 in0.0 mm 0.00 in0.0 mm 0.11 in2.8 mm
04:49 PM 42.5°F5.8°C 34.5°F1.4°C 73% 3.0 mph NNE4.8 kmh NNE 5.0 mph8.0 kmh 30.58 in1035.6 mb 0.00 in0.0 mm 0.00 in0.0 mm 0.11 in2.8 mm
04:50 PM 42.5°F5.8°C 34.9°F1.6°C 74% 4.0 mph NNE6.4 kmh NNE 5.0 mph8.0 kmh 30.58 in1035.6 mb 0.00 in0.0 mm 0.00 in0.0 mm 0.11 in2.8 mm
04:51 PM 42.5°F5.8°C 34.9°F1.6°C 74% 4.0 mph NNW6.4 kmh NNW 5.0 mph8.0 kmh 30.58 in1035.6 mb 0.00 in0.0 mm 0.00 in0.0 mm 0.11 in2.8 mm
04:52 PM 42.4°F5.8°C 35.1°F1.7°C 75% 2.0 mph NNE3.2 kmh NNE 5.0 mph8.0 kmh 30.58 in1035.6 mb 0.00 in0.0 mm 0.00 in0.0 mm 0.11 in2.8 mm
04:53 PM 42.4°F5.8°C 35.1°F1.7°C 75% 3.0 mph NNW4.8 kmh NNW 5.0 mph8.0 kmh 30.58 in1035.6 mb 0.00 in0.0 mm 0.00 in0.0 mm 0.11 in2.8 mm
04:54 PM 42.3°F5.7°C 35.0°F1.7°C 75% 4.0 mph NNE6.4 kmh NNE 5.0 mph8.0 kmh 30.58 in1035.6 mb 0.00 in0.0 mm 0.00 in0.0 mm 0.11 in2.8 mm
04:55 PM 42.3°F5.7°C 35.0°F1.7°C 75% 2.0 mph ENE3.2 kmh ENE 5.0 mph8.0 kmh 30.58 in1035.6 mb 0.00 in0.0 mm 0.00 in0.0 mm 0.11 in2.8 mm
04:56 PM 42.3°F5.7°C 35.0°F1.7°C 75% 2.0 mph 3.2 kmh 5.0 mph8.0 kmh 30.58 in1035.6 mb 0.00 in0.0 mm 0.00 in0.0 mm 0.11 in2.8 mm
04:57 PM 42.1°F5.6°C 35.1°F1.7°C 76% 6.0 mph NW9.7 kmh NW 6.0 mph9.7 kmh 30.58 in1035.6 mb 0.00 in0.0 mm 0.00 in0.0 mm 0.11 in2.8 mm
04:58 PM 42.1°F5.6°C 35.1°F1.7°C 76% 4.0 mph NNW6.4 kmh NNW 6.0 mph9.7 kmh 30.58 in1035.6 mb 0.00 in0.0 mm 0.00 in0.0 mm 0.11 in2.8 mm
04:59 PM 41.9°F5.5°C 35.6°F2.0°C 78% 3.0 mph NNE4.8 kmh NNE 6.0 mph9.7 kmh 30.58 in1035.6 mb 0.00 in0.0 mm 0.00 in0.0 mm 0.11 in2.8 mm
05:00 PM 41.9°F5.5°C 35.9°F2.2°C 79% 4.0 mph NNE6.4 kmh NNE 6.0 mph9.7 kmh 30.58 in1035.6 mb 0.00 in0.0 mm 0.00 in0.0 mm 0.11 in2.8 mm
05:01 PM 41.9°F5.5°C 35.9°F2.2°C 79% 7.0 mph NNW11.3 kmh NNW 7.0 mph11.3 kmh 30.58 in1035.6 mb 0.00 in0.0 mm 0.00 in0.0 mm 0.11 in2.8 mm
05:02 PM 41.7°F5.4°C 35.7°F2.1°C 79% 4.0 mph 6.4 kmh 7.0 mph11.3 kmh 30.58 in1035.6 mb 0.00 in0.0 mm 0.00 in0.0 mm 0.11 in2.8 mm
05:03 PM 41.5°F5.3°C 35.8°F2.1°C 80% 3.0 mph NNE4.8 kmh NNE 7.0 mph11.3 kmh 30.59 in1035.9 mb 0.00 in0.0 mm 0.00 in0.0 mm 0.11 in2.8 mm
05:04 PM 41.5°F5.3°C 35.8°F2.1°C 80% 4.0 mph WNW6.4 kmh WNW 7.0 mph11.3 kmh 30.59 in1035.9 mb 0.00 in0.0 mm 0.00 in0.0 mm 0.11 in2.8 mm
05:05 PM 41.4°F5.2°C 36.0°F2.2°C 81% 6.0 mph NW9.7 kmh NW 7.0 mph11.3 kmh 30.59 in1035.9 mb 0.00 in0.0 mm 0.00 in0.0 mm 0.11 in2.8 mm
05:06 PM 41.4°F5.2°C 36.0°F2.2°C 81% 6.0 mph NW9.7 kmh NW 7.0 mph11.3 kmh 30.59 in1035.9 mb 0.00 in0.0 mm 0.00 in0.0 mm 0.11 in2.8 mm
05:07 PM 41.4°F5.2°C 36.0°F2.2°C 81% 3.0 mph E4.8 kmh E 7.0 mph11.3 kmh 30.59 in1035.9 mb 0.00 in0.0 mm 0.00 in0.0 mm 0.11 in2.8 mm
05:08 PM 41.1°F5.1°C 36.3°F2.4°C 83% 2.0 mph E3.2 kmh E 7.0 mph11.3 kmh 30.59 in1035.9 mb 0.00 in0.0 mm 0.00 in0.0 mm 0.11 in2.8 mm
05:09 PM 41.1°F5.1°C 36.3°F2.4°C 83% 3.0 mph NNE4.8 kmh NNE 7.0 mph11.3 kmh 30.59 in1035.9 mb 0.01 in0.3 mm 0.60 in15.2 mm 0.12 in3.0 mm
05:10 PM 40.9°F4.9°C 36.1°F2.3°C 83% 4.0 mph ESE6.4 kmh ESE 7.0 mph11.3 kmh 30.59 in1035.9 mb 0.01 in0.3 mm 0.00 in0.0 mm 0.12 in3.0 mm
05:11 PM 40.9°F4.9°C 36.1°F2.3°C 83% 4.0 mph ESE6.4 kmh ESE 7.0 mph11.3 kmh 30.59 in1035.9 mb 0.01 in0.3 mm 0.00 in0.0 mm 0.12 in3.0 mm
05:12 PM 40.7°F4.8°C 36.5°F2.5°C 85% 3.0 mph 4.8 kmh 6.0 mph9.7 kmh 30.59 in1035.9 mb 0.02 in0.5 mm 0.60 in15.2 mm 0.13 in3.3 mm
05:13 PM 40.7°F4.8°C 36.5°F2.5°C 85% 2.0 mph NW3.2 kmh NW 6.0 mph9.7 kmh 30.59 in1035.9 mb 0.02 in0.5 mm 0.00 in0.0 mm 0.13 in3.3 mm
05:14 PM 40.7°F4.8°C 36.8°F2.7°C 86% 2.0 mph NW3.2 kmh NW 6.0 mph9.7 kmh 30.59 in1035.9 mb 0.02 in0.5 mm 0.00 in0.0 mm 0.13 in3.3 mm
05:15 PM 40.5°F4.7°C 37.2°F2.9°C 88% 3.0 mph NNE4.8 kmh NNE 6.0 mph9.7 kmh 30.59 in1035.9 mb 0.03 in0.8 mm 0.60 in15.2 mm 0.14 in3.6 mm
05:16 PM 40.5°F4.7°C 37.2°F2.9°C 88% 3.0 mph 4.8 kmh 6.0 mph9.7 kmh 30.59 in1035.9 mb 0.03 in0.8 mm 0.00 in0.0 mm 0.14 in3.6 mm
05:17 PM 40.2°F4.6°C 36.9°F2.7°C 88% 2.0 mph NNW3.2 kmh NNW 6.0 mph9.7 kmh 30.59 in1035.9 mb 0.03 in0.8 mm 0.00 in0.0 mm 0.14 in3.6 mm
05:18 PM 40.2°F4.6°C 36.9°F2.7°C 88% 3.0 mph NNE4.8 kmh NNE 6.0 mph9.7 kmh 30.59 in1035.9 mb 0.03 in0.8 mm 0.00 in0.0 mm 0.14 in3.6 mm
05:19 PM 40.2°F4.6°C 37.5°F3.1°C 90% 3.0 mph NNE4.8 kmh NNE 6.0 mph9.7 kmh 30.58 in1035.6 mb 0.04 in1.0 mm 0.60 in15.2 mm 0.15 in3.8 mm
05:20 PM 40.0°F4.4°C 37.5°F3.1°C 91% 4.0 mph NNW6.4 kmh NNW 6.0 mph9.7 kmh 30.58 in1035.6 mb 0.04 in1.0 mm 0.00 in0.0 mm 0.15 in3.8 mm
05:21 PM 39.9°F4.4°C 37.4°F3.0°C 91% 3.0 mph 4.8 kmh 6.0 mph9.7 kmh 30.59 in1035.9 mb 0.04 in1.0 mm 0.00 in0.0 mm 0.15 in3.8 mm
05:22 PM 39.9°F4.4°C 37.4°F3.0°C 91% 3.0 mph NNE4.8 kmh NNE 6.0 mph9.7 kmh 30.59 in1035.9 mb 0.04 in1.0 mm 0.00 in0.0 mm 0.15 in3.8 mm
05:23 PM 39.7°F4.3°C 37.2°F2.9°C 91% 5.0 mph NNE8.0 kmh NNE 6.0 mph9.7 kmh 30.59 in1035.9 mb 0.04 in1.0 mm 0.00 in0.0 mm 0.15 in3.8 mm
05:24 PM 39.5°F4.2°C 37.6°F3.1°C 93% 2.0 mph NNW3.2 kmh NNW 6.0 mph9.7 kmh 30.59 in1035.9 mb 0.04 in1.0 mm 0.00 in0.0 mm 0.15 in3.8 mm
05:25 PM 39.5°F4.2°C 37.6°F3.1°C 93% 3.0 mph NNE4.8 kmh NNE 5.0 mph8.0 kmh 30.60 in1036.2 mb 0.04 in1.0 mm 0.00 in0.0 mm 0.15 in3.8 mm
05:26 PM 39.5°F4.2°C 37.6°F3.1°C 93% 2.0 mph ENE3.2 kmh ENE 5.0 mph8.0 kmh 30.60 in1036.2 mb 0.04 in1.0 mm 0.00 in0.0 mm 0.15 in3.8 mm
05:27 PM 39.5°F4.2°C 37.6°F3.1°C 93% 2.0 mph 3.2 kmh 5.0 mph8.0 kmh 30.59 in1035.9 mb 0.04 in1.0 mm 0.00 in0.0 mm 0.15 in3.8 mm
05:28 PM 39.5°F4.2°C 37.6°F3.1°C 93% 2.0 mph NNE3.2 kmh NNE 5.0 mph8.0 kmh 30.59 in1035.9 mb 0.04 in1.0 mm 0.00 in0.0 mm 0.15 in3.8 mm
05:29 PM 39.5°F4.2°C 37.6°F3.1°C 93% 2.0 mph NE3.2 kmh NE 5.0 mph8.0 kmh 30.59 in1035.9 mb 0.04 in1.0 mm 0.00 in0.0 mm 0.15 in3.8 mm
05:30 PM 39.5°F4.2°C 37.6°F3.1°C 93% Calm Calm 5.0 mph8.0 kmh 30.59 in1035.9 mb 0.04 in1.0 mm 0.00 in0.0 mm 0.15 in3.8 mm
05:31 PM 39.4°F4.1°C 38.0°F3.3°C 95% 4.0 mph NE6.4 kmh NE 5.0 mph8.0 kmh 30.59 in1035.9 mb 0.04 in1.0 mm 0.00 in0.0 mm 0.15 in3.8 mm
05:32 PM 39.4°F4.1°C 38.0°F3.3°C 95% 3.0 mph NNE4.8 kmh NNE 5.0 mph8.0 kmh 30.59 in1035.9 mb 0.04 in1.0 mm 0.00 in0.0 mm 0.15 in3.8 mm
05:33 PM 39.4°F4.1°C 38.3°F3.5°C 96% 2.0 mph NE3.2 kmh NE 5.0 mph8.0 kmh 30.60 in1036.2 mb 0.04 in1.0 mm 0.00 in0.0 mm 0.15 in3.8 mm
05:34 PM 39.4°F4.1°C 38.3°F3.5°C 96% 1.0 mph NNE1.6 kmh NNE 5.0 mph8.0 kmh 30.60 in1036.2 mb 0.04 in1.0 mm 0.00 in0.0 mm 0.15 in3.8 mm
05:35 PM 39.4°F4.1°C 38.3°F3.5°C 96% 2.0 mph W3.2 kmh W 5.0 mph8.0 kmh 30.60 in1036.2 mb 0.04 in1.0 mm 0.00 in0.0 mm 0.15 in3.8 mm
05:36 PM 39.4°F4.1°C 38.3°F3.5°C 96% 2.0 mph NNE3.2 kmh NNE 5.0 mph8.0 kmh 30.60 in1036.2 mb 0.04 in1.0 mm 0.00 in0.0 mm 0.15 in3.8 mm
05:37 PM 39.4°F4.1°C 38.3°F3.5°C 96% 2.0 mph 3.2 kmh 5.0 mph8.0 kmh 30.60 in1036.2 mb 0.04 in1.0 mm 0.00 in0.0 mm 0.15 in3.8 mm
05:38 PM 39.2°F4.0°C 38.1°F3.4°C 96% 6.0 mph NNW9.7 kmh NNW 6.0 mph9.7 kmh 30.59 in1035.9 mb 0.04 in1.0 mm 0.00 in0.0 mm 0.15 in3.8 mm
05:39 PM 39.0°F3.9°C 37.9°F3.3°C 96% 3.0 mph ENE4.8 kmh ENE 7.0 mph11.3 kmh 30.60 in1036.2 mb 0.04 in1.0 mm 0.00 in0.0 mm 0.15 in3.8 mm
05:40 PM 39.0°F3.9°C 37.9°F3.3°C 96% 2.0 mph 3.2 kmh 7.0 mph11.3 kmh 30.60 in1036.2 mb 0.04 in1.0 mm 0.00 in0.0 mm 0.15 in3.8 mm
05:41 PM 39.0°F3.9°C 37.9°F3.3°C 96% 2.0 mph NNW3.2 kmh NNW 7.0 mph11.3 kmh 30.60 in1036.2 mb 0.04 in1.0 mm 0.00 in0.0 mm 0.15 in3.8 mm
05:42 PM 39.0°F3.9°C 37.9°F3.3°C 96% 3.0 mph NNE4.8 kmh NNE 7.0 mph11.3 kmh 30.60 in1036.2 mb 0.05 in1.3 mm 0.60 in15.2 mm 0.16 in4.1 mm
05:43 PM 39.0°F3.9°C 37.9°F3.3°C 96% 2.0 mph NE3.2 kmh NE 7.0 mph11.3 kmh 30.61 in1036.6 mb 0.05 in1.3 mm 0.00 in0.0 mm 0.16 in4.1 mm
05:44 PM 39.0°F3.9°C 37.9°F3.3°C 96% 1.0 mph NNW1.6 kmh NNW 7.0 mph11.3 kmh 30.61 in1036.6 mb 0.05 in1.3 mm 0.00 in0.0 mm 0.16 in4.1 mm
05:45 PM 39.0°F3.9°C 37.9°F3.3°C 96% 1.0 mph NNW1.6 kmh NNW 7.0 mph11.3 kmh 30.61 in1036.6 mb 0.05 in1.3 mm 0.00 in0.0 mm 0.16 in4.1 mm
05:46 PM 39.0°F3.9°C 37.9°F3.3°C 96% 2.0 mph NW3.2 kmh NW 7.0 mph11.3 kmh 30.61 in1036.6 mb 0.05 in1.3 mm 0.00 in0.0 mm 0.16 in4.1 mm
05:47 PM 38.7°F3.7°C 37.6°F3.1°C 96% 4.0 mph NNE6.4 kmh NNE 7.0 mph11.3 kmh 30.61 in1036.6 mb 0.05 in1.3 mm 0.00 in0.0 mm 0.16 in4.1 mm
05:48 PM 38.7°F3.7°C 37.6°F3.1°C 96% 2.0 mph NNW3.2 kmh NNW 7.0 mph11.3 kmh 30.61 in1036.6 mb 0.05 in1.3 mm 0.00 in0.0 mm 0.16 in4.1 mm
05:49 PM 38.7°F3.7°C 37.6°F3.1°C 96% 2.0 mph NE3.2 kmh NE 4.0 mph6.4 kmh 30.62 in1036.9 mb 0.05 in1.3 mm 0.00 in0.0 mm 0.16 in4.1 mm
05:50 PM 38.7°F3.7°C 37.6°F3.1°C 96% 4.0 mph NNW6.4 kmh NNW 4.0 mph6.4 kmh 30.62 in1036.9 mb 0.05 in1.3 mm 0.00 in0.0 mm 0.16 in4.1 mm
05:51 PM 38.7°F3.7°C 37.6°F3.1°C 96% 2.0 mph NNE3.2 kmh NNE 4.0 mph6.4 kmh 30.63 in1037.3 mb 0.05 in1.3 mm 0.00 in0.0 mm 0.16 in4.1 mm
05:52 PM 38.7°F3.7°C 37.6°F3.1°C 96% 2.0 mph 3.2 kmh 4.0 mph6.4 kmh 30.63 in1037.3 mb 0.05 in1.3 mm 0.00 in0.0 mm 0.16 in4.1 mm
05:53 PM 38.7°F3.7°C 37.6°F3.1°C 96% 1.0 mph ENE1.6 kmh ENE 4.0 mph6.4 kmh 30.63 in1037.3 mb 0.05 in1.3 mm 0.00 in0.0 mm 0.16 in4.1 mm
05:54 PM 38.7°F3.7°C 37.6°F3.1°C 96% 1.0 mph NNE1.6 kmh NNE 4.0 mph6.4 kmh 30.63 in1037.3 mb 0.05 in1.3 mm 0.00 in0.0 mm 0.16 in4.1 mm
05:55 PM 38.7°F3.7°C 38.2°F3.4°C 98% 1.0 mph NNE1.6 kmh NNE 4.0 mph6.4 kmh 30.63 in1037.3 mb 0.05 in1.3 mm 0.00 in0.0 mm 0.16 in4.1 mm
05:56 PM 38.7°F3.7°C 38.2°F3.4°C 98% 1.0 mph 1.6 kmh 4.0 mph6.4 kmh 30.63 in1037.3 mb 0.05 in1.3 mm 0.00 in0.0 mm 0.16 in4.1 mm
05:57 PM 38.7°F3.7°C 38.2°F3.4°C 98% 1.0 mph WSW1.6 kmh WSW 4.0 mph6.4 kmh 30.63 in1037.3 mb 0.05 in1.3 mm 0.00 in0.0 mm 0.16 in4.1 mm
05:58 PM 38.7°F3.7°C 38.2°F3.4°C 98% 2.0 mph NE3.2 kmh NE 4.0 mph6.4 kmh 30.63 in1037.3 mb 0.06 in1.5 mm 0.60 in15.2 mm 0.17 in4.3 mm
05:59 PM 38.7°F3.7°C 38.2°F3.4°C 98% 2.0 mph NW3.2 kmh NW 4.0 mph6.4 kmh 30.63 in1037.3 mb 0.06 in1.5 mm 0.00 in0.0 mm 0.17 in4.3 mm
06:00 PM 38.7°F3.7°C 38.2°F3.4°C 98% 4.0 mph NW6.4 kmh NW 4.0 mph6.4 kmh 30.63 in1037.3 mb 0.06 in1.5 mm 0.00 in0.0 mm 0.17 in4.3 mm
06:01 PM 38.4°F3.6°C 37.9°F3.3°C 98% 3.0 mph NW4.8 kmh NW 4.0 mph6.4 kmh 30.63 in1037.3 mb 0.06 in1.5 mm 0.00 in0.0 mm 0.17 in4.3 mm
06:02 PM 38.4°F3.6°C 37.9°F3.3°C 98% 1.0 mph 1.6 kmh 4.0 mph6.4 kmh 30.63 in1037.3 mb 0.06 in1.5 mm 0.00 in0.0 mm 0.17 in4.3 mm
06:03 PM 38.4°F3.6°C 37.9°F3.3°C 98% 2.0 mph NE3.2 kmh NE 4.0 mph6.4 kmh 30.63 in1037.3 mb 0.06 in1.5 mm 0.00 in0.0 mm 0.17 in4.3 mm
06:04 PM 38.4°F3.6°C 37.9°F3.3°C 98% 1.0 mph NNW1.6 kmh NNW 4.0 mph6.4 kmh 30.63 in1037.3 mb 0.06 in1.5 mm 0.00 in0.0 mm 0.17 in4.3 mm
06:05 PM 38.4°F3.6°C 37.9°F3.3°C 98% 2.0 mph NNW3.2 kmh NNW 4.0 mph6.4 kmh 30.63 in1037.3 mb 0.06 in1.5 mm 0.00 in0.0 mm 0.17 in4.3 mm
06:06 PM 38.4°F3.6°C 37.9°F3.3°C 98% 2.0 mph NNE3.2 kmh NNE 4.0 mph6.4 kmh 30.62 in1036.9 mb 0.07 in1.8 mm 0.60 in15.2 mm 0.18 in4.6 mm
06:07 PM 38.4°F3.6°C 37.9°F3.3°C 98% 1.0 mph NNE1.6 kmh NNE 4.0 mph6.4 kmh 30.62 in1036.9 mb 0.00 in0.0 mm 0.00 in0.0 mm 0.18 in4.6 mm
06:08 PM 38.2°F3.4°C 37.7°F3.2°C 98% 4.0 mph NE6.4 kmh NE 4.0 mph6.4 kmh 30.62 in1036.9 mb 0.00 in0.0 mm 0.00 in0.0 mm 0.18 in4.6 mm
06:09 PM 38.2°F3.4°C 37.7°F3.2°C 98% 4.0 mph NNE6.4 kmh NNE 5.0 mph8.0 kmh 30.62 in1036.9 mb 0.00 in0.0 mm 0.00 in0.0 mm 0.18 in4.6 mm
06:10 PM 38.0°F3.3°C 37.5°F3.1°C 98% 3.0 mph 4.8 kmh 5.0 mph8.0 kmh 30.62 in1036.9 mb 0.00 in0.0 mm 0.00 in0.0 mm 0.18 in4.6 mm
06:11 PM 38.0°F3.3°C 37.5°F3.1°C 98% 2.0 mph E3.2 kmh E 5.0 mph8.0 kmh 30.63 in1037.3 mb 0.00 in0.0 mm 0.00 in0.0 mm 0.18 in4.6 mm
06:12 PM 38.0°F3.3°C 37.5°F3.1°C 98% 2.0 mph E3.2 kmh E 5.0 mph8.0 kmh 30.63 in1037.3 mb 0.00 in0.0 mm 0.00 in0.0 mm 0.18 in4.6 mm
06:13 PM 38.0°F3.3°C 37.5°F3.1°C 98% 1.0 mph 1.6 kmh 5.0 mph8.0 kmh 30.63 in1037.3 mb 0.01 in0.3 mm 0.60 in15.2 mm 0.19 in4.8 mm
06:14 PM 38.0°F3.3°C 37.5°F3.1°C 98% 1.0 mph NE1.6 kmh NE 5.0 mph8.0 kmh 30.63 in1037.3 mb 0.01 in0.3 mm 0.00 in0.0 mm 0.19 in4.8 mm
06:15 PM 37.8°F3.2°C 37.3°F2.9°C 98% 1.0 mph NNE1.6 kmh NNE 5.0 mph8.0 kmh 30.63 in1037.3 mb 0.01 in0.3 mm 0.00 in0.0 mm 0.19 in4.8 mm
06:16 PM 37.8°F3.2°C 37.3°F2.9°C 98% 3.0 mph NE4.8 kmh NE 5.0 mph8.0 kmh 30.63 in1037.3 mb 0.01 in0.3 mm 0.00 in0.0 mm 0.19 in4.8 mm
06:17 PM 37.8°F3.2°C 37.3°F2.9°C 98% 2.0 mph NE3.2 kmh NE 5.0 mph8.0 kmh 30.63 in1037.3 mb 0.01 in0.3 mm 0.00 in0.0 mm 0.19 in4.8 mm
06:18 PM 37.8°F3.2°C 37.3°F2.9°C 98% 1.0 mph ENE1.6 kmh ENE 5.0 mph8.0 kmh 30.63 in1037.3 mb 0.01 in0.3 mm 0.00 in0.0 mm 0.19 in4.8 mm
06:19 PM 37.8°F3.2°C 37.3°F2.9°C 98% 2.0 mph 3.2 kmh 5.0 mph8.0 kmh 30.63 in1037.3 mb 0.01 in0.3 mm 0.00 in0.0 mm 0.19 in4.8 mm
06:20 PM 37.8°F3.2°C 37.3°F2.9°C 98% 2.0 mph NE3.2 kmh NE 5.0 mph8.0 kmh 30.63 in1037.3 mb 0.01 in0.3 mm 0.00 in0.0 mm 0.19 in4.8 mm
06:21 PM 37.8°F3.2°C 37.3°F2.9°C 98% 2.0 mph NNW3.2 kmh NNW 4.0 mph6.4 kmh 30.62 in1036.9 mb 0.01 in0.3 mm 0.00 in0.0 mm 0.19 in4.8 mm
06:22 PM 37.8°F3.2°C 37.3°F2.9°C 98% 3.0 mph ENE4.8 kmh ENE 4.0 mph6.4 kmh 30.62 in1036.9 mb 0.01 in0.3 mm 0.00 in0.0 mm 0.19 in4.8 mm
06:23 PM 37.7°F3.2°C 37.2°F2.9°C 98% 2.0 mph NE3.2 kmh NE 4.0 mph6.4 kmh 30.63 in1037.3 mb 0.01 in0.3 mm 0.00 in0.0 mm 0.19 in4.8 mm
06:24 PM 37.7°F3.2°C 37.2°F2.9°C 98% 2.0 mph W3.2 kmh W 4.0 mph6.4 kmh 30.63 in1037.3 mb 0.02 in0.5 mm 0.60 in15.2 mm 0.20 in5.1 mm
06:25 PM 37.7°F3.2°C 37.2°F2.9°C 98% 1.0 mph ESE1.6 kmh ESE 4.0 mph6.4 kmh 30.63 in1037.3 mb 0.02 in0.5 mm 0.00 in0.0 mm 0.20 in5.1 mm
06:26 PM 37.7°F3.2°C 37.2°F2.9°C 98% 2.0 mph 3.2 kmh 4.0 mph6.4 kmh 30.63 in1037.3 mb 0.02 in0.5 mm 0.00 in0.0 mm 0.20 in5.1 mm
06:27 PM 37.7°F3.2°C 37.2°F2.9°C 98% 2.0 mph NW3.2 kmh NW 4.0 mph6.4 kmh 30.63 in1037.3 mb 0.02 in0.5 mm 0.00 in0.0 mm 0.20 in5.1 mm
06:28 PM 37.7°F3.2°C 37.2°F2.9°C 98% 3.0 mph 4.8 kmh 4.0 mph6.4 kmh 30.63 in1037.3 mb 0.02 in0.5 mm 0.00 in0.0 mm 0.20 in5.1 mm
06:29 PM 37.7°F3.2°C 37.2°F2.9°C 98% 3.0 mph NNE4.8 kmh NNE 4.0 mph6.4 kmh 30.63 in1037.3 mb 0.02 in0.5 mm 0.00 in0.0 mm 0.20 in5.1 mm
06:30 PM 37.7°F3.2°C 37.2°F2.9°C 98% 1.0 mph NE1.6 kmh NE 4.0 mph6.4 kmh 30.63 in1037.3 mb 0.02 in0.5 mm 0.00 in0.0 mm 0.20 in5.1 mm
06:31 PM 37.5°F3.1°C 37.0°F2.8°C 98% 4.0 mph 6.4 kmh 4.0 mph6.4 kmh 30.63 in1037.3 mb 0.03 in0.8 mm 0.60 in15.2 mm 0.21 in5.3 mm
06:32 PM 37.5°F3.1°C 37.0°F2.8°C 98% 3.0 mph NNE4.8 kmh NNE 4.0 mph6.4 kmh 30.63 in1037.3 mb 0.03 in0.8 mm 0.00 in0.0 mm 0.21 in5.3 mm
06:33 PM 37.5°F3.1°C 37.0°F2.8°C 98% 4.0 mph 6.4 kmh 4.0 mph6.4 kmh 30.63 in1037.3 mb 0.03 in0.8 mm 0.00 in0.0 mm 0.21 in5.3 mm
06:34 PM 37.5°F3.1°C 37.0°F2.8°C 98% 2.0 mph NNE3.2 kmh NNE 4.0 mph6.4 kmh 30.63 in1037.3 mb 0.03 in0.8 mm 0.00 in0.0 mm 0.21 in5.3 mm
06:35 PM 37.4°F3.0°C 36.9°F2.7°C 98% 2.0 mph NNW3.2 kmh NNW 4.0 mph6.4 kmh 30.64 in1037.6 mb 0.03 in0.8 mm 0.00 in0.0 mm 0.21 in5.3 mm
06:36 PM 37.4°F3.0°C 36.9°F2.7°C 98% 1.0 mph E1.6 kmh E 4.0 mph6.4 kmh 30.63 in1037.3 mb 0.03 in0.8 mm 0.00 in0.0 mm 0.21 in5.3 mm
06:37 PM 37.4°F3.0°C 36.9°F2.7°C 98% 1.0 mph NE1.6 kmh NE 4.0 mph6.4 kmh 30.64 in1037.6 mb 0.03 in0.8 mm 0.00 in0.0 mm 0.21 in5.3 mm
06:38 PM 37.4°F3.0°C 36.9°F2.7°C 98% 2.0 mph NNE3.2 kmh NNE 4.0 mph6.4 kmh 30.63 in1037.3 mb 0.03 in0.8 mm 0.00 in0.0 mm 0.21 in5.3 mm
06:39 PM 37.4°F3.0°C 36.9°F2.7°C 98% 3.0 mph NNE4.8 kmh NNE 4.0 mph6.4 kmh 30.64 in1037.6 mb 0.03 in0.8 mm 0.00 in0.0 mm 0.21 in5.3 mm
06:40 PM 37.4°F3.0°C 36.9°F2.7°C 98% 1.0 mph SE1.6 kmh SE 4.0 mph6.4 kmh 30.64 in1037.6 mb 0.03 in0.8 mm 0.00 in0.0 mm 0.21 in5.3 mm
06:41 PM 37.4°F3.0°C 36.9°F2.7°C 98% 1.0 mph NNW1.6 kmh NNW 4.0 mph6.4 kmh 30.64 in1037.6 mb 0.03 in0.8 mm 0.00 in0.0 mm 0.21 in5.3 mm
06:42 PM 37.4°F3.0°C 36.9°F2.7°C 98% 2.0 mph 3.2 kmh 4.0 mph6.4 kmh 30.64 in1037.6 mb 0.03 in0.8 mm 0.00 in0.0 mm 0.21 in5.3 mm
06:43 PM 37.4°F3.0°C 36.9°F2.7°C 98% 3.0 mph NNE4.8 kmh NNE 3.0 mph4.8 kmh 30.64 in1037.6 mb 0.03 in0.8 mm 0.00 in0.0 mm 0.21 in5.3 mm
06:44 PM 37.2°F2.9°C 36.7°F2.6°C 98% 2.0 mph 3.2 kmh 3.0 mph4.8 kmh 30.64 in1037.6 mb 0.04 in1.0 mm 0.60 in15.2 mm 0.22 in5.6 mm
06:45 PM 37.2°F2.9°C 36.7°F2.6°C 98% 2.0 mph W3.2 kmh W 3.0 mph4.8 kmh 30.64 in1037.6 mb 0.04 in1.0 mm 0.00 in0.0 mm 0.22 in5.6 mm
06:46 PM 37.2°F2.9°C 36.7°F2.6°C 98% 3.0 mph NNE4.8 kmh NNE 3.0 mph4.8 kmh 30.64 in1037.6 mb 0.04 in1.0 mm 0.00 in0.0 mm 0.22 in5.6 mm
06:47 PM 37.2°F2.9°C 36.7°F2.6°C 98% 1.0 mph NE1.6 kmh NE 3.0 mph4.8 kmh 30.64 in1037.6 mb 0.04 in1.0 mm 0.00 in0.0 mm 0.22 in5.6 mm
06:48 PM 37.2°F2.9°C 36.7°F2.6°C 98% 2.0 mph NNW3.2 kmh NNW 3.0 mph4.8 kmh 30.64 in1037.6 mb 0.04 in1.0 mm 0.00 in0.0 mm 0.22 in5.6 mm
06:49 PM 37.2°F2.9°C 36.7°F2.6°C 98% 1.0 mph NNE1.6 kmh NNE 3.0 mph4.8 kmh 30.64 in1037.6 mb 0.04 in1.0 mm 0.00 in0.0 mm 0.22 in5.6 mm
06:50 PM 37.0°F2.8°C 36.5°F2.5°C 98% 2.0 mph NNW3.2 kmh NNW 3.0 mph4.8 kmh 30.64 in1037.6 mb 0.05 in1.3 mm 0.60 in15.2 mm 0.23 in5.8 mm
06:51 PM 37.0°F2.8°C 36.5°F2.5°C 98% 2.0 mph 3.2 kmh 3.0 mph4.8 kmh 30.65 in1037.9 mb 0.05 in1.3 mm 0.00 in0.0 mm 0.23 in5.8 mm
06:52 PM 37.0°F2.8°C 36.5°F2.5°C 98% 1.0 mph 1.6 kmh 3.0 mph4.8 kmh 30.64 in1037.6 mb 0.05 in1.3 mm 0.00 in0.0 mm 0.23 in5.8 mm
06:53 PM 37.0°F2.8°C 36.5°F2.5°C 98% 1.0 mph W1.6 kmh W 3.0 mph4.8 kmh 30.64 in1037.6 mb 0.05 in1.3 mm 0.00 in0.0 mm 0.23 in5.8 mm
06:54 PM 37.0°F2.8°C 36.5°F2.5°C 98% 2.0 mph 3.2 kmh 3.0 mph4.8 kmh 30.64 in1037.6 mb 0.05 in1.3 mm 0.00 in0.0 mm 0.23 in5.8 mm
06:55 PM 37.0°F2.8°C 36.5°F2.5°C 98% Calm Calm 3.0 mph4.8 kmh 30.64 in1037.6 mb 0.06 in1.5 mm 0.60 in15.2 mm 0.24 in6.1 mm
06:56 PM 37.0°F2.8°C 36.5°F2.5°C 98% 1.0 mph ESE1.6 kmh ESE 3.0 mph4.8 kmh 30.64 in1037.6 mb 0.06 in1.5 mm 0.00 in0.0 mm 0.24 in6.1 mm
06:57 PM 37.0°F2.8°C 36.5°F2.5°C 98% 1.0 mph NE1.6 kmh NE 2.0 mph3.2 kmh 30.65 in1037.9 mb 0.06 in1.5 mm 0.00 in0.0 mm 0.24 in6.1 mm
06:58 PM 37.0°F2.8°C 36.5°F2.5°C 98% 1.0 mph WNW1.6 kmh WNW 2.0 mph3.2 kmh 30.65 in1037.9 mb 0.06 in1.5 mm 0.00 in0.0 mm 0.24 in6.1 mm
06:59 PM 37.0°F2.8°C 36.5°F2.5°C 98% 1.0 mph WNW1.6 kmh WNW 2.0 mph3.2 kmh 30.65 in1037.9 mb 0.06 in1.5 mm 0.00 in0.0 mm 0.24 in6.1 mm
07:00 PM 36.9°F2.7°C 36.4°F2.4°C 98% 1.0 mph 1.6 kmh 2.0 mph3.2 kmh 30.65 in1037.9 mb 0.06 in1.5 mm 0.00 in0.0 mm 0.24 in6.1 mm
07:01 PM 36.9°F2.7°C 36.4°F2.4°C 98% Calm Calm 2.0 mph3.2 kmh 30.65 in1037.9 mb 0.07 in1.8 mm 0.60 in15.2 mm 0.25 in6.4 mm
07:02 PM 36.9°F2.7°C 36.4°F2.4°C 98% 2.0 mph SE3.2 kmh SE 2.0 mph3.2 kmh 30.65 in1037.9 mb 0.07 in1.8 mm 0.00 in0.0 mm 0.25 in6.4 mm
07:03 PM 36.9°F2.7°C 36.4°F2.4°C 98% 3.0 mph SE4.8 kmh SE 3.0 mph4.8 kmh 30.65 in1037.9 mb 0.07 in1.8 mm 0.00 in0.0 mm 0.25 in6.4 mm
07:04 PM 36.7°F2.6°C 36.2°F2.3°C 98% 2.0 mph 3.2 kmh 3.0 mph4.8 kmh 30.65 in1037.9 mb 0.07 in1.8 mm 0.00 in0.0 mm 0.25 in6.4 mm
07:05 PM 36.7°F2.6°C 36.2°F2.3°C 98% 3.0 mph 4.8 kmh 3.0 mph4.8 kmh 30.65 in1037.9 mb 0.07 in1.8 mm 0.00 in0.0 mm 0.25 in6.4 mm
07:06 PM 36.7°F2.6°C 36.2°F2.3°C 98% 2.0 mph W3.2 kmh W 3.0 mph4.8 kmh 30.65 in1037.9 mb 0.07 in1.8 mm 0.00 in0.0 mm 0.25 in6.4 mm
07:07 PM 36.7°F2.6°C 36.2°F2.3°C 98% 2.0 mph E3.2 kmh E 3.0 mph4.8 kmh 30.65 in1037.9 mb 0.00 in0.0 mm 0.00 in0.0 mm 0.25 in6.4 mm
07:08 PM 36.7°F2.6°C 36.2°F2.3°C 98% 2.0 mph NE3.2 kmh NE 3.0 mph4.8 kmh 30.65 in1037.9 mb 0.01 in0.3 mm 0.60 in15.2 mm 0.26 in6.6 mm
07:09 PM 36.7°F2.6°C 36.2°F2.3°C 98% 2.0 mph NE3.2 kmh NE 3.0 mph4.8 kmh 30.66 in1038.3 mb 0.01 in0.3 mm 0.00 in0.0 mm 0.26 in6.6 mm
07:10 PM 36.5°F2.5°C 36.0°F2.2°C 98% 2.0 mph ENE3.2 kmh ENE 3.0 mph4.8 kmh 30.66 in1038.3 mb 0.01 in0.3 mm 0.00 in0.0 mm 0.26 in6.6 mm
07:11 PM 36.5°F2.5°C 36.0°F2.2°C 98% 2.0 mph NNE3.2 kmh NNE 3.0 mph4.8 kmh 30.66 in1038.3 mb 0.01 in0.3 mm 0.00 in0.0 mm 0.26 in6.6 mm
07:12 PM 36.5°F2.5°C 36.0°F2.2°C 98% 2.0 mph NNE3.2 kmh NNE 3.0 mph4.8 kmh 30.66 in1038.3 mb 0.01 in0.3 mm 0.00 in0.0 mm 0.26 in6.6 mm
07:13 PM 36.5°F2.5°C 36.0°F2.2°C 98% 2.0 mph NNE3.2 kmh NNE 3.0 mph4.8 kmh 30.66 in1038.3 mb 0.01 in0.3 mm 0.00 in0.0 mm 0.26 in6.6 mm
07:14 PM 36.5°F2.5°C 36.0°F2.2°C 98% 2.0 mph ESE3.2 kmh ESE 3.0 mph4.8 kmh 30.66 in1038.3 mb 0.01 in0.3 mm 0.00 in0.0 mm 0.26 in6.6 mm
07:15 PM 36.5°F2.5°C 36.0°F2.2°C 98% 1.0 mph NNE1.6 kmh NNE 3.0 mph4.8 kmh 30.66 in1038.3 mb 0.01 in0.3 mm 0.00 in0.0 mm 0.26 in6.6 mm
07:16 PM 36.5°F2.5°C 36.0°F2.2°C 98% 2.0 mph NE3.2 kmh NE 3.0 mph4.8 kmh 30.66 in1038.3 mb 0.01 in0.3 mm 0.00 in0.0 mm 0.26 in6.6 mm
07:17 PM 36.5°F2.5°C 36.0°F2.2°C 98% 1.0 mph NNW1.6 kmh NNW 3.0 mph4.8 kmh 30.66 in1038.3 mb 0.01 in0.3 mm 0.00 in0.0 mm 0.26 in6.6 mm
07:18 PM 36.5°F2.5°C 36.0°F2.2°C 98% 4.0 mph NNW6.4 kmh NNW 4.0 mph6.4 kmh 30.66 in1038.3 mb 0.02 in0.5 mm 0.60 in15.2 mm 0.27 in6.9 mm
07:19 PM 36.5°F2.5°C 36.0°F2.2°C 98% 1.0 mph NE1.6 kmh NE 4.0 mph6.4 kmh 30.67 in1038.6 mb 0.02 in0.5 mm 0.00 in0.0 mm 0.27 in6.9 mm
07:20 PM 36.5°F2.5°C 36.0°F2.2°C 98% 1.0 mph WNW1.6 kmh WNW 4.0 mph6.4 kmh 30.67 in1038.6 mb 0.02 in0.5 mm 0.00 in0.0 mm 0.27 in6.9 mm
07:21 PM 36.5°F2.5°C 36.0°F2.2°C 98% 1.0 mph NNE1.6 kmh NNE 4.0 mph6.4 kmh 30.66 in1038.3 mb 0.02 in0.5 mm 0.00 in0.0 mm 0.27 in6.9 mm
07:22 PM 36.5°F2.5°C 36.0°F2.2°C 98% 3.0 mph 4.8 kmh 4.0 mph6.4 kmh 30.66 in1038.3 mb 0.02 in0.5 mm 0.00 in0.0 mm 0.27 in6.9 mm
07:23 PM 36.2°F2.3°C 35.7°F2.1°C 98% 2.0 mph NNE3.2 kmh NNE 4.0 mph6.4 kmh 30.67 in1038.6 mb 0.02 in0.5 mm 0.00 in0.0 mm 0.27 in6.9 mm
07:24 PM 36.2°F2.3°C 35.7°F2.1°C 98% 3.0 mph NNE4.8 kmh NNE 6.0 mph9.7 kmh 30.67 in1038.6 mb 0.02 in0.5 mm 0.00 in0.0 mm 0.27 in6.9 mm
07:25 PM 36.2°F2.3°C 35.7°F2.1°C 98% 2.0 mph E3.2 kmh E 6.0 mph9.7 kmh 30.67 in1038.6 mb 0.02 in0.5 mm 0.00 in0.0 mm 0.27 in6.9 mm
07:26 PM 36.2°F2.3°C 35.7°F2.1°C 98% 1.0 mph 1.6 kmh 6.0 mph9.7 kmh 30.67 in1038.6 mb 0.02 in0.5 mm 0.00 in0.0 mm 0.27 in6.9 mm
07:27 PM 36.2°F2.3°C 35.7°F2.1°C 98% 2.0 mph NNE3.2 kmh NNE 6.0 mph9.7 kmh 30.66 in1038.3 mb 0.02 in0.5 mm 0.00 in0.0 mm 0.27 in6.9 mm
07:28 PM 36.2°F2.3°C 35.7°F2.1°C 98% 2.0 mph NNW3.2 kmh NNW 6.0 mph9.7 kmh 30.66 in1038.3 mb 0.02 in0.5 mm 0.00 in0.0 mm 0.27 in6.9 mm
07:29 PM 36.1°F2.3°C 35.6°F2.0°C 98% 2.0 mph NE3.2 kmh NE 6.0 mph9.7 kmh 30.66 in1038.3 mb 0.02 in0.5 mm 0.00 in0.0 mm 0.27 in6.9 mm
07:30 PM 36.1°F2.3°C 35.6°F2.0°C 98% 1.0 mph NE1.6 kmh NE 6.0 mph9.7 kmh 30.66 in1038.3 mb 0.02 in0.5 mm 0.00 in0.0 mm 0.27 in6.9 mm
07:31 PM 36.1°F2.3°C 35.6°F2.0°C 98% 2.0 mph NNE3.2 kmh NNE 6.0 mph9.7 kmh 30.66 in1038.3 mb 0.02 in0.5 mm 0.00 in0.0 mm 0.27 in6.9 mm
07:32 PM 36.1°F2.3°C 35.6°F2.0°C 98% 2.0 mph NW3.2 kmh NW 6.0 mph9.7 kmh 30.66 in1038.3 mb 0.02 in0.5 mm 0.00 in0.0 mm 0.27 in6.9 mm
07:33 PM 36.1°F2.3°C 35.6°F2.0°C 98% 2.0 mph NNE3.2 kmh NNE 6.0 mph9.7 kmh 30.66 in1038.3 mb 0.02 in0.5 mm 0.00 in0.0 mm 0.27 in6.9 mm
07:34 PM 36.1°F2.3°C 35.6°F2.0°C 98% 4.0 mph NNW6.4 kmh NNW 4.0 mph6.4 kmh 30.66 in1038.3 mb 0.02 in0.5 mm 0.00 in0.0 mm 0.27 in6.9 mm
07:35 PM 35.9°F2.2°C 35.4°F1.9°C 98% 2.0 mph NNW3.2 kmh NNW 4.0 mph6.4 kmh 30.67 in1038.6 mb 0.02 in0.5 mm 0.00 in0.0 mm 0.27 in6.9 mm
07:36 PM 35.9°F2.2°C 35.4°F1.9°C 98% 2.0 mph 3.2 kmh 4.0 mph6.4 kmh 30.66 in1038.3 mb 0.02 in0.5 mm 0.00 in0.0 mm 0.27 in6.9 mm
07:37 PM 35.9°F2.2°C 35.4°F1.9°C 98% 3.0 mph NE4.8 kmh NE 4.0 mph6.4 kmh 30.66 in1038.3 mb 0.02 in0.5 mm 0.00 in0.0 mm 0.27 in6.9 mm
07:38 PM 35.9°F2.2°C 35.4°F1.9°C 98% 1.0 mph W1.6 kmh W 4.0 mph6.4 kmh 30.66 in1038.3 mb 0.02 in0.5 mm 0.00 in0.0 mm 0.27 in6.9 mm
07:39 PM 35.9°F2.2°C 35.4°F1.9°C 98% 1.0 mph NE1.6 kmh NE 4.0 mph6.4 kmh 30.66 in1038.3 mb 0.02 in0.5 mm 0.00 in0.0 mm 0.27 in6.9 mm
07:40 PM 35.9°F2.2°C 35.4°F1.9°C 98% 1.0 mph ESE1.6 kmh ESE 4.0 mph6.4 kmh 30.66 in1038.3 mb 0.02 in0.5 mm 0.00 in0.0 mm 0.27 in6.9 mm
07:41 PM 35.9°F2.2°C 35.4°F1.9°C 98% 2.0 mph NE3.2 kmh NE 4.0 mph6.4 kmh 30.66 in1038.3 mb 0.02 in0.5 mm 0.00 in0.0 mm 0.27 in6.9 mm
07:42 PM 35.9°F2.2°C 35.4°F1.9°C 98% Calm Calm 4.0 mph6.4 kmh 30.66 in1038.3 mb 0.02 in0.5 mm 0.00 in0.0 mm 0.27 in6.9 mm
07:43 PM 35.9°F2.2°C 35.4°F1.9°C 98% 2.0 mph 3.2 kmh 4.0 mph6.4 kmh 30.66 in1038.3 mb 0.02 in0.5 mm 0.00 in0.0 mm 0.27 in6.9 mm
07:44 PM 35.9°F2.2°C 35.4°F1.9°C 98% 2.0 mph NE3.2 kmh NE 4.0 mph6.4 kmh 30.66 in1038.3 mb 0.02 in0.5 mm 0.00 in0.0 mm 0.27 in6.9 mm
07:45 PM 35.7°F2.1°C 35.2°F1.8°C 98% 4.0 mph NNE6.4 kmh NNE 4.0 mph6.4 kmh 30.65 in1037.9 mb 0.02 in0.5 mm 0.00 in0.0 mm 0.27 in6.9 mm
07:46 PM 35.7°F2.1°C 35.2°F1.8°C 98% 2.0 mph NW3.2 kmh NW 4.0 mph6.4 kmh 30.65 in1037.9 mb 0.02 in0.5 mm 0.00 in0.0 mm 0.27 in6.9 mm
07:47 PM 35.7°F2.1°C 35.2°F1.8°C 98% 4.0 mph NE6.4 kmh NE 4.0 mph6.4 kmh 30.66 in1038.3 mb 0.02 in0.5 mm 0.00 in0.0 mm 0.27 in6.9 mm
07:48 PM 35.7°F2.1°C 35.2°F1.8°C 98% 3.0 mph NNW4.8 kmh NNW 4.0 mph6.4 kmh 30.66 in1038.3 mb 0.02 in0.5 mm 0.00 in0.0 mm 0.27 in6.9 mm
07:49 PM 35.5°F1.9°C 35.0°F1.7°C 98% 2.0 mph 3.2 kmh 4.0 mph6.4 kmh 30.66 in1038.3 mb 0.02 in0.5 mm 0.00 in0.0 mm 0.27 in6.9 mm
07:50 PM 35.5°F1.9°C 35.0°F1.7°C 98% 3.0 mph WNW4.8 kmh WNW 4.0 mph6.4 kmh 30.65 in1037.9 mb 0.02 in0.5 mm 0.00 in0.0 mm 0.27 in6.9 mm
07:51 PM 35.5°F1.9°C 35.0°F1.7°C 98% 2.0 mph ENE3.2 kmh ENE 4.0 mph6.4 kmh 30.65 in1037.9 mb 0.02 in0.5 mm 0.00 in0.0 mm 0.27 in6.9 mm
07:52 PM 35.5°F1.9°C 35.0°F1.7°C 98% 2.0 mph ENE3.2 kmh ENE 4.0 mph6.4 kmh 30.65 in1037.9 mb 0.02 in0.5 mm 0.00 in0.0 mm 0.27 in6.9 mm
07:53 PM 35.5°F1.9°C 35.0°F1.7°C 98% 2.0 mph NNW3.2 kmh NNW 4.0 mph6.4 kmh 30.65 in1037.9 mb 0.02 in0.5 mm 0.00 in0.0 mm 0.27 in6.9 mm
07:54 PM 35.5°F1.9°C 35.0°F1.7°C 98% 2.0 mph NE3.2 kmh NE 4.0 mph6.4 kmh 30.65 in1037.9 mb 0.02 in0.5 mm 0.00 in0.0 mm 0.27 in6.9 mm
07:55 PM 35.5°F1.9°C 35.0°F1.7°C 98% 2.0 mph 3.2 kmh 4.0 mph6.4 kmh 30.65 in1037.9 mb 0.02 in0.5 mm 0.00 in0.0 mm 0.27 in6.9 mm
07:56 PM 35.5°F1.9°C 35.0°F1.7°C 98% 2.0 mph NNE3.2 kmh NNE 4.0 mph6.4 kmh 30.65 in1037.9 mb 0.02 in0.5 mm 0.00 in0.0 mm 0.27 in6.9 mm
07:57 PM 35.5°F1.9°C 35.0°F1.7°C 98% 3.0 mph NE4.8 kmh NE 4.0 mph6.4 kmh 30.65 in1037.9 mb 0.02 in0.5 mm 0.00 in0.0 mm 0.27 in6.9 mm
07:58 PM 35.4°F1.9°C 34.9°F1.6°C 98% 2.0 mph W3.2 kmh W 4.0 mph6.4 kmh 30.65 in1037.9 mb 0.02 in0.5 mm 0.00 in0.0 mm 0.27 in6.9 mm
07:59 PM 35.4°F1.9°C 34.9°F1.6°C 98% 1.0 mph NNE1.6 kmh NNE 4.0 mph6.4 kmh 30.65 in1037.9 mb 0.02 in0.5 mm 0.00 in0.0 mm 0.27 in6.9 mm
08:00 PM 35.4°F1.9°C 34.9°F1.6°C 98% Calm Calm 4.0 mph6.4 kmh 30.65 in1037.9 mb 0.02 in0.5 mm 0.00 in0.0 mm 0.27 in6.9 mm
08:01 PM 35.4°F1.9°C 34.9°F1.6°C 98% 2.0 mph NNE3.2 kmh NNE 4.0 mph6.4 kmh 30.65 in1037.9 mb 0.02 in0.5 mm 0.00 in0.0 mm 0.27 in6.9 mm
08:02 PM 35.4°F1.9°C 34.9°F1.6°C 98% 2.0 mph NNE3.2 kmh NNE 4.0 mph6.4 kmh 30.65 in1037.9 mb 0.02 in0.5 mm 0.00 in0.0 mm 0.27 in6.9 mm
08:03 PM 35.4°F1.9°C 34.9°F1.6°C 98% 2.0 mph 3.2 kmh 4.0 mph6.4 kmh 30.65 in1037.9 mb 0.02 in0.5 mm 0.00 in0.0 mm 0.27 in6.9 mm
08:04 PM 35.4°F1.9°C 34.9°F1.6°C 98% 3.0 mph NNE4.8 kmh NNE 4.0 mph6.4 kmh 30.65 in1037.9 mb 0.02 in0.5 mm 0.00 in0.0 mm 0.27 in6.9 mm
08:05 PM 35.4°F1.9°C 34.9°F1.6°C 98% 3.0 mph NNW4.8 kmh NNW 4.0 mph6.4 kmh 30.66 in1038.3 mb 0.02 in0.5 mm 0.00 in0.0 mm 0.27 in6.9 mm
08:06 PM 35.4°F1.9°C 34.9°F1.6°C 98% 2.0 mph NNE3.2 kmh NNE 4.0 mph6.4 kmh 30.66 in1038.3 mb 0.02 in0.5 mm 0.00 in0.0 mm 0.27 in6.9 mm
08:07 PM 35.4°F1.9°C 34.9°F1.6°C 98% 2.0 mph NNW3.2 kmh NNW 3.0 mph4.8 kmh 30.66 in1038.3 mb 0.00 in0.0 mm 0.00 in0.0 mm 0.27 in6.9 mm
08:08 PM 35.4°F1.9°C 34.9°F1.6°C 98% 3.0 mph ENE4.8 kmh ENE 4.0 mph6.4 kmh 30.66 in1038.3 mb 0.00 in0.0 mm 0.00 in0.0 mm 0.27 in6.9 mm
08:09 PM 35.4°F1.9°C 34.9°F1.6°C 98% 2.0 mph NNE3.2 kmh NNE 4.0 mph6.4 kmh 30.65 in1037.9 mb 0.00 in0.0 mm 0.00 in0.0 mm 0.27 in6.9 mm
08:10 PM 35.4°F1.9°C 34.9°F1.6°C 98% 4.0 mph NNE6.4 kmh NNE 4.0 mph6.4 kmh 30.65 in1037.9 mb 0.00 in0.0 mm 0.00 in0.0 mm 0.27 in6.9 mm
08:11 PM 35.4°F1.9°C 34.9°F1.6°C 98% 3.0 mph NNE4.8 kmh NNE 5.0 mph8.0 kmh 30.65 in1037.9 mb 0.00 in0.0 mm 0.00 in0.0 mm 0.27 in6.9 mm
08:12 PM 35.4°F1.9°C 34.9°F1.6°C 98% 2.0 mph NE3.2 kmh NE 5.0 mph8.0 kmh 30.65 in1037.9 mb 0.00 in0.0 mm 0.00 in0.0 mm 0.27 in6.9 mm
08:13 PM 35.4°F1.9°C 34.9°F1.6°C 98% 4.0 mph 6.4 kmh 5.0 mph8.0 kmh 30.65 in1037.9 mb 0.00 in0.0 mm 0.00 in0.0 mm 0.27 in6.9 mm
08:14 PM 35.4°F1.9°C 34.9°F1.6°C 98% 2.0 mph NNE3.2 kmh NNE 5.0 mph8.0 kmh 30.65 in1037.9 mb 0.00 in0.0 mm 0.00 in0.0 mm 0.27 in6.9 mm
08:15 PM 35.4°F1.9°C 34.9°F1.6°C 98% 1.0 mph ENE1.6 kmh ENE 5.0 mph8.0 kmh 30.65 in1037.9 mb 0.00 in0.0 mm 0.00 in0.0 mm 0.27 in6.9 mm
08:16 PM 35.4°F1.9°C 34.9°F1.6°C 98% 2.0 mph 3.2 kmh 5.0 mph8.0 kmh 30.65 in1037.9 mb 0.00 in0.0 mm 0.00 in0.0 mm 0.27 in6.9 mm
08:17 PM 35.4°F1.9°C 34.9°F1.6°C 98% 2.0 mph NNE3.2 kmh NNE 5.0 mph8.0 kmh 30.65 in1037.9 mb 0.00 in0.0 mm 0.00 in0.0 mm 0.27 in6.9 mm
08:18 PM 35.4°F1.9°C 34.9°F1.6°C 98% 1.0 mph NNW1.6 kmh NNW 5.0 mph8.0 kmh 30.65 in1037.9 mb 0.00 in0.0 mm 0.00 in0.0 mm 0.27 in6.9 mm
08:19 PM 35.4°F1.9°C 34.9°F1.6°C 98% 1.0 mph ENE1.6 kmh ENE 5.0 mph8.0 kmh 30.65 in1037.9 mb 0.00 in0.0 mm 0.00 in0.0 mm 0.27 in6.9 mm
08:20 PM 35.4°F1.9°C 34.9°F1.6°C 98% 3.0 mph NNE4.8 kmh NNE 5.0 mph8.0 kmh 30.65 in1037.9 mb 0.00 in0.0 mm 0.00 in0.0 mm 0.27 in6.9 mm
08:21 PM 35.4°F1.9°C 34.9°F1.6°C 98% 3.0 mph 4.8 kmh 4.0 mph6.4 kmh 30.65 in1037.9 mb 0.00 in0.0 mm 0.00 in0.0 mm 0.27 in6.9 mm
08:22 PM 35.1°F1.7°C 34.6°F1.4°C 98% 1.0 mph NE1.6 kmh NE 4.0 mph6.4 kmh 30.65 in1037.9 mb 0.00 in0.0 mm 0.00 in0.0 mm 0.27 in6.9 mm
08:23 PM 35.1°F1.7°C 34.6°F1.4°C 98% Calm Calm 4.0 mph6.4 kmh 30.65 in1037.9 mb 0.00 in0.0 mm 0.00 in0.0 mm 0.27 in6.9 mm
08:24 PM 35.1°F1.7°C 34.6°F1.4°C 98% 1.0 mph 1.6 kmh 3.0 mph4.8 kmh 30.65 in1037.9 mb 0.00 in0.0 mm 0.00 in0.0 mm 0.27 in6.9 mm
08:25 PM 35.1°F1.7°C 34.6°F1.4°C 98% 2.0 mph NE3.2 kmh NE 3.0 mph4.8 kmh 30.65 in1037.9 mb 0.00 in0.0 mm 0.00 in0.0 mm 0.27 in6.9 mm
08:26 PM 35.1°F1.7°C 34.6°F1.4°C 98% 1.0 mph NE1.6 kmh NE 3.0 mph4.8 kmh 30.65 in1037.9 mb 0.00 in0.0 mm 0.00 in0.0 mm 0.27 in6.9 mm
08:27 PM 35.1°F1.7°C 34.6°F1.4°C 98% 1.0 mph NNW1.6 kmh NNW 3.0 mph4.8 kmh 30.65 in1037.9 mb 0.00 in0.0 mm 0.00 in0.0 mm 0.27 in6.9 mm
08:28 PM 35.1°F1.7°C 34.6°F1.4°C 98% 2.0 mph ESE3.2 kmh ESE 3.0 mph4.8 kmh 30.65 in1037.9 mb 0.00 in0.0 mm 0.00 in0.0 mm 0.27 in6.9 mm
08:29 PM 35.1°F1.7°C 34.6°F1.4°C 98% 3.0 mph NNE4.8 kmh NNE 3.0 mph4.8 kmh 30.65 in1037.9 mb 0.00 in0.0 mm 0.00 in0.0 mm 0.27 in6.9 mm
08:30 PM 35.1°F1.7°C 34.6°F1.4°C 98% 1.0 mph NNE1.6 kmh NNE 3.0 mph4.8 kmh 30.64 in1037.6 mb 0.00 in0.0 mm 0.00 in0.0 mm 0.27 in6.9 mm
08:31 PM 35.1°F1.7°C 34.6°F1.4°C 98% 1.0 mph NW1.6 kmh NW 3.0 mph4.8 kmh 30.64 in1037.6 mb 0.00 in0.0 mm 0.00 in0.0 mm 0.27 in6.9 mm
08:32 PM 35.1°F1.7°C 34.6°F1.4°C 98% 2.0 mph NNE3.2 kmh NNE 3.0 mph4.8 kmh 30.64 in1037.6 mb 0.00 in0.0 mm 0.00 in0.0 mm 0.27 in6.9 mm
08:33 PM 35.1°F1.7°C 34.6°F1.4°C 98% 1.0 mph WNW1.6 kmh WNW 3.0 mph4.8 kmh 30.63 in1037.3 mb 0.00 in0.0 mm 0.00 in0.0 mm 0.27 in6.9 mm
08:34 PM 35.1°F1.7°C 34.6°F1.4°C 98% 1.0 mph NNE1.6 kmh NNE 3.0 mph4.8 kmh 30.63 in1037.3 mb 0.00 in0.0 mm 0.00 in0.0 mm 0.27 in6.9 mm
08:35 PM 35.1°F1.7°C 34.6°F1.4°C 98% 1.0 mph SW1.6 kmh SW 3.0 mph4.8 kmh 30.63 in1037.3 mb 0.00 in0.0 mm 0.00 in0.0 mm 0.27 in6.9 mm
08:36 PM 35.1°F1.7°C 34.6°F1.4°C 98% Calm Calm 3.0 mph4.8 kmh 30.63 in1037.3 mb 0.00 in0.0 mm 0.00 in0.0 mm 0.27 in6.9 mm
08:37 PM 35.4°F1.9°C 34.9°F1.6°C 98% 1.0 mph NNE1.6 kmh NNE 3.0 mph4.8 kmh 30.63 in1037.3 mb 0.00 in0.0 mm 0.00 in0.0 mm 0.27 in6.9 mm
08:38 PM 35.4°F1.9°C 34.9°F1.6°C 98% 1.0 mph ESE1.6 kmh ESE 3.0 mph4.8 kmh 30.63 in1037.3 mb 0.00 in0.0 mm 0.00 in0.0 mm 0.27 in6.9 mm
08:39 PM 35.4°F1.9°C 34.9°F1.6°C 98% Calm Calm 3.0 mph4.8 kmh 30.63 in1037.3 mb 0.00 in0.0 mm 0.00 in0.0 mm 0.27 in6.9 mm
08:40 PM 35.4°F1.9°C 34.9°F1.6°C 98% Calm Calm 3.0 mph4.8 kmh 30.63 in1037.3 mb 0.00 in0.0 mm 0.00 in0.0 mm 0.27 in6.9 mm
08:41 PM 35.4°F1.9°C 34.9°F1.6°C 98% Calm Calm 3.0 mph4.8 kmh 30.63 in1037.3 mb 0.00 in0.0 mm 0.00 in0.0 mm 0.27 in6.9 mm
08:42 PM 35.4°F1.9°C 34.9°F1.6°C 98% 1.0 mph NW1.6 kmh NW 2.0 mph3.2 kmh 30.63 in1037.3 mb 0.00 in0.0 mm 0.00 in0.0 mm 0.27 in6.9 mm
08:43 PM 35.4°F1.9°C 34.9°F1.6°C 98% 2.0 mph NNE3.2 kmh NNE 2.0 mph3.2 kmh 30.63 in1037.3 mb 0.00 in0.0 mm 0.00 in0.0 mm 0.27 in6.9 mm
08:44 PM 35.4°F1.9°C 34.9°F1.6°C 98% Calm Calm 2.0 mph3.2 kmh 30.63 in1037.3 mb 0.00 in0.0 mm 0.00 in0.0 mm 0.27 in6.9 mm
08:45 PM 35.4°F1.9°C 34.9°F1.6°C 98% 2.0 mph 3.2 kmh 2.0 mph3.2 kmh 30.63 in1037.3 mb 0.00 in0.0 mm 0.00 in0.0 mm 0.27 in6.9 mm
08:46 PM 35.4°F1.9°C 34.9°F1.6°C 98% 2.0 mph W3.2 kmh W 3.0 mph4.8 kmh 30.63 in1037.3 mb 0.00 in0.0 mm 0.00 in0.0 mm 0.27 in6.9 mm
08:47 PM 35.1°F1.7°C 34.6°F1.4°C 98% 2.0 mph WNW3.2 kmh WNW 3.0 mph4.8 kmh 30.62 in1036.9 mb 0.00 in0.0 mm 0.00 in0.0 mm 0.27 in6.9 mm
08:48 PM 35.1°F1.7°C 34.6°F1.4°C 98% 1.0 mph WNW1.6 kmh WNW 3.0 mph4.8 kmh 30.62 in1036.9 mb 0.00 in0.0 mm 0.00 in0.0 mm 0.27 in6.9 mm
08:49 PM 35.1°F1.7°C 34.6°F1.4°C 98% Calm Calm 3.0 mph4.8 kmh 30.62 in1036.9 mb 0.00 in0.0 mm 0.00 in0.0 mm 0.27 in6.9 mm
08:50 PM 35.1°F1.7°C 34.6°F1.4°C 98% 1.0 mph NNW1.6 kmh NNW 3.0 mph4.8 kmh 30.62 in1036.9 mb 0.00 in0.0 mm 0.00 in0.0 mm 0.27 in6.9 mm
08:51 PM 35.1°F1.7°C 34.6°F1.4°C 98% 2.0 mph 3.2 kmh 3.0 mph4.8 kmh 30.62 in1036.9 mb 0.00 in0.0 mm 0.00 in0.0 mm 0.27 in6.9 mm
08:52 PM 35.0°F1.7°C 34.5°F1.4°C 98% 1.0 mph NNE1.6 kmh NNE 3.0 mph4.8 kmh 30.62 in1036.9 mb 0.00 in0.0 mm 0.00 in0.0 mm 0.27 in6.9 mm
08:53 PM 35.0°F1.7°C 34.5°F1.4°C 98% 2.0 mph NNE3.2 kmh NNE 3.0 mph4.8 kmh 30.62 in1036.9 mb 0.00 in0.0 mm 0.00 in0.0 mm 0.27 in6.9 mm
08:54 PM 34.9°F1.6°C 34.4°F1.3°C 98% 1.0 mph NNW1.6 kmh NNW 3.0 mph4.8 kmh 30.62 in1036.9 mb 0.00 in0.0 mm 0.00 in0.0 mm 0.27 in6.9 mm
08:55 PM 34.9°F1.6°C 34.4°F1.3°C 98% 1.0 mph WNW1.6 kmh WNW 3.0 mph4.8 kmh 30.62 in1036.9 mb 0.00 in0.0 mm 0.00 in0.0 mm 0.27 in6.9 mm
08:56 PM 34.9°F1.6°C 34.4°F1.3°C 98% Calm Calm 3.0 mph4.8 kmh 30.62 in1036.9 mb 0.00 in0.0 mm 0.00 in0.0 mm 0.27 in6.9 mm
08:57 PM 34.9°F1.6°C 34.4°F1.3°C 98% Calm Calm 3.0 mph4.8 kmh 30.62 in1036.9 mb 0.00 in0.0 mm 0.00 in0.0 mm 0.27 in6.9 mm
08:58 PM 34.9°F1.6°C 34.4°F1.3°C 98% 1.0 mph NNE1.6 kmh NNE 2.0 mph3.2 kmh 30.62 in1036.9 mb 0.00 in0.0 mm 0.00 in0.0 mm 0.27 in6.9 mm
08:59 PM 34.9°F1.6°C 34.4°F1.3°C 98% 2.0 mph NW3.2 kmh NW 2.0 mph3.2 kmh 30.62 in1036.9 mb 0.00 in0.0 mm 0.00 in0.0 mm 0.27 in6.9 mm
09:00 PM 34.9°F1.6°C 34.4°F1.3°C 98% 2.0 mph WNW3.2 kmh WNW 2.0 mph3.2 kmh 30.62 in1036.9 mb 0.00 in0.0 mm 0.00 in0.0 mm 0.27 in6.9 mm
09:01 PM 34.9°F1.6°C 34.4°F1.3°C 98% 1.0 mph NNE1.6 kmh NNE 2.0 mph3.2 kmh 30.63 in1037.3 mb 0.00 in0.0 mm 0.00 in0.0 mm 0.27 in6.9 mm
09:02 PM 34.7°F1.5°C 34.2°F1.2°C 98% 1.0 mph NNE1.6 kmh NNE 4.0 mph6.4 kmh 30.63 in1037.3 mb 0.00 in0.0 mm 0.00 in0.0 mm 0.27 in6.9 mm
09:03 PM 34.7°F1.5°C 34.2°F1.2°C 98% 1.0 mph WNW1.6 kmh WNW 4.0 mph6.4 kmh 30.63 in1037.3 mb 0.00 in0.0 mm 0.00 in0.0 mm 0.27 in6.9 mm
09:04 PM 34.7°F1.5°C 34.2°F1.2°C 98% 1.0 mph NNW1.6 kmh NNW 4.0 mph6.4 kmh 30.63 in1037.3 mb 0.00 in0.0 mm 0.00 in0.0 mm 0.27 in6.9 mm
09:05 PM 34.7°F1.5°C 34.2°F1.2°C 98% 2.0 mph NNE3.2 kmh NNE 4.0 mph6.4 kmh 30.63 in1037.3 mb 0.00 in0.0 mm 0.00 in0.0 mm 0.27 in6.9 mm
09:06 PM 34.7°F1.5°C 34.2°F1.2°C 98% 2.0 mph NNE3.2 kmh NNE 4.0 mph6.4 kmh 30.63 in1037.3 mb 0.00 in0.0 mm 0.00 in0.0 mm 0.27 in6.9 mm
09:07 PM 34.7°F1.5°C 34.2°F1.2°C 98% 1.0 mph NW1.6 kmh NW 4.0 mph6.4 kmh 30.63 in1037.3 mb 0.00 in0.0 mm 0.00 in0.0 mm 0.27 in6.9 mm
09:08 PM 34.7°F1.5°C 34.2°F1.2°C 98% 1.0 mph E1.6 kmh E 4.0 mph6.4 kmh 30.63 in1037.3 mb 0.00 in0.0 mm 0.00 in0.0 mm 0.27 in6.9 mm
09:09 PM 34.7°F1.5°C 34.2°F1.2°C 98% Calm Calm 4.0 mph6.4 kmh 30.63 in1037.3 mb 0.00 in0.0 mm 0.00 in0.0 mm 0.27 in6.9 mm
09:10 PM 34.7°F1.5°C 34.2°F1.2°C 98% Calm Calm 4.0 mph6.4 kmh 30.63 in1037.3 mb 0.00 in0.0 mm 0.00 in0.0 mm 0.27 in6.9 mm
09:11 PM 34.7°F1.5°C 34.2°F1.2°C 98% Calm Calm 4.0 mph6.4 kmh 30.63 in1037.3 mb 0.00 in0.0 mm 0.00 in0.0 mm 0.27 in6.9 mm
09:12 PM 34.7°F1.5°C 34.2°F1.2°C 98% Calm Calm 3.0 mph4.8 kmh 30.63 in1037.3 mb 0.00 in0.0 mm 0.00 in0.0 mm 0.27 in6.9 mm
09:13 PM 34.7°F1.5°C 34.2°F1.2°C 98% 2.0 mph ESE3.2 kmh ESE 3.0 mph4.8 kmh 30.63 in1037.3 mb 0.00 in0.0 mm 0.00 in0.0 mm 0.27 in6.9 mm
09:14 PM 34.7°F1.5°C 34.2°F1.2°C 98% 3.0 mph NE4.8 kmh NE 3.0 mph4.8 kmh 30.63 in1037.3 mb 0.00 in0.0 mm 0.00 in0.0 mm 0.27 in6.9 mm
09:15 PM 34.7°F1.5°C 34.2°F1.2°C 98% 1.0 mph 1.6 kmh 3.0 mph4.8 kmh 30.63 in1037.3 mb 0.00 in0.0 mm 0.00 in0.0 mm 0.27 in6.9 mm
09:16 PM 34.7°F1.5°C 34.2°F1.2°C 98% 1.0 mph NE1.6 kmh NE 3.0 mph4.8 kmh 30.63 in1037.3 mb 0.00 in0.0 mm 0.00 in0.0 mm 0.27 in6.9 mm
09:17 PM 34.7°F1.5°C 34.2°F1.2°C 98% 2.0 mph NNE3.2 kmh NNE 3.0 mph4.8 kmh 30.63 in1037.3 mb 0.00 in0.0 mm 0.00 in0.0 mm 0.27 in6.9 mm
09:18 PM 34.7°F1.5°C 34.2°F1.2°C 98% 1.0 mph NNE1.6 kmh NNE 3.0 mph4.8 kmh 30.63 in1037.3 mb 0.00 in0.0 mm 0.00 in0.0 mm 0.27 in6.9 mm
09:19 PM 34.7°F1.5°C 34.2°F1.2°C 98% Calm Calm 3.0 mph4.8 kmh 30.63 in1037.3 mb 0.00 in0.0 mm 0.00 in0.0 mm 0.27 in6.9 mm
09:20 PM 34.7°F1.5°C 34.2°F1.2°C 98% 1.0 mph NNW1.6 kmh NNW 3.0 mph4.8 kmh 30.63 in1037.3 mb 0.00 in0.0 mm 0.00 in0.0 mm 0.27 in6.9 mm
09:21 PM 34.7°F1.5°C 34.2°F1.2°C 98% Calm Calm 3.0 mph4.8 kmh 30.63 in1037.3 mb 0.00 in0.0 mm 0.00 in0.0 mm 0.27 in6.9 mm
09:22 PM 34.7°F1.5°C 34.2°F1.2°C 98% Calm Calm 3.0 mph4.8 kmh 30.63 in1037.3 mb 0.00 in0.0 mm 0.00 in0.0 mm 0.27 in6.9 mm
09:23 PM 34.7°F1.5°C 34.2°F1.2°C 98% Calm Calm 3.0 mph4.8 kmh 30.63 in1037.3 mb 0.00 in0.0 mm 0.00 in0.0 mm 0.27 in6.9 mm
09:24 PM 34.7°F1.5°C 34.2°F1.2°C 98% Calm Calm 3.0 mph4.8 kmh 30.63 in1037.3 mb 0.00 in0.0 mm 0.00 in0.0 mm 0.27 in6.9 mm
09:25 PM 34.7°F1.5°C 34.2°F1.2°C 98% 1.0 mph NW1.6 kmh NW 3.0 mph4.8 kmh 30.63 in1037.3 mb 0.00 in0.0 mm 0.00 in0.0 mm 0.27 in6.9 mm
09:26 PM 34.7°F1.5°C 34.2°F1.2°C 98% 1.0 mph 1.6 kmh 3.0 mph4.8 kmh 30.63 in1037.3 mb 0.00 in0.0 mm 0.00 in0.0 mm 0.27 in6.9 mm
09:27 PM 34.7°F1.5°C 34.2°F1.2°C 98% 3.0 mph WNW4.8 kmh WNW 3.0 mph4.8 kmh 30.62 in1036.9 mb 0.00 in0.0 mm 0.00 in0.0 mm 0.27 in6.9 mm
09:28 PM 34.7°F1.5°C 34.2°F1.2°C 98% Calm Calm 3.0 mph4.8 kmh 30.62 in1036.9 mb 0.00 in0.0 mm 0.00 in0.0 mm 0.27 in6.9 mm
09:29 PM 34.7°F1.5°C 34.2°F1.2°C 98% 1.0 mph SSE1.6 kmh SSE 3.0 mph4.8 kmh 30.63 in1037.3 mb 0.00 in0.0 mm 0.00 in0.0 mm 0.27 in6.9 mm
09:30 PM 34.7°F1.5°C 34.2°F1.2°C 98% 1.0 mph 1.6 kmh 3.0 mph4.8 kmh 30.62 in1036.9 mb 0.00 in0.0 mm 0.00 in0.0 mm 0.27 in6.9 mm
09:31 PM 34.7°F1.5°C 34.2°F1.2°C 98% 1.0 mph NNE1.6 kmh NNE 3.0 mph4.8 kmh 30.63 in1037.3 mb 0.00 in0.0 mm 0.00 in0.0 mm 0.27 in6.9 mm
09:32 PM 34.7°F1.5°C 34.2°F1.2°C 98% 1.0 mph WNW1.6 kmh WNW 3.0 mph4.8 kmh 30.63 in1037.3 mb 0.00 in0.0 mm 0.00 in0.0 mm 0.27 in6.9 mm
09:33 PM 34.7°F1.5°C 34.2°F1.2°C 98% 2.0 mph NW3.2 kmh NW 3.0 mph4.8 kmh 30.63 in1037.3 mb 0.00 in0.0 mm 0.00 in0.0 mm 0.27 in6.9 mm
09:34 PM 34.5°F1.4°C 34.0°F1.1°C 98% 1.0 mph NNW1.6 kmh NNW 3.0 mph4.8 kmh 30.63 in1037.3 mb 0.00 in0.0 mm 0.00 in0.0 mm 0.27 in6.9 mm
09:35 PM 34.5°F1.4°C 34.0°F1.1°C 98% Calm Calm 3.0 mph4.8 kmh 30.62 in1036.9 mb 0.00 in0.0 mm 0.00 in0.0 mm 0.27 in6.9 mm
09:36 PM 34.5°F1.4°C 34.0°F1.1°C 98% 2.0 mph 3.2 kmh 3.0 mph4.8 kmh 30.62 in1036.9 mb 0.00 i